<?xml version="1.0" encoding="UTF-8" standalone="no" ?>
<gpx xmlns="http://www.topografix.com/GPX/1/1" creator="CompeGPS" version="1.1" xmlns:xsi="http://www.w3.org/2001/XMLSchema-instance" xsi:schemaLocation="http://www.topografix.com/GPX/1/1 http://www.topografix.com/GPX/1/1/gpx.xsd http://www.garmin.com/xmlschemas/GpxExtensions/v3 http://www.garmin.com/xmlschemas/GpxExtensionsv3.xsd http://www.garmin.com/xmlschemas/TrackPointExtension/v1 http://www.garmin.com/xmlschemas/TrackPointExtensionv1.xsd" xmlns:gpxtpx="http://www.garmin.com/xmlschemas/TrackPointExtension/v1">
  <metadata>
    <link href="http://www.compegps.com">
      <text>CompeGPS TEAM, SL</text>
    </link>
    <time>2014-03-25T13:55:41Z</time>
    <bounds maxlat="43.458155" maxlon="1.884337" minlat="43.440043" minlon="1.821903"/>
  </metadata>
  <wpt lat="43.456505" lon="1.837156">
  <ele>280</ele>
  <name>Vaux</name>
</wpt>
<wpt lat="43.449694" lon="1.849991">
  <ele>259</ele>
  <name>Bif. cote 259m</name>
</wpt>
<wpt lat="43.458155" lon="1.853316">
  <ele>267</ele>
  <name>La Plaisance</name>
</wpt>
<wpt lat="43.440042" lon="1.883780">
  <ele>340</ele>
  <name>Antenne</name>
</wpt>
<wpt lat="43.447292" lon="1.860895">
  <ele>305</ele>
  <name>Fin sentier des Fourches</name>
</wpt>
<wpt lat="43.448382" lon="1.841679">
  <ele>230</ele>
  <name>Route D18</name>
</wpt>
<wpt lat="43.454627" lon="1.821903">
  <ele>260</ele>
  <name>Bif. cote 260m</name>
</wpt>
<trk>
    <name>Le Vaux</name>
    <trkseg>
      <trkpt lat="43.456505" lon="1.837156">
        <ele>270.1</ele>
        <time>2014-03-24T14:53:51Z</time>
        <name>Vaux</name>
      </trkpt>
      <trkpt lat="43.456295" lon="1.837274">
        <ele>269.4</ele>
        <time>2014-03-24T14:56:40Z</time>
      </trkpt>
      <trkpt lat="43.456208" lon="1.837340">
        <ele>269.1</ele>
        <time>2014-03-24T14:56:52Z</time>
      </trkpt>
      <trkpt lat="43.456106" lon="1.837306">
        <ele>269.0</ele>
        <time>2014-03-24T14:57:02Z</time>
      </trkpt>
      <trkpt lat="43.455986" lon="1.837259">
        <ele>268.5</ele>
        <time>2014-03-24T14:57:16Z</time>
      </trkpt>
      <trkpt lat="43.455869" lon="1.837184">
        <ele>267.8</ele>
        <time>2014-03-24T14:57:28Z</time>
      </trkpt>
      <trkpt lat="43.455798" lon="1.837071">
        <ele>266.7</ele>
        <time>2014-03-24T14:57:38Z</time>
      </trkpt>
      <trkpt lat="43.455712" lon="1.836925">
        <ele>265.4</ele>
        <time>2014-03-24T14:57:47Z</time>
      </trkpt>
      <trkpt lat="43.455632" lon="1.836830">
        <ele>264.2</ele>
        <time>2014-03-24T14:58:00Z</time>
      </trkpt>
      <trkpt lat="43.455541" lon="1.836940">
        <ele>263.3</ele>
        <time>2014-03-24T14:58:24Z</time>
      </trkpt>
      <trkpt lat="43.455456" lon="1.837071">
        <ele>262.7</ele>
        <time>2014-03-24T14:58:33Z</time>
      </trkpt>
      <trkpt lat="43.455384" lon="1.837185">
        <ele>261.8</ele>
        <time>2014-03-24T14:58:42Z</time>
      </trkpt>
      <trkpt lat="43.455326" lon="1.837287">
        <ele>261.6</ele>
        <time>2014-03-24T14:58:50Z</time>
      </trkpt>
      <trkpt lat="43.455266" lon="1.837411">
        <ele>260.9</ele>
        <time>2014-03-24T14:58:58Z</time>
      </trkpt>
      <trkpt lat="43.455203" lon="1.837523">
        <ele>260.4</ele>
        <time>2014-03-24T14:59:06Z</time>
      </trkpt>
      <trkpt lat="43.455119" lon="1.837638">
        <ele>259.2</ele>
        <time>2014-03-24T14:59:15Z</time>
      </trkpt>
      <trkpt lat="43.455055" lon="1.837783">
        <ele>258.0</ele>
        <time>2014-03-24T14:59:23Z</time>
      </trkpt>
      <trkpt lat="43.454996" lon="1.837889">
        <ele>257.2</ele>
        <time>2014-03-24T14:59:31Z</time>
      </trkpt>
      <trkpt lat="43.454956" lon="1.838017">
        <ele>256.7</ele>
        <time>2014-03-24T14:59:38Z</time>
      </trkpt>
      <trkpt lat="43.454949" lon="1.838129">
        <ele>256.0</ele>
        <time>2014-03-24T14:59:48Z</time>
      </trkpt>
      <trkpt lat="43.454866" lon="1.838231">
        <ele>255.0</ele>
        <time>2014-03-24T15:00:06Z</time>
      </trkpt>
      <trkpt lat="43.454768" lon="1.838342">
        <ele>253.1</ele>
        <time>2014-03-24T15:00:17Z</time>
      </trkpt>
      <trkpt lat="43.454736" lon="1.838472">
        <ele>251.1</ele>
        <time>2014-03-24T15:00:27Z</time>
      </trkpt>
      <trkpt lat="43.454703" lon="1.838474">
        <ele>248.2</ele>
        <time>2014-03-24T15:00:58Z</time>
      </trkpt>
      <trkpt lat="43.454776" lon="1.838453">
        <ele>249.5</ele>
        <time>2014-03-24T15:01:15Z</time>
      </trkpt>
      <trkpt lat="43.454751" lon="1.838563">
        <ele>247.2</ele>
        <time>2014-03-24T15:01:42Z</time>
      </trkpt>
      <trkpt lat="43.454719" lon="1.838695">
        <ele>244.6</ele>
        <time>2014-03-24T15:02:01Z</time>
      </trkpt>
      <trkpt lat="43.454647" lon="1.838783">
        <ele>240.0</ele>
        <time>2014-03-24T15:02:18Z</time>
      </trkpt>
      <trkpt lat="43.454600" lon="1.838906">
        <ele>235.5</ele>
        <time>2014-03-24T15:02:34Z</time>
      </trkpt>
      <trkpt lat="43.454663" lon="1.839013">
        <ele>231.4</ele>
        <time>2014-03-24T15:02:50Z</time>
      </trkpt>
      <trkpt lat="43.454735" lon="1.839117">
        <ele>229.6</ele>
        <time>2014-03-24T15:03:00Z</time>
      </trkpt>
      <trkpt lat="43.454844" lon="1.839120">
        <ele>227.9</ele>
        <time>2014-03-24T15:03:09Z</time>
      </trkpt>
      <trkpt lat="43.454935" lon="1.839160">
        <ele>228.1</ele>
        <time>2014-03-24T15:03:15Z</time>
      </trkpt>
      <trkpt lat="43.455037" lon="1.839205">
        <ele>228.6</ele>
        <time>2014-03-24T15:03:24Z</time>
      </trkpt>
      <trkpt lat="43.455137" lon="1.839186">
        <ele>229.0</ele>
        <time>2014-03-24T15:03:33Z</time>
      </trkpt>
      <trkpt lat="43.455247" lon="1.839207">
        <ele>230.3</ele>
        <time>2014-03-24T15:03:43Z</time>
      </trkpt>
      <trkpt lat="43.455338" lon="1.839269">
        <ele>232.0</ele>
        <time>2014-03-24T15:03:52Z</time>
      </trkpt>
      <trkpt lat="43.455424" lon="1.839345">
        <ele>234.1</ele>
        <time>2014-03-24T15:04:02Z</time>
      </trkpt>
      <trkpt lat="43.455507" lon="1.839426">
        <ele>233.8</ele>
        <time>2014-03-24T15:04:12Z</time>
      </trkpt>
      <trkpt lat="43.455614" lon="1.839518">
        <ele>232.7</ele>
        <time>2014-03-24T15:04:21Z</time>
      </trkpt>
      <trkpt lat="43.455718" lon="1.839550">
        <ele>232.0</ele>
        <time>2014-03-24T15:04:29Z</time>
      </trkpt>
      <trkpt lat="43.455869" lon="1.839550">
        <ele>231.5</ele>
        <time>2014-03-24T15:04:38Z</time>
      </trkpt>
      <trkpt lat="43.455975" lon="1.839562">
        <ele>232.1</ele>
        <time>2014-03-24T15:04:47Z</time>
      </trkpt>
      <trkpt lat="43.456070" lon="1.839617">
        <ele>232.4</ele>
        <time>2014-03-24T15:04:54Z</time>
      </trkpt>
      <trkpt lat="43.456140" lon="1.839727">
        <ele>232.5</ele>
        <time>2014-03-24T15:05:03Z</time>
      </trkpt>
      <trkpt lat="43.456183" lon="1.839864">
        <ele>231.4</ele>
        <time>2014-03-24T15:05:20Z</time>
      </trkpt>
      <trkpt lat="43.456209" lon="1.840001">
        <ele>231.4</ele>
        <time>2014-03-24T15:05:52Z</time>
      </trkpt>
      <trkpt lat="43.456239" lon="1.840127">
        <ele>230.5</ele>
        <time>2014-03-24T15:05:59Z</time>
      </trkpt>
      <trkpt lat="43.456290" lon="1.840261">
        <ele>229.7</ele>
        <time>2014-03-24T15:06:07Z</time>
      </trkpt>
      <trkpt lat="43.456290" lon="1.840402">
        <ele>228.9</ele>
        <time>2014-03-24T15:06:15Z</time>
      </trkpt>
      <trkpt lat="43.456319" lon="1.840507">
        <ele>227.9</ele>
        <time>2014-03-24T15:06:21Z</time>
      </trkpt>
      <trkpt lat="43.456326" lon="1.840645">
        <ele>227.8</ele>
        <time>2014-03-24T15:06:30Z</time>
      </trkpt>
      <trkpt lat="43.456355" lon="1.840775">
        <ele>227.4</ele>
        <time>2014-03-24T15:06:36Z</time>
      </trkpt>
      <trkpt lat="43.456374" lon="1.840902">
        <ele>227.3</ele>
        <time>2014-03-24T15:06:45Z</time>
      </trkpt>
      <trkpt lat="43.456380" lon="1.841027">
        <ele>228.2</ele>
        <time>2014-03-24T15:06:53Z</time>
      </trkpt>
      <trkpt lat="43.456436" lon="1.841134">
        <ele>228.4</ele>
        <time>2014-03-24T15:07:01Z</time>
      </trkpt>
      <trkpt lat="43.456489" lon="1.841268">
        <ele>228.7</ele>
        <time>2014-03-24T15:07:11Z</time>
      </trkpt>
      <trkpt lat="43.456429" lon="1.841372">
        <ele>227.3</ele>
        <time>2014-03-24T15:07:20Z</time>
      </trkpt>
      <trkpt lat="43.456330" lon="1.841440">
        <ele>226.7</ele>
        <time>2014-03-24T15:07:29Z</time>
      </trkpt>
      <trkpt lat="43.456230" lon="1.841527">
        <ele>226.6</ele>
        <time>2014-03-24T15:07:37Z</time>
      </trkpt>
      <trkpt lat="43.456161" lon="1.841490">
        <ele>226.4</ele>
        <time>2014-03-24T15:07:44Z</time>
      </trkpt>
      <trkpt lat="43.456168" lon="1.841366">
        <ele>225.8</ele>
        <time>2014-03-24T15:08:08Z</time>
      </trkpt>
      <trkpt lat="43.456121" lon="1.841236">
        <ele>226.2</ele>
        <time>2014-03-24T15:08:15Z</time>
      </trkpt>
      <trkpt lat="43.456053" lon="1.841121">
        <ele>226.5</ele>
        <time>2014-03-24T15:08:22Z</time>
      </trkpt>
      <trkpt lat="43.455993" lon="1.840989">
        <ele>226.9</ele>
        <time>2014-03-24T15:08:29Z</time>
      </trkpt>
      <trkpt lat="43.455931" lon="1.840882">
        <ele>227.1</ele>
        <time>2014-03-24T15:08:36Z</time>
      </trkpt>
      <trkpt lat="43.455861" lon="1.840753">
        <ele>227.9</ele>
        <time>2014-03-24T15:08:43Z</time>
      </trkpt>
      <trkpt lat="43.455815" lon="1.840668">
        <ele>229.0</ele>
        <time>2014-03-24T15:08:48Z</time>
      </trkpt>
      <trkpt lat="43.455753" lon="1.840606">
        <ele>229.3</ele>
        <time>2014-03-24T15:08:52Z</time>
      </trkpt>
      <trkpt lat="43.455673" lon="1.840541">
        <ele>229.1</ele>
        <time>2014-03-24T15:08:57Z</time>
      </trkpt>
      <trkpt lat="43.455589" lon="1.840498">
        <ele>228.6</ele>
        <time>2014-03-24T15:09:02Z</time>
      </trkpt>
      <trkpt lat="43.455507" lon="1.840452">
        <ele>228.4</ele>
        <time>2014-03-24T15:09:08Z</time>
      </trkpt>
      <trkpt lat="43.455434" lon="1.840441">
        <ele>228.3</ele>
        <time>2014-03-24T15:09:15Z</time>
      </trkpt>
      <trkpt lat="43.455351" lon="1.840384">
        <ele>228.1</ele>
        <time>2014-03-24T15:09:22Z</time>
      </trkpt>
      <trkpt lat="43.455268" lon="1.840311">
        <ele>227.7</ele>
        <time>2014-03-24T15:09:29Z</time>
      </trkpt>
      <trkpt lat="43.455169" lon="1.840266">
        <ele>227.5</ele>
        <time>2014-03-24T15:09:36Z</time>
      </trkpt>
      <trkpt lat="43.455025" lon="1.840222">
        <ele>227.8</ele>
        <time>2014-03-24T15:09:47Z</time>
      </trkpt>
      <trkpt lat="43.454894" lon="1.840205">
        <ele>228.0</ele>
        <time>2014-03-24T15:09:56Z</time>
      </trkpt>
      <trkpt lat="43.454781" lon="1.840165">
        <ele>227.6</ele>
        <time>2014-03-24T15:10:02Z</time>
      </trkpt>
      <trkpt lat="43.454678" lon="1.840154">
        <ele>227.5</ele>
        <time>2014-03-24T15:10:07Z</time>
      </trkpt>
      <trkpt lat="43.454578" lon="1.840145">
        <ele>227.3</ele>
        <time>2014-03-24T15:10:12Z</time>
      </trkpt>
      <trkpt lat="43.454508" lon="1.840143">
        <ele>227.1</ele>
        <time>2014-03-24T15:10:17Z</time>
      </trkpt>
      <trkpt lat="43.454443" lon="1.840141">
        <ele>226.9</ele>
        <time>2014-03-24T15:10:21Z</time>
      </trkpt>
      <trkpt lat="43.454363" lon="1.840117">
        <ele>226.8</ele>
        <time>2014-03-24T15:10:27Z</time>
      </trkpt>
      <trkpt lat="43.454267" lon="1.840117">
        <ele>227.1</ele>
        <time>2014-03-24T15:10:34Z</time>
      </trkpt>
      <trkpt lat="43.454169" lon="1.840125">
        <ele>227.2</ele>
        <time>2014-03-24T15:10:42Z</time>
      </trkpt>
      <trkpt lat="43.454094" lon="1.840237">
        <ele>227.6</ele>
        <time>2014-03-24T15:10:50Z</time>
      </trkpt>
      <trkpt lat="43.454003" lon="1.840278">
        <ele>228.0</ele>
        <time>2014-03-24T15:10:57Z</time>
      </trkpt>
      <trkpt lat="43.453904" lon="1.840285">
        <ele>228.3</ele>
        <time>2014-03-24T15:11:11Z</time>
      </trkpt>
      <trkpt lat="43.453800" lon="1.840306">
        <ele>228.1</ele>
        <time>2014-03-24T15:11:20Z</time>
      </trkpt>
      <trkpt lat="43.453714" lon="1.840340">
        <ele>228.0</ele>
        <time>2014-03-24T15:11:27Z</time>
      </trkpt>
      <trkpt lat="43.453622" lon="1.840395">
        <ele>228.0</ele>
        <time>2014-03-24T15:11:34Z</time>
      </trkpt>
      <trkpt lat="43.453560" lon="1.840498">
        <ele>227.9</ele>
        <time>2014-03-24T15:11:41Z</time>
      </trkpt>
      <trkpt lat="43.453509" lon="1.840612">
        <ele>227.9</ele>
        <time>2014-03-24T15:11:47Z</time>
      </trkpt>
      <trkpt lat="43.453430" lon="1.840719">
        <ele>227.6</ele>
        <time>2014-03-24T15:11:53Z</time>
      </trkpt>
      <trkpt lat="43.453373" lon="1.840811">
        <ele>227.7</ele>
        <time>2014-03-24T15:11:59Z</time>
      </trkpt>
      <trkpt lat="43.453318" lon="1.840916">
        <ele>227.5</ele>
        <time>2014-03-24T15:12:05Z</time>
      </trkpt>
      <trkpt lat="43.453272" lon="1.841007">
        <ele>227.5</ele>
        <time>2014-03-24T15:12:10Z</time>
      </trkpt>
      <trkpt lat="43.453244" lon="1.841103">
        <ele>227.7</ele>
        <time>2014-03-24T15:12:16Z</time>
      </trkpt>
      <trkpt lat="43.453205" lon="1.841196">
        <ele>228.0</ele>
        <time>2014-03-24T15:12:21Z</time>
      </trkpt>
      <trkpt lat="43.453164" lon="1.841289">
        <ele>228.2</ele>
        <time>2014-03-24T15:12:28Z</time>
      </trkpt>
      <trkpt lat="43.453119" lon="1.841382">
        <ele>228.4</ele>
        <time>2014-03-24T15:12:35Z</time>
      </trkpt>
      <trkpt lat="43.453065" lon="1.841470">
        <ele>228.4</ele>
        <time>2014-03-24T15:12:41Z</time>
      </trkpt>
      <trkpt lat="43.453009" lon="1.841543">
        <ele>228.4</ele>
        <time>2014-03-24T15:12:46Z</time>
      </trkpt>
      <trkpt lat="43.452945" lon="1.841609">
        <ele>228.4</ele>
        <time>2014-03-24T15:12:51Z</time>
      </trkpt>
      <trkpt lat="43.452881" lon="1.841658">
        <ele>228.5</ele>
        <time>2014-03-24T15:12:57Z</time>
      </trkpt>
      <trkpt lat="43.452813" lon="1.841739">
        <ele>228.6</ele>
        <time>2014-03-24T15:13:03Z</time>
      </trkpt>
      <trkpt lat="43.452764" lon="1.841867">
        <ele>228.6</ele>
        <time>2014-03-24T15:13:11Z</time>
      </trkpt>
      <trkpt lat="43.452727" lon="1.841983">
        <ele>228.9</ele>
        <time>2014-03-24T15:13:18Z</time>
      </trkpt>
      <trkpt lat="43.452670" lon="1.842107">
        <ele>228.9</ele>
        <time>2014-03-24T15:13:25Z</time>
      </trkpt>
      <trkpt lat="43.452609" lon="1.842222">
        <ele>228.9</ele>
        <time>2014-03-24T15:13:31Z</time>
      </trkpt>
      <trkpt lat="43.452545" lon="1.842327">
        <ele>228.9</ele>
        <time>2014-03-24T15:13:36Z</time>
      </trkpt>
      <trkpt lat="43.452472" lon="1.842425">
        <ele>228.6</ele>
        <time>2014-03-24T15:13:41Z</time>
      </trkpt>
      <trkpt lat="43.452399" lon="1.842490">
        <ele>228.2</ele>
        <time>2014-03-24T15:13:47Z</time>
      </trkpt>
      <trkpt lat="43.452338" lon="1.842585">
        <ele>228.3</ele>
        <time>2014-03-24T15:13:53Z</time>
      </trkpt>
      <trkpt lat="43.452317" lon="1.842623">
        <ele>227.8</ele>
        <time>2014-03-24T15:15:46Z</time>
      </trkpt>
      <trkpt lat="43.452251" lon="1.842735">
        <ele>228.0</ele>
        <time>2014-03-24T15:15:53Z</time>
      </trkpt>
      <trkpt lat="43.452194" lon="1.842846">
        <ele>228.1</ele>
        <time>2014-03-24T15:15:59Z</time>
      </trkpt>
      <trkpt lat="43.452130" lon="1.842941">
        <ele>227.8</ele>
        <time>2014-03-24T15:16:05Z</time>
      </trkpt>
      <trkpt lat="43.452061" lon="1.843048">
        <ele>228.0</ele>
        <time>2014-03-24T15:16:12Z</time>
      </trkpt>
      <trkpt lat="43.451981" lon="1.843140">
        <ele>228.1</ele>
        <time>2014-03-24T15:16:19Z</time>
      </trkpt>
      <trkpt lat="43.451915" lon="1.843248">
        <ele>227.9</ele>
        <time>2014-03-24T15:16:25Z</time>
      </trkpt>
      <trkpt lat="43.451857" lon="1.843345">
        <ele>227.9</ele>
        <time>2014-03-24T15:16:30Z</time>
      </trkpt>
      <trkpt lat="43.451789" lon="1.843429">
        <ele>227.9</ele>
        <time>2014-03-24T15:16:36Z</time>
      </trkpt>
      <trkpt lat="43.451732" lon="1.843519">
        <ele>227.9</ele>
        <time>2014-03-24T15:16:42Z</time>
      </trkpt>
      <trkpt lat="43.451682" lon="1.843616">
        <ele>227.9</ele>
        <time>2014-03-24T15:16:47Z</time>
      </trkpt>
      <trkpt lat="43.451618" lon="1.843712">
        <ele>227.9</ele>
        <time>2014-03-24T15:16:54Z</time>
      </trkpt>
      <trkpt lat="43.451570" lon="1.843813">
        <ele>227.8</ele>
        <time>2014-03-24T15:17:00Z</time>
      </trkpt>
      <trkpt lat="43.451520" lon="1.843919">
        <ele>227.9</ele>
        <time>2014-03-24T15:17:07Z</time>
      </trkpt>
      <trkpt lat="43.451478" lon="1.844011">
        <ele>227.4</ele>
        <time>2014-03-24T15:17:14Z</time>
      </trkpt>
      <trkpt lat="43.451406" lon="1.844096">
        <ele>226.9</ele>
        <time>2014-03-24T15:17:20Z</time>
      </trkpt>
      <trkpt lat="43.451350" lon="1.844206">
        <ele>226.8</ele>
        <time>2014-03-24T15:17:28Z</time>
      </trkpt>
      <trkpt lat="43.451301" lon="1.844328">
        <ele>226.9</ele>
        <time>2014-03-24T15:17:36Z</time>
      </trkpt>
      <trkpt lat="43.451227" lon="1.844418">
        <ele>226.9</ele>
        <time>2014-03-24T15:17:44Z</time>
      </trkpt>
      <trkpt lat="43.451160" lon="1.844424">
        <ele>226.5</ele>
        <time>2014-03-24T15:18:05Z</time>
      </trkpt>
      <trkpt lat="43.451089" lon="1.844500">
        <ele>226.4</ele>
        <time>2014-03-24T15:18:17Z</time>
      </trkpt>
      <trkpt lat="43.451065" lon="1.844614">
        <ele>226.4</ele>
        <time>2014-03-24T15:18:26Z</time>
      </trkpt>
      <trkpt lat="43.451053" lon="1.844768">
        <ele>226.3</ele>
        <time>2014-03-24T15:18:33Z</time>
      </trkpt>
      <trkpt lat="43.451027" lon="1.844893">
        <ele>226.6</ele>
        <time>2014-03-24T15:18:39Z</time>
      </trkpt>
      <trkpt lat="43.450971" lon="1.845002">
        <ele>226.9</ele>
        <time>2014-03-24T15:18:46Z</time>
      </trkpt>
      <trkpt lat="43.450934" lon="1.845118">
        <ele>226.9</ele>
        <time>2014-03-24T15:18:52Z</time>
      </trkpt>
      <trkpt lat="43.450896" lon="1.845250">
        <ele>227.2</ele>
        <time>2014-03-24T15:19:02Z</time>
      </trkpt>
      <trkpt lat="43.450839" lon="1.845379">
        <ele>227.4</ele>
        <time>2014-03-24T15:19:09Z</time>
      </trkpt>
      <trkpt lat="43.450791" lon="1.845498">
        <ele>227.6</ele>
        <time>2014-03-24T15:19:16Z</time>
      </trkpt>
      <trkpt lat="43.450748" lon="1.845635">
        <ele>227.7</ele>
        <time>2014-03-24T15:19:22Z</time>
      </trkpt>
      <trkpt lat="43.450723" lon="1.845746">
        <ele>228.1</ele>
        <time>2014-03-24T15:19:27Z</time>
      </trkpt>
      <trkpt lat="43.450697" lon="1.845877">
        <ele>228.1</ele>
        <time>2014-03-24T15:19:33Z</time>
      </trkpt>
      <trkpt lat="43.450693" lon="1.846001">
        <ele>228.2</ele>
        <time>2014-03-24T15:19:41Z</time>
      </trkpt>
      <trkpt lat="43.450699" lon="1.846141">
        <ele>228.5</ele>
        <time>2014-03-24T15:19:48Z</time>
      </trkpt>
      <trkpt lat="43.450710" lon="1.846292">
        <ele>228.8</ele>
        <time>2014-03-24T15:19:55Z</time>
      </trkpt>
      <trkpt lat="43.450692" lon="1.846421">
        <ele>229.4</ele>
        <time>2014-03-24T15:20:01Z</time>
      </trkpt>
      <trkpt lat="43.450673" lon="1.846548">
        <ele>229.3</ele>
        <time>2014-03-24T15:20:08Z</time>
      </trkpt>
      <trkpt lat="43.450648" lon="1.846686">
        <ele>229.6</ele>
        <time>2014-03-24T15:20:15Z</time>
      </trkpt>
      <trkpt lat="43.450634" lon="1.846833">
        <ele>229.9</ele>
        <time>2014-03-24T15:20:22Z</time>
      </trkpt>
      <trkpt lat="43.450627" lon="1.846959">
        <ele>230.0</ele>
        <time>2014-03-24T15:20:27Z</time>
      </trkpt>
      <trkpt lat="43.450620" lon="1.847087">
        <ele>230.7</ele>
        <time>2014-03-24T15:20:33Z</time>
      </trkpt>
      <trkpt lat="43.450587" lon="1.847222">
        <ele>230.8</ele>
        <time>2014-03-24T15:20:43Z</time>
      </trkpt>
      <trkpt lat="43.450572" lon="1.847387">
        <ele>231.5</ele>
        <time>2014-03-24T15:20:51Z</time>
      </trkpt>
      <trkpt lat="43.450541" lon="1.847557">
        <ele>231.9</ele>
        <time>2014-03-24T15:21:00Z</time>
      </trkpt>
      <trkpt lat="43.450507" lon="1.847691">
        <ele>232.0</ele>
        <time>2014-03-24T15:21:06Z</time>
      </trkpt>
      <trkpt lat="43.450472" lon="1.847811">
        <ele>232.5</ele>
        <time>2014-03-24T15:21:12Z</time>
      </trkpt>
      <trkpt lat="43.450434" lon="1.847926">
        <ele>232.7</ele>
        <time>2014-03-24T15:21:19Z</time>
      </trkpt>
      <trkpt lat="43.450376" lon="1.848059">
        <ele>233.0</ele>
        <time>2014-03-24T15:21:27Z</time>
      </trkpt>
      <trkpt lat="43.450293" lon="1.848148">
        <ele>233.3</ele>
        <time>2014-03-24T15:21:34Z</time>
      </trkpt>
      <trkpt lat="43.450204" lon="1.848207">
        <ele>233.8</ele>
        <time>2014-03-24T15:21:40Z</time>
      </trkpt>
      <trkpt lat="43.450136" lon="1.848287">
        <ele>234.4</ele>
        <time>2014-03-24T15:21:49Z</time>
      </trkpt>
      <trkpt lat="43.450063" lon="1.848398">
        <ele>234.6</ele>
        <time>2014-03-24T15:21:56Z</time>
      </trkpt>
      <trkpt lat="43.450012" lon="1.848498">
        <ele>234.8</ele>
        <time>2014-03-24T15:22:01Z</time>
      </trkpt>
      <trkpt lat="43.449968" lon="1.848603">
        <ele>235.2</ele>
        <time>2014-03-24T15:22:09Z</time>
      </trkpt>
      <trkpt lat="43.449923" lon="1.848719">
        <ele>235.5</ele>
        <time>2014-03-24T15:22:16Z</time>
      </trkpt>
      <trkpt lat="43.449883" lon="1.848847">
        <ele>235.7</ele>
        <time>2014-03-24T15:22:23Z</time>
      </trkpt>
      <trkpt lat="43.449862" lon="1.848971">
        <ele>236.2</ele>
        <time>2014-03-24T15:22:36Z</time>
      </trkpt>
      <trkpt lat="43.449818" lon="1.849110">
        <ele>237.4</ele>
        <time>2014-03-24T15:22:45Z</time>
      </trkpt>
      <trkpt lat="43.449776" lon="1.849256">
        <ele>237.7</ele>
        <time>2014-03-24T15:22:53Z</time>
      </trkpt>
      <trkpt lat="43.449715" lon="1.849393">
        <ele>237.5</ele>
        <time>2014-03-24T15:23:01Z</time>
      </trkpt>
      <trkpt lat="43.449692" lon="1.849554">
        <ele>238.2</ele>
        <time>2014-03-24T15:23:10Z</time>
      </trkpt>
      <trkpt lat="43.449689" lon="1.849698">
        <ele>238.6</ele>
        <time>2014-03-24T15:23:17Z</time>
      </trkpt>
      <trkpt lat="43.449679" lon="1.849831">
        <ele>238.9</ele>
        <time>2014-03-24T15:23:23Z</time>
      </trkpt>
      <trkpt lat="43.449694" lon="1.849991">
        <ele>239.5</ele>
        <time>2014-03-24T15:23:32Z</time>
        <name>Bif. cote 259m</name>
      </trkpt>
      <trkpt lat="43.449752" lon="1.850000">
        <ele>239.9</ele>
        <time>2014-03-24T15:24:09Z</time>
      </trkpt>
      <trkpt lat="43.449852" lon="1.849958">
        <ele>240.3</ele>
        <time>2014-03-24T15:24:17Z</time>
      </trkpt>
      <trkpt lat="43.449945" lon="1.849925">
        <ele>240.7</ele>
        <time>2014-03-24T15:24:26Z</time>
      </trkpt>
      <trkpt lat="43.450047" lon="1.849881">
        <ele>241.9</ele>
        <time>2014-03-24T15:24:35Z</time>
      </trkpt>
      <trkpt lat="43.450141" lon="1.849845">
        <ele>243.2</ele>
        <time>2014-03-24T15:24:43Z</time>
      </trkpt>
      <trkpt lat="43.450234" lon="1.849805">
        <ele>245.1</ele>
        <time>2014-03-24T15:24:52Z</time>
      </trkpt>
      <trkpt lat="43.450323" lon="1.849762">
        <ele>247.1</ele>
        <time>2014-03-24T15:25:02Z</time>
      </trkpt>
      <trkpt lat="43.450415" lon="1.849738">
        <ele>249.9</ele>
        <time>2014-03-24T15:25:14Z</time>
      </trkpt>
      <trkpt lat="43.450510" lon="1.849716">
        <ele>252.6</ele>
        <time>2014-03-24T15:25:25Z</time>
      </trkpt>
      <trkpt lat="43.450600" lon="1.849682">
        <ele>255.4</ele>
        <time>2014-03-24T15:25:37Z</time>
      </trkpt>
      <trkpt lat="43.450684" lon="1.849658">
        <ele>257.3</ele>
        <time>2014-03-24T15:25:47Z</time>
      </trkpt>
      <trkpt lat="43.450783" lon="1.849639">
        <ele>259.6</ele>
        <time>2014-03-24T15:25:56Z</time>
      </trkpt>
      <trkpt lat="43.450875" lon="1.849629">
        <ele>261.4</ele>
        <time>2014-03-24T15:26:03Z</time>
      </trkpt>
      <trkpt lat="43.450964" lon="1.849628">
        <ele>262.8</ele>
        <time>2014-03-24T15:26:11Z</time>
      </trkpt>
      <trkpt lat="43.451067" lon="1.849671">
        <ele>264.3</ele>
        <time>2014-03-24T15:26:21Z</time>
      </trkpt>
      <trkpt lat="43.451128" lon="1.849790">
        <ele>265.0</ele>
        <time>2014-03-24T15:26:28Z</time>
      </trkpt>
      <trkpt lat="43.451209" lon="1.849866">
        <ele>265.3</ele>
        <time>2014-03-24T15:26:37Z</time>
      </trkpt>
      <trkpt lat="43.451306" lon="1.849946">
        <ele>265.6</ele>
        <time>2014-03-24T15:26:45Z</time>
      </trkpt>
      <trkpt lat="43.451386" lon="1.850066">
        <ele>265.6</ele>
        <time>2014-03-24T15:26:53Z</time>
      </trkpt>
      <trkpt lat="43.451479" lon="1.850119">
        <ele>265.6</ele>
        <time>2014-03-24T15:26:59Z</time>
      </trkpt>
      <trkpt lat="43.451554" lon="1.850198">
        <ele>265.8</ele>
        <time>2014-03-24T15:27:07Z</time>
      </trkpt>
      <trkpt lat="43.451634" lon="1.850287">
        <ele>265.9</ele>
        <time>2014-03-24T15:27:18Z</time>
      </trkpt>
      <trkpt lat="43.451720" lon="1.850355">
        <ele>265.7</ele>
        <time>2014-03-24T15:27:25Z</time>
      </trkpt>
      <trkpt lat="43.451806" lon="1.850444">
        <ele>265.5</ele>
        <time>2014-03-24T15:27:32Z</time>
      </trkpt>
      <trkpt lat="43.451883" lon="1.850527">
        <ele>265.0</ele>
        <time>2014-03-24T15:27:40Z</time>
      </trkpt>
      <trkpt lat="43.451967" lon="1.850608">
        <ele>264.6</ele>
        <time>2014-03-24T15:27:47Z</time>
      </trkpt>
      <trkpt lat="43.452035" lon="1.850697">
        <ele>264.2</ele>
        <time>2014-03-24T15:27:53Z</time>
      </trkpt>
      <trkpt lat="43.452116" lon="1.850749">
        <ele>263.7</ele>
        <time>2014-03-24T15:28:00Z</time>
      </trkpt>
      <trkpt lat="43.452212" lon="1.850810">
        <ele>262.4</ele>
        <time>2014-03-24T15:28:10Z</time>
      </trkpt>
      <trkpt lat="43.452298" lon="1.850919">
        <ele>261.6</ele>
        <time>2014-03-24T15:28:18Z</time>
      </trkpt>
      <trkpt lat="43.452368" lon="1.851004">
        <ele>260.9</ele>
        <time>2014-03-24T15:28:24Z</time>
      </trkpt>
      <trkpt lat="43.452446" lon="1.851089">
        <ele>260.0</ele>
        <time>2014-03-24T15:28:30Z</time>
      </trkpt>
      <trkpt lat="43.452506" lon="1.851154">
        <ele>258.9</ele>
        <time>2014-03-24T15:28:37Z</time>
      </trkpt>
      <trkpt lat="43.452592" lon="1.851215">
        <ele>258.0</ele>
        <time>2014-03-24T15:28:48Z</time>
      </trkpt>
      <trkpt lat="43.452680" lon="1.851300">
        <ele>257.1</ele>
        <time>2014-03-24T15:28:55Z</time>
      </trkpt>
      <trkpt lat="43.452752" lon="1.851386">
        <ele>256.3</ele>
        <time>2014-03-24T15:29:01Z</time>
      </trkpt>
      <trkpt lat="43.452816" lon="1.851461">
        <ele>255.5</ele>
        <time>2014-03-24T15:29:07Z</time>
      </trkpt>
      <trkpt lat="43.452860" lon="1.851562">
        <ele>254.8</ele>
        <time>2014-03-24T15:29:14Z</time>
      </trkpt>
      <trkpt lat="43.452785" lon="1.851658">
        <ele>255.0</ele>
        <time>2014-03-24T15:29:21Z</time>
      </trkpt>
      <trkpt lat="43.452728" lon="1.851769">
        <ele>255.5</ele>
        <time>2014-03-24T15:29:29Z</time>
      </trkpt>
      <trkpt lat="43.452760" lon="1.851881">
        <ele>256.2</ele>
        <time>2014-03-24T15:29:38Z</time>
      </trkpt>
      <trkpt lat="43.452831" lon="1.851968">
        <ele>257.4</ele>
        <time>2014-03-24T15:29:47Z</time>
      </trkpt>
      <trkpt lat="43.452904" lon="1.852062">
        <ele>258.4</ele>
        <time>2014-03-24T15:29:55Z</time>
      </trkpt>
      <trkpt lat="43.452976" lon="1.852151">
        <ele>259.2</ele>
        <time>2014-03-24T15:30:04Z</time>
      </trkpt>
      <trkpt lat="43.453041" lon="1.852249">
        <ele>260.1</ele>
        <time>2014-03-24T15:30:13Z</time>
      </trkpt>
      <trkpt lat="43.453113" lon="1.852336">
        <ele>261.2</ele>
        <time>2014-03-24T15:30:21Z</time>
      </trkpt>
      <trkpt lat="43.453184" lon="1.852432">
        <ele>262.1</ele>
        <time>2014-03-24T15:30:30Z</time>
      </trkpt>
      <trkpt lat="43.453253" lon="1.852523">
        <ele>262.9</ele>
        <time>2014-03-24T15:30:39Z</time>
      </trkpt>
      <trkpt lat="43.453326" lon="1.852638">
        <ele>263.7</ele>
        <time>2014-03-24T15:30:48Z</time>
      </trkpt>
      <trkpt lat="43.453397" lon="1.852751">
        <ele>264.2</ele>
        <time>2014-03-24T15:30:56Z</time>
      </trkpt>
      <trkpt lat="43.453471" lon="1.852848">
        <ele>265.1</ele>
        <time>2014-03-24T15:31:04Z</time>
      </trkpt>
      <trkpt lat="43.453550" lon="1.852941">
        <ele>265.5</ele>
        <time>2014-03-24T15:31:11Z</time>
      </trkpt>
      <trkpt lat="43.453619" lon="1.853050">
        <ele>266.1</ele>
        <time>2014-03-24T15:31:18Z</time>
      </trkpt>
      <trkpt lat="43.453672" lon="1.853146">
        <ele>266.8</ele>
        <time>2014-03-24T15:31:24Z</time>
      </trkpt>
      <trkpt lat="43.453742" lon="1.853229">
        <ele>267.4</ele>
        <time>2014-03-24T15:31:31Z</time>
      </trkpt>
      <trkpt lat="43.453832" lon="1.853301">
        <ele>267.7</ele>
        <time>2014-03-24T15:31:40Z</time>
      </trkpt>
      <trkpt lat="43.453923" lon="1.853244">
        <ele>268.1</ele>
        <time>2014-03-24T15:31:47Z</time>
      </trkpt>
      <trkpt lat="43.453988" lon="1.853149">
        <ele>268.2</ele>
        <time>2014-03-24T15:31:54Z</time>
      </trkpt>
      <trkpt lat="43.454062" lon="1.853050">
        <ele>268.0</ele>
        <time>2014-03-24T15:31:59Z</time>
      </trkpt>
      <trkpt lat="43.454114" lon="1.852953">
        <ele>267.8</ele>
        <time>2014-03-24T15:32:04Z</time>
      </trkpt>
      <trkpt lat="43.454167" lon="1.852863">
        <ele>267.7</ele>
        <time>2014-03-24T15:32:09Z</time>
      </trkpt>
      <trkpt lat="43.454227" lon="1.852779">
        <ele>267.6</ele>
        <time>2014-03-24T15:32:17Z</time>
      </trkpt>
      <trkpt lat="43.454323" lon="1.852813">
        <ele>267.1</ele>
        <time>2014-03-24T15:32:25Z</time>
      </trkpt>
      <trkpt lat="43.454399" lon="1.852918">
        <ele>266.8</ele>
        <time>2014-03-24T15:32:32Z</time>
      </trkpt>
      <trkpt lat="43.454481" lon="1.852990">
        <ele>266.8</ele>
        <time>2014-03-24T15:32:39Z</time>
      </trkpt>
      <trkpt lat="43.454564" lon="1.853054">
        <ele>266.5</ele>
        <time>2014-03-24T15:32:46Z</time>
      </trkpt>
      <trkpt lat="43.454632" lon="1.853157">
        <ele>266.2</ele>
        <time>2014-03-24T15:32:54Z</time>
      </trkpt>
      <trkpt lat="43.454739" lon="1.853220">
        <ele>265.9</ele>
        <time>2014-03-24T15:33:01Z</time>
      </trkpt>
      <trkpt lat="43.454832" lon="1.853274">
        <ele>265.5</ele>
        <time>2014-03-24T15:33:08Z</time>
      </trkpt>
      <trkpt lat="43.454919" lon="1.853355">
        <ele>265.1</ele>
        <time>2014-03-24T15:33:14Z</time>
      </trkpt>
      <trkpt lat="43.455000" lon="1.853417">
        <ele>264.5</ele>
        <time>2014-03-24T15:33:22Z</time>
      </trkpt>
      <trkpt lat="43.455114" lon="1.853494">
        <ele>264.0</ele>
        <time>2014-03-24T15:33:31Z</time>
      </trkpt>
      <trkpt lat="43.455195" lon="1.853581">
        <ele>263.8</ele>
        <time>2014-03-24T15:33:38Z</time>
      </trkpt>
      <trkpt lat="43.455276" lon="1.853651">
        <ele>263.5</ele>
        <time>2014-03-24T15:33:45Z</time>
      </trkpt>
      <trkpt lat="43.455360" lon="1.853705">
        <ele>263.0</ele>
        <time>2014-03-24T15:33:53Z</time>
      </trkpt>
      <trkpt lat="43.455446" lon="1.853773">
        <ele>262.8</ele>
        <time>2014-03-24T15:34:01Z</time>
      </trkpt>
      <trkpt lat="43.455540" lon="1.853842">
        <ele>262.4</ele>
        <time>2014-03-24T15:34:09Z</time>
      </trkpt>
      <trkpt lat="43.455635" lon="1.853909">
        <ele>261.5</ele>
        <time>2014-03-24T15:34:17Z</time>
      </trkpt>
      <trkpt lat="43.455722" lon="1.853990">
        <ele>260.9</ele>
        <time>2014-03-24T15:34:25Z</time>
      </trkpt>
      <trkpt lat="43.455810" lon="1.854067">
        <ele>260.6</ele>
        <time>2014-03-24T15:34:32Z</time>
      </trkpt>
      <trkpt lat="43.455863" lon="1.854154">
        <ele>260.4</ele>
        <time>2014-03-24T15:34:39Z</time>
      </trkpt>
      <trkpt lat="43.456043" lon="1.854068">
        <ele>276.1</ele>
        <time>2014-03-24T15:34:48Z</time>
      </trkpt>
      <trkpt lat="43.456265" lon="1.854009">
        <ele>275.0</ele>
        <time>2014-03-24T15:34:56Z</time>
      </trkpt>
      <trkpt lat="43.456567" lon="1.853920">
        <ele>273.5</ele>
        <time>2014-03-24T15:35:04Z</time>
      </trkpt>
      <trkpt lat="43.457135" lon="1.853683">
        <ele>271.3</ele>
        <time>2014-03-24T15:35:12Z</time>
      </trkpt>
      <trkpt lat="43.457601" lon="1.853475">
        <ele>268.5</ele>
        <time>2014-03-24T15:35:20Z</time>
      </trkpt>
      <trkpt lat="43.458155" lon="1.853316">
        <ele>265.6</ele>
        <time>2014-03-24T15:35:28Z</time>
        <name>La Plaisance</name>
      </trkpt>
      <trkpt lat="43.457889" lon="1.854662">
        <ele>270.6</ele>
        <time>2014-03-24T15:35:35Z</time>
      </trkpt>
      <trkpt lat="43.457623" lon="1.855276">
        <ele>271.7</ele>
        <time>2014-03-24T15:35:42Z</time>
      </trkpt>
      <trkpt lat="43.457307" lon="1.855850">
        <ele>271.9</ele>
        <time>2014-03-24T15:35:49Z</time>
      </trkpt>
      <trkpt lat="43.456905" lon="1.856523">
        <ele>269.8</ele>
        <time>2014-03-24T15:35:57Z</time>
      </trkpt>
      <trkpt lat="43.456687" lon="1.857268">
        <ele>262.5</ele>
        <time>2014-03-24T15:47:22Z</time>
      </trkpt>
      <trkpt lat="43.456590" lon="1.857757">
        <ele>257.7</ele>
        <time>2014-03-24T15:47:29Z</time>
      </trkpt>
      <trkpt lat="43.456505" lon="1.858186">
        <ele>253.4</ele>
        <time>2014-03-24T15:47:36Z</time>
      </trkpt>
      <trkpt lat="43.456411" lon="1.858725">
        <ele>248.7</ele>
        <time>2014-03-24T15:47:43Z</time>
      </trkpt>
      <trkpt lat="43.456320" lon="1.859170">
        <ele>245.3</ele>
        <time>2014-03-24T15:47:50Z</time>
      </trkpt>
      <trkpt lat="43.456155" lon="1.859680">
        <ele>243.2</ele>
        <time>2014-03-24T15:47:59Z</time>
      </trkpt>
      <trkpt lat="43.456023" lon="1.859951">
        <ele>241.7</ele>
        <time>2014-03-24T15:48:07Z</time>
      </trkpt>
      <trkpt lat="43.455900" lon="1.860250">
        <ele>241.3</ele>
        <time>2014-03-24T15:48:16Z</time>
      </trkpt>
      <trkpt lat="43.455711" lon="1.860538">
        <ele>241.0</ele>
        <time>2014-03-24T15:54:43Z</time>
      </trkpt>
      <trkpt lat="43.455607" lon="1.860747">
        <ele>220.7</ele>
        <time>2014-03-24T15:54:50Z</time>
      </trkpt>
      <trkpt lat="43.455582" lon="1.860861">
        <ele>220.9</ele>
        <time>2014-03-24T15:54:57Z</time>
      </trkpt>
      <trkpt lat="43.455519" lon="1.860969">
        <ele>220.3</ele>
        <time>2014-03-24T15:55:06Z</time>
      </trkpt>
      <trkpt lat="43.455457" lon="1.861101">
        <ele>220.8</ele>
        <time>2014-03-24T15:55:15Z</time>
      </trkpt>
      <trkpt lat="43.455396" lon="1.861223">
        <ele>221.0</ele>
        <time>2014-03-24T15:55:23Z</time>
      </trkpt>
      <trkpt lat="43.455330" lon="1.861352">
        <ele>221.0</ele>
        <time>2014-03-24T15:55:31Z</time>
      </trkpt>
      <trkpt lat="43.455273" lon="1.861467">
        <ele>221.2</ele>
        <time>2014-03-24T15:55:38Z</time>
      </trkpt>
      <trkpt lat="43.455216" lon="1.861597">
        <ele>221.6</ele>
        <time>2014-03-24T15:55:46Z</time>
      </trkpt>
      <trkpt lat="43.455159" lon="1.861747">
        <ele>221.9</ele>
        <time>2014-03-24T15:55:53Z</time>
      </trkpt>
      <trkpt lat="43.455126" lon="1.861897">
        <ele>222.2</ele>
        <time>2014-03-24T15:56:00Z</time>
      </trkpt>
      <trkpt lat="43.455102" lon="1.862019">
        <ele>222.4</ele>
        <time>2014-03-24T15:56:07Z</time>
      </trkpt>
      <trkpt lat="43.455092" lon="1.862151">
        <ele>222.2</ele>
        <time>2014-03-24T15:56:14Z</time>
      </trkpt>
      <trkpt lat="43.455085" lon="1.862279">
        <ele>222.1</ele>
        <time>2014-03-24T15:56:21Z</time>
      </trkpt>
      <trkpt lat="43.455060" lon="1.862413">
        <ele>221.8</ele>
        <time>2014-03-24T15:56:28Z</time>
      </trkpt>
      <trkpt lat="43.455022" lon="1.862535">
        <ele>221.7</ele>
        <time>2014-03-24T15:56:35Z</time>
      </trkpt>
      <trkpt lat="43.454982" lon="1.862655">
        <ele>221.6</ele>
        <time>2014-03-24T15:56:43Z</time>
      </trkpt>
      <trkpt lat="43.454928" lon="1.862763">
        <ele>221.6</ele>
        <time>2014-03-24T15:56:50Z</time>
      </trkpt>
      <trkpt lat="43.454876" lon="1.862869">
        <ele>221.6</ele>
        <time>2014-03-24T15:56:57Z</time>
      </trkpt>
      <trkpt lat="43.454812" lon="1.862984">
        <ele>221.7</ele>
        <time>2014-03-24T15:57:05Z</time>
      </trkpt>
      <trkpt lat="43.454763" lon="1.863087">
        <ele>221.7</ele>
        <time>2014-03-24T15:57:13Z</time>
      </trkpt>
      <trkpt lat="43.454709" lon="1.863207">
        <ele>221.7</ele>
        <time>2014-03-24T15:57:21Z</time>
      </trkpt>
      <trkpt lat="43.454649" lon="1.863334">
        <ele>221.8</ele>
        <time>2014-03-24T15:57:29Z</time>
      </trkpt>
      <trkpt lat="43.454592" lon="1.863455">
        <ele>221.9</ele>
        <time>2014-03-24T15:57:37Z</time>
      </trkpt>
      <trkpt lat="43.454543" lon="1.863562">
        <ele>222.1</ele>
        <time>2014-03-24T15:57:44Z</time>
      </trkpt>
      <trkpt lat="43.454487" lon="1.863686">
        <ele>222.6</ele>
        <time>2014-03-24T15:57:52Z</time>
      </trkpt>
      <trkpt lat="43.454446" lon="1.863809">
        <ele>222.9</ele>
        <time>2014-03-24T15:57:59Z</time>
      </trkpt>
      <trkpt lat="43.454421" lon="1.863933">
        <ele>222.9</ele>
        <time>2014-03-24T15:58:06Z</time>
      </trkpt>
      <trkpt lat="43.454388" lon="1.864051">
        <ele>223.0</ele>
        <time>2014-03-24T15:58:14Z</time>
      </trkpt>
      <trkpt lat="43.454337" lon="1.864157">
        <ele>223.2</ele>
        <time>2014-03-24T15:58:21Z</time>
      </trkpt>
      <trkpt lat="43.454287" lon="1.864269">
        <ele>223.4</ele>
        <time>2014-03-24T15:58:28Z</time>
      </trkpt>
      <trkpt lat="43.454246" lon="1.864376">
        <ele>223.9</ele>
        <time>2014-03-24T15:58:34Z</time>
      </trkpt>
      <trkpt lat="43.454197" lon="1.864532">
        <ele>224.2</ele>
        <time>2014-03-24T15:58:43Z</time>
      </trkpt>
      <trkpt lat="43.454145" lon="1.864678">
        <ele>224.4</ele>
        <time>2014-03-24T15:58:51Z</time>
      </trkpt>
      <trkpt lat="43.454103" lon="1.864795">
        <ele>224.4</ele>
        <time>2014-03-24T15:58:58Z</time>
      </trkpt>
      <trkpt lat="43.454067" lon="1.864926">
        <ele>224.4</ele>
        <time>2014-03-24T15:59:05Z</time>
      </trkpt>
      <trkpt lat="43.454032" lon="1.865064">
        <ele>224.8</ele>
        <time>2014-03-24T15:59:13Z</time>
      </trkpt>
      <trkpt lat="43.453994" lon="1.865185">
        <ele>224.9</ele>
        <time>2014-03-24T15:59:20Z</time>
      </trkpt>
      <trkpt lat="43.453955" lon="1.865305">
        <ele>225.0</ele>
        <time>2014-03-24T15:59:27Z</time>
      </trkpt>
      <trkpt lat="43.453908" lon="1.865418">
        <ele>225.1</ele>
        <time>2014-03-24T15:59:34Z</time>
      </trkpt>
      <trkpt lat="43.453853" lon="1.865514">
        <ele>225.2</ele>
        <time>2014-03-24T15:59:41Z</time>
      </trkpt>
      <trkpt lat="43.453790" lon="1.865622">
        <ele>225.6</ele>
        <time>2014-03-24T15:59:49Z</time>
      </trkpt>
      <trkpt lat="43.453748" lon="1.865740">
        <ele>225.6</ele>
        <time>2014-03-24T15:59:57Z</time>
      </trkpt>
      <trkpt lat="43.453696" lon="1.865848">
        <ele>225.9</ele>
        <time>2014-03-24T16:00:05Z</time>
      </trkpt>
      <trkpt lat="43.453641" lon="1.865960">
        <ele>226.4</ele>
        <time>2014-03-24T16:00:12Z</time>
      </trkpt>
      <trkpt lat="43.453586" lon="1.866069">
        <ele>226.9</ele>
        <time>2014-03-24T16:00:19Z</time>
      </trkpt>
      <trkpt lat="43.453532" lon="1.866192">
        <ele>227.4</ele>
        <time>2014-03-24T16:00:27Z</time>
      </trkpt>
      <trkpt lat="43.453476" lon="1.866327">
        <ele>227.8</ele>
        <time>2014-03-24T16:00:36Z</time>
      </trkpt>
      <trkpt lat="43.453421" lon="1.866464">
        <ele>228.3</ele>
        <time>2014-03-24T16:00:44Z</time>
      </trkpt>
      <trkpt lat="43.453384" lon="1.866582">
        <ele>228.5</ele>
        <time>2014-03-24T16:00:51Z</time>
      </trkpt>
      <trkpt lat="43.453340" lon="1.866710">
        <ele>229.1</ele>
        <time>2014-03-24T16:00:58Z</time>
      </trkpt>
      <trkpt lat="43.453304" lon="1.866843">
        <ele>229.6</ele>
        <time>2014-03-24T16:01:05Z</time>
      </trkpt>
      <trkpt lat="43.453264" lon="1.866972">
        <ele>230.3</ele>
        <time>2014-03-24T16:01:12Z</time>
      </trkpt>
      <trkpt lat="43.453222" lon="1.867099">
        <ele>231.0</ele>
        <time>2014-03-24T16:01:19Z</time>
      </trkpt>
      <trkpt lat="43.453194" lon="1.867231">
        <ele>231.8</ele>
        <time>2014-03-24T16:01:27Z</time>
      </trkpt>
      <trkpt lat="43.453159" lon="1.867354">
        <ele>232.3</ele>
        <time>2014-03-24T16:01:34Z</time>
      </trkpt>
      <trkpt lat="43.453123" lon="1.867473">
        <ele>232.6</ele>
        <time>2014-03-24T16:01:41Z</time>
      </trkpt>
      <trkpt lat="43.453081" lon="1.867603">
        <ele>232.8</ele>
        <time>2014-03-24T16:01:48Z</time>
      </trkpt>
      <trkpt lat="43.453040" lon="1.867732">
        <ele>233.1</ele>
        <time>2014-03-24T16:01:55Z</time>
      </trkpt>
      <trkpt lat="43.453008" lon="1.867857">
        <ele>233.1</ele>
        <time>2014-03-24T16:02:02Z</time>
      </trkpt>
      <trkpt lat="43.452975" lon="1.867984">
        <ele>233.3</ele>
        <time>2014-03-24T16:02:09Z</time>
      </trkpt>
      <trkpt lat="43.452931" lon="1.868110">
        <ele>233.4</ele>
        <time>2014-03-24T16:02:16Z</time>
      </trkpt>
      <trkpt lat="43.452893" lon="1.868237">
        <ele>233.3</ele>
        <time>2014-03-24T16:02:23Z</time>
      </trkpt>
      <trkpt lat="43.452860" lon="1.868357">
        <ele>233.3</ele>
        <time>2014-03-24T16:02:30Z</time>
      </trkpt>
      <trkpt lat="43.452818" lon="1.868500">
        <ele>233.2</ele>
        <time>2014-03-24T16:02:38Z</time>
      </trkpt>
      <trkpt lat="43.452785" lon="1.868637">
        <ele>233.1</ele>
        <time>2014-03-24T16:02:46Z</time>
      </trkpt>
      <trkpt lat="43.452735" lon="1.868755">
        <ele>232.8</ele>
        <time>2014-03-24T16:02:54Z</time>
      </trkpt>
      <trkpt lat="43.452695" lon="1.868878">
        <ele>232.3</ele>
        <time>2014-03-24T16:03:01Z</time>
      </trkpt>
      <trkpt lat="43.452659" lon="1.868999">
        <ele>232.0</ele>
        <time>2014-03-24T16:03:08Z</time>
      </trkpt>
      <trkpt lat="43.452611" lon="1.869129">
        <ele>231.8</ele>
        <time>2014-03-24T16:03:15Z</time>
      </trkpt>
      <trkpt lat="43.452570" lon="1.869262">
        <ele>231.6</ele>
        <time>2014-03-24T16:03:22Z</time>
      </trkpt>
      <trkpt lat="43.452548" lon="1.869411">
        <ele>231.4</ele>
        <time>2014-03-24T16:03:30Z</time>
      </trkpt>
      <trkpt lat="43.452539" lon="1.869559">
        <ele>231.6</ele>
        <time>2014-03-24T16:03:38Z</time>
      </trkpt>
      <trkpt lat="43.452514" lon="1.869695">
        <ele>231.7</ele>
        <time>2014-03-24T16:03:45Z</time>
      </trkpt>
      <trkpt lat="43.452489" lon="1.869836">
        <ele>232.1</ele>
        <time>2014-03-24T16:03:53Z</time>
      </trkpt>
      <trkpt lat="43.452453" lon="1.869958">
        <ele>232.4</ele>
        <time>2014-03-24T16:04:00Z</time>
      </trkpt>
      <trkpt lat="43.452421" lon="1.870087">
        <ele>232.7</ele>
        <time>2014-03-24T16:04:07Z</time>
      </trkpt>
      <trkpt lat="43.452389" lon="1.870217">
        <ele>232.9</ele>
        <time>2014-03-24T16:04:14Z</time>
      </trkpt>
      <trkpt lat="43.452347" lon="1.870358">
        <ele>232.9</ele>
        <time>2014-03-24T16:04:21Z</time>
      </trkpt>
      <trkpt lat="43.452322" lon="1.870484">
        <ele>233.1</ele>
        <time>2014-03-24T16:04:28Z</time>
      </trkpt>
      <trkpt lat="43.452294" lon="1.870617">
        <ele>233.3</ele>
        <time>2014-03-24T16:04:36Z</time>
      </trkpt>
      <trkpt lat="43.452267" lon="1.870745">
        <ele>233.6</ele>
        <time>2014-03-24T16:04:44Z</time>
      </trkpt>
      <trkpt lat="43.452228" lon="1.870865">
        <ele>233.8</ele>
        <time>2014-03-24T16:04:51Z</time>
      </trkpt>
      <trkpt lat="43.452193" lon="1.870988">
        <ele>233.9</ele>
        <time>2014-03-24T16:04:58Z</time>
      </trkpt>
      <trkpt lat="43.452163" lon="1.871116">
        <ele>234.0</ele>
        <time>2014-03-24T16:05:05Z</time>
      </trkpt>
      <trkpt lat="43.452137" lon="1.871253">
        <ele>234.2</ele>
        <time>2014-03-24T16:05:12Z</time>
      </trkpt>
      <trkpt lat="43.452109" lon="1.871393">
        <ele>234.3</ele>
        <time>2014-03-24T16:05:19Z</time>
      </trkpt>
      <trkpt lat="43.452079" lon="1.871528">
        <ele>234.4</ele>
        <time>2014-03-24T16:05:26Z</time>
      </trkpt>
      <trkpt lat="43.452052" lon="1.871665">
        <ele>234.4</ele>
        <time>2014-03-24T16:05:33Z</time>
      </trkpt>
      <trkpt lat="43.452018" lon="1.871800">
        <ele>234.8</ele>
        <time>2014-03-24T16:05:40Z</time>
      </trkpt>
      <trkpt lat="43.451988" lon="1.871936">
        <ele>234.8</ele>
        <time>2014-03-24T16:05:47Z</time>
      </trkpt>
      <trkpt lat="43.451953" lon="1.872067">
        <ele>235.0</ele>
        <time>2014-03-24T16:05:54Z</time>
      </trkpt>
      <trkpt lat="43.451922" lon="1.872193">
        <ele>235.3</ele>
        <time>2014-03-24T16:06:01Z</time>
      </trkpt>
      <trkpt lat="43.451890" lon="1.872321">
        <ele>235.3</ele>
        <time>2014-03-24T16:06:08Z</time>
      </trkpt>
      <trkpt lat="43.451857" lon="1.872451">
        <ele>235.6</ele>
        <time>2014-03-24T16:06:15Z</time>
      </trkpt>
      <trkpt lat="43.451829" lon="1.872584">
        <ele>235.9</ele>
        <time>2014-03-24T16:06:22Z</time>
      </trkpt>
      <trkpt lat="43.451794" lon="1.872713">
        <ele>235.8</ele>
        <time>2014-03-24T16:06:29Z</time>
      </trkpt>
      <trkpt lat="43.451765" lon="1.872849">
        <ele>236.0</ele>
        <time>2014-03-24T16:06:36Z</time>
      </trkpt>
      <trkpt lat="43.451726" lon="1.872984">
        <ele>236.1</ele>
        <time>2014-03-24T16:06:43Z</time>
      </trkpt>
      <trkpt lat="43.451695" lon="1.873116">
        <ele>236.2</ele>
        <time>2014-03-24T16:06:50Z</time>
      </trkpt>
      <trkpt lat="43.451663" lon="1.873247">
        <ele>236.6</ele>
        <time>2014-03-24T16:06:57Z</time>
      </trkpt>
      <trkpt lat="43.451627" lon="1.873371">
        <ele>236.9</ele>
        <time>2014-03-24T16:07:04Z</time>
      </trkpt>
      <trkpt lat="43.451586" lon="1.873513">
        <ele>237.5</ele>
        <time>2014-03-24T16:07:12Z</time>
      </trkpt>
      <trkpt lat="43.451531" lon="1.873573">
        <ele>237.5</ele>
        <time>2014-03-24T16:07:40Z</time>
      </trkpt>
      <trkpt lat="43.451451" lon="1.873494">
        <ele>237.1</ele>
        <time>2014-03-24T16:07:45Z</time>
      </trkpt>
      <trkpt lat="43.451355" lon="1.873435">
        <ele>237.1</ele>
        <time>2014-03-24T16:07:55Z</time>
      </trkpt>
      <trkpt lat="43.451266" lon="1.873386">
        <ele>237.8</ele>
        <time>2014-03-24T16:08:03Z</time>
      </trkpt>
      <trkpt lat="43.451193" lon="1.873317">
        <ele>238.1</ele>
        <time>2014-03-24T16:08:11Z</time>
      </trkpt>
      <trkpt lat="43.451096" lon="1.873252">
        <ele>238.5</ele>
        <time>2014-03-24T16:08:17Z</time>
      </trkpt>
      <trkpt lat="43.451012" lon="1.873207">
        <ele>239.0</ele>
        <time>2014-03-24T16:08:23Z</time>
      </trkpt>
      <trkpt lat="43.450932" lon="1.873194">
        <ele>240.4</ele>
        <time>2014-03-24T16:08:32Z</time>
      </trkpt>
      <trkpt lat="43.450839" lon="1.873138">
        <ele>241.2</ele>
        <time>2014-03-24T16:08:41Z</time>
      </trkpt>
      <trkpt lat="43.450748" lon="1.873079">
        <ele>242.3</ele>
        <time>2014-03-24T16:08:49Z</time>
      </trkpt>
      <trkpt lat="43.450658" lon="1.873029">
        <ele>243.5</ele>
        <time>2014-03-24T16:08:57Z</time>
      </trkpt>
      <trkpt lat="43.450565" lon="1.872980">
        <ele>244.8</ele>
        <time>2014-03-24T16:09:05Z</time>
      </trkpt>
      <trkpt lat="43.450474" lon="1.872920">
        <ele>246.3</ele>
        <time>2014-03-24T16:09:13Z</time>
      </trkpt>
      <trkpt lat="43.450384" lon="1.872859">
        <ele>248.2</ele>
        <time>2014-03-24T16:09:21Z</time>
      </trkpt>
      <trkpt lat="43.450287" lon="1.872808">
        <ele>250.4</ele>
        <time>2014-03-24T16:09:31Z</time>
      </trkpt>
      <trkpt lat="43.450199" lon="1.872756">
        <ele>252.3</ele>
        <time>2014-03-24T16:09:40Z</time>
      </trkpt>
      <trkpt lat="43.450123" lon="1.872694">
        <ele>253.2</ele>
        <time>2014-03-24T16:09:48Z</time>
      </trkpt>
      <trkpt lat="43.450082" lon="1.872582">
        <ele>254.1</ele>
        <time>2014-03-24T16:09:56Z</time>
      </trkpt>
      <trkpt lat="43.450025" lon="1.872466">
        <ele>256.3</ele>
        <time>2014-03-24T16:10:06Z</time>
      </trkpt>
      <trkpt lat="43.449960" lon="1.872342">
        <ele>257.3</ele>
        <time>2014-03-24T16:10:17Z</time>
      </trkpt>
      <trkpt lat="43.449936" lon="1.872284">
        <ele>259.2</ele>
        <time>2014-03-24T16:11:00Z</time>
      </trkpt>
      <trkpt lat="43.449875" lon="1.872175">
        <ele>259.1</ele>
        <time>2014-03-24T16:11:35Z</time>
      </trkpt>
      <trkpt lat="43.449817" lon="1.872054">
        <ele>258.6</ele>
        <time>2014-03-24T16:11:43Z</time>
      </trkpt>
      <trkpt lat="43.449755" lon="1.871952">
        <ele>257.4</ele>
        <time>2014-03-24T16:11:50Z</time>
      </trkpt>
      <trkpt lat="43.449688" lon="1.871838">
        <ele>255.9</ele>
        <time>2014-03-24T16:11:58Z</time>
      </trkpt>
      <trkpt lat="43.449620" lon="1.871708">
        <ele>254.9</ele>
        <time>2014-03-24T16:12:06Z</time>
      </trkpt>
      <trkpt lat="43.449574" lon="1.871586">
        <ele>253.5</ele>
        <time>2014-03-24T16:12:13Z</time>
      </trkpt>
      <trkpt lat="43.449552" lon="1.871465">
        <ele>252.3</ele>
        <time>2014-03-24T16:12:20Z</time>
      </trkpt>
      <trkpt lat="43.449526" lon="1.871338">
        <ele>251.1</ele>
        <time>2014-03-24T16:12:28Z</time>
      </trkpt>
      <trkpt lat="43.449518" lon="1.871205">
        <ele>250.1</ele>
        <time>2014-03-24T16:12:35Z</time>
      </trkpt>
      <trkpt lat="43.449526" lon="1.871075">
        <ele>248.7</ele>
        <time>2014-03-24T16:12:57Z</time>
      </trkpt>
      <trkpt lat="43.449528" lon="1.870939">
        <ele>248.3</ele>
        <time>2014-03-24T16:13:04Z</time>
      </trkpt>
      <trkpt lat="43.449539" lon="1.870814">
        <ele>248.0</ele>
        <time>2014-03-24T16:13:10Z</time>
      </trkpt>
      <trkpt lat="43.449530" lon="1.870681">
        <ele>247.4</ele>
        <time>2014-03-24T16:13:17Z</time>
      </trkpt>
      <trkpt lat="43.449527" lon="1.870544">
        <ele>247.1</ele>
        <time>2014-03-24T16:13:24Z</time>
      </trkpt>
      <trkpt lat="43.449501" lon="1.870403">
        <ele>246.8</ele>
        <time>2014-03-24T16:13:31Z</time>
      </trkpt>
      <trkpt lat="43.449475" lon="1.870258">
        <ele>246.5</ele>
        <time>2014-03-24T16:13:39Z</time>
      </trkpt>
      <trkpt lat="43.449430" lon="1.870118">
        <ele>246.3</ele>
        <time>2014-03-24T16:13:47Z</time>
      </trkpt>
      <trkpt lat="43.449363" lon="1.870005">
        <ele>246.2</ele>
        <time>2014-03-24T16:13:55Z</time>
      </trkpt>
      <trkpt lat="43.449287" lon="1.869919">
        <ele>245.9</ele>
        <time>2014-03-24T16:14:03Z</time>
      </trkpt>
      <trkpt lat="43.449209" lon="1.869832">
        <ele>245.9</ele>
        <time>2014-03-24T16:14:11Z</time>
      </trkpt>
      <trkpt lat="43.449127" lon="1.869727">
        <ele>247.2</ele>
        <time>2014-03-24T16:14:24Z</time>
      </trkpt>
      <trkpt lat="43.449062" lon="1.869649">
        <ele>247.8</ele>
        <time>2014-03-24T16:14:32Z</time>
      </trkpt>
      <trkpt lat="43.448977" lon="1.869579">
        <ele>249.0</ele>
        <time>2014-03-24T16:14:41Z</time>
      </trkpt>
      <trkpt lat="43.448884" lon="1.869514">
        <ele>250.3</ele>
        <time>2014-03-24T16:14:52Z</time>
      </trkpt>
      <trkpt lat="43.448773" lon="1.869464">
        <ele>252.9</ele>
        <time>2014-03-24T16:15:05Z</time>
      </trkpt>
      <trkpt lat="43.448670" lon="1.869406">
        <ele>256.0</ele>
        <time>2014-03-24T16:15:19Z</time>
      </trkpt>
      <trkpt lat="43.448562" lon="1.869314">
        <ele>258.8</ele>
        <time>2014-03-24T16:15:32Z</time>
      </trkpt>
      <trkpt lat="43.448485" lon="1.869195">
        <ele>261.6</ele>
        <time>2014-03-24T16:15:46Z</time>
      </trkpt>
      <trkpt lat="43.448481" lon="1.869038">
        <ele>264.8</ele>
        <time>2014-03-24T16:16:04Z</time>
      </trkpt>
      <trkpt lat="43.448492" lon="1.868873">
        <ele>268.5</ele>
        <time>2014-03-24T16:16:22Z</time>
      </trkpt>
      <trkpt lat="43.448439" lon="1.868762">
        <ele>271.7</ele>
        <time>2014-03-24T16:16:35Z</time>
      </trkpt>
      <trkpt lat="43.448365" lon="1.868828">
        <ele>272.6</ele>
        <time>2014-03-24T16:16:43Z</time>
      </trkpt>
      <trkpt lat="43.448286" lon="1.868925">
        <ele>273.3</ele>
        <time>2014-03-24T16:16:51Z</time>
      </trkpt>
      <trkpt lat="43.448211" lon="1.869029">
        <ele>273.9</ele>
        <time>2014-03-24T16:16:59Z</time>
      </trkpt>
      <trkpt lat="43.448139" lon="1.869107">
        <ele>274.5</ele>
        <time>2014-03-24T16:17:06Z</time>
      </trkpt>
      <trkpt lat="43.448070" lon="1.869183">
        <ele>275.1</ele>
        <time>2014-03-24T16:17:13Z</time>
      </trkpt>
      <trkpt lat="43.447990" lon="1.869254">
        <ele>275.7</ele>
        <time>2014-03-24T16:17:20Z</time>
      </trkpt>
      <trkpt lat="43.447902" lon="1.869324">
        <ele>276.2</ele>
        <time>2014-03-24T16:17:27Z</time>
      </trkpt>
      <trkpt lat="43.447824" lon="1.869392">
        <ele>276.9</ele>
        <time>2014-03-24T16:17:34Z</time>
      </trkpt>
      <trkpt lat="43.447738" lon="1.869462">
        <ele>278.0</ele>
        <time>2014-03-24T16:17:42Z</time>
      </trkpt>
      <trkpt lat="43.447661" lon="1.869543">
        <ele>279.4</ele>
        <time>2014-03-24T16:17:50Z</time>
      </trkpt>
      <trkpt lat="43.447589" lon="1.869613">
        <ele>280.9</ele>
        <time>2014-03-24T16:17:58Z</time>
      </trkpt>
      <trkpt lat="43.447496" lon="1.869678">
        <ele>282.4</ele>
        <time>2014-03-24T16:18:06Z</time>
      </trkpt>
      <trkpt lat="43.447406" lon="1.869720">
        <ele>284.0</ele>
        <time>2014-03-24T16:18:13Z</time>
      </trkpt>
      <trkpt lat="43.447316" lon="1.869795">
        <ele>285.2</ele>
        <time>2014-03-24T16:18:21Z</time>
      </trkpt>
      <trkpt lat="43.447249" lon="1.869863">
        <ele>286.6</ele>
        <time>2014-03-24T16:19:05Z</time>
      </trkpt>
      <trkpt lat="43.447170" lon="1.869952">
        <ele>287.0</ele>
        <time>2014-03-24T16:19:13Z</time>
      </trkpt>
      <trkpt lat="43.447097" lon="1.870031">
        <ele>287.2</ele>
        <time>2014-03-24T16:19:20Z</time>
      </trkpt>
      <trkpt lat="43.447030" lon="1.870127">
        <ele>287.3</ele>
        <time>2014-03-24T16:19:27Z</time>
      </trkpt>
      <trkpt lat="43.446969" lon="1.870239">
        <ele>287.4</ele>
        <time>2014-03-24T16:19:35Z</time>
      </trkpt>
      <trkpt lat="43.446908" lon="1.870345">
        <ele>287.2</ele>
        <time>2014-03-24T16:19:42Z</time>
      </trkpt>
      <trkpt lat="43.446853" lon="1.870460">
        <ele>287.2</ele>
        <time>2014-03-24T16:19:49Z</time>
      </trkpt>
      <trkpt lat="43.446795" lon="1.870578">
        <ele>287.2</ele>
        <time>2014-03-24T16:19:56Z</time>
      </trkpt>
      <trkpt lat="43.446740" lon="1.870686">
        <ele>287.0</ele>
        <time>2014-03-24T16:20:03Z</time>
      </trkpt>
      <trkpt lat="43.446676" lon="1.870796">
        <ele>287.1</ele>
        <time>2014-03-24T16:20:10Z</time>
      </trkpt>
      <trkpt lat="43.446630" lon="1.870915">
        <ele>287.2</ele>
        <time>2014-03-24T16:20:16Z</time>
      </trkpt>
      <trkpt lat="43.446594" lon="1.871032">
        <ele>287.7</ele>
        <time>2014-03-24T16:20:23Z</time>
      </trkpt>
      <trkpt lat="43.446553" lon="1.871148">
        <ele>288.2</ele>
        <time>2014-03-24T16:20:30Z</time>
      </trkpt>
      <trkpt lat="43.446507" lon="1.871263">
        <ele>288.6</ele>
        <time>2014-03-24T16:20:37Z</time>
      </trkpt>
      <trkpt lat="43.446462" lon="1.871386">
        <ele>288.7</ele>
        <time>2014-03-24T16:20:44Z</time>
      </trkpt>
      <trkpt lat="43.446431" lon="1.871515">
        <ele>289.3</ele>
        <time>2014-03-24T16:20:52Z</time>
      </trkpt>
      <trkpt lat="43.446405" lon="1.871636">
        <ele>289.8</ele>
        <time>2014-03-24T16:21:00Z</time>
      </trkpt>
      <trkpt lat="43.446359" lon="1.871764">
        <ele>290.0</ele>
        <time>2014-03-24T16:21:08Z</time>
      </trkpt>
      <trkpt lat="43.446306" lon="1.871887">
        <ele>290.3</ele>
        <time>2014-03-24T16:21:15Z</time>
      </trkpt>
      <trkpt lat="43.446249" lon="1.872015">
        <ele>290.2</ele>
        <time>2014-03-24T16:21:22Z</time>
      </trkpt>
      <trkpt lat="43.446204" lon="1.872150">
        <ele>290.2</ele>
        <time>2014-03-24T16:21:29Z</time>
      </trkpt>
      <trkpt lat="43.446158" lon="1.872285">
        <ele>290.4</ele>
        <time>2014-03-24T16:21:36Z</time>
      </trkpt>
      <trkpt lat="43.446116" lon="1.872412">
        <ele>290.7</ele>
        <time>2014-03-24T16:21:43Z</time>
      </trkpt>
      <trkpt lat="43.446068" lon="1.872525">
        <ele>291.3</ele>
        <time>2014-03-24T16:21:50Z</time>
      </trkpt>
      <trkpt lat="43.446044" lon="1.872674">
        <ele>292.2</ele>
        <time>2014-03-24T16:21:58Z</time>
      </trkpt>
      <trkpt lat="43.446022" lon="1.872806">
        <ele>292.8</ele>
        <time>2014-03-24T16:22:06Z</time>
      </trkpt>
      <trkpt lat="43.445990" lon="1.872939">
        <ele>293.1</ele>
        <time>2014-03-24T16:22:13Z</time>
      </trkpt>
      <trkpt lat="43.445969" lon="1.873081">
        <ele>293.5</ele>
        <time>2014-03-24T16:22:20Z</time>
      </trkpt>
      <trkpt lat="43.445942" lon="1.873209">
        <ele>293.6</ele>
        <time>2014-03-24T16:22:27Z</time>
      </trkpt>
      <trkpt lat="43.445914" lon="1.873355">
        <ele>293.4</ele>
        <time>2014-03-24T16:22:35Z</time>
      </trkpt>
      <trkpt lat="43.445885" lon="1.873477">
        <ele>293.5</ele>
        <time>2014-03-24T16:22:42Z</time>
      </trkpt>
      <trkpt lat="43.445849" lon="1.873642">
        <ele>293.4</ele>
        <time>2014-03-24T16:22:50Z</time>
      </trkpt>
      <trkpt lat="43.445827" lon="1.873789">
        <ele>293.2</ele>
        <time>2014-03-24T16:22:57Z</time>
      </trkpt>
      <trkpt lat="43.445804" lon="1.873951">
        <ele>293.2</ele>
        <time>2014-03-24T16:23:04Z</time>
      </trkpt>
      <trkpt lat="43.445771" lon="1.874105">
        <ele>293.4</ele>
        <time>2014-03-24T16:23:12Z</time>
      </trkpt>
      <trkpt lat="43.445735" lon="1.874239">
        <ele>293.8</ele>
        <time>2014-03-24T16:23:19Z</time>
      </trkpt>
      <trkpt lat="43.445708" lon="1.874366">
        <ele>294.1</ele>
        <time>2014-03-24T16:23:25Z</time>
      </trkpt>
      <trkpt lat="43.445673" lon="1.874487">
        <ele>294.4</ele>
        <time>2014-03-24T16:23:31Z</time>
      </trkpt>
      <trkpt lat="43.445650" lon="1.874616">
        <ele>294.6</ele>
        <time>2014-03-24T16:23:38Z</time>
      </trkpt>
      <trkpt lat="43.445632" lon="1.874742">
        <ele>295.1</ele>
        <time>2014-03-24T16:23:44Z</time>
      </trkpt>
      <trkpt lat="43.445610" lon="1.874874">
        <ele>295.3</ele>
        <time>2014-03-24T16:23:51Z</time>
      </trkpt>
      <trkpt lat="43.445583" lon="1.875000">
        <ele>295.7</ele>
        <time>2014-03-24T16:23:57Z</time>
      </trkpt>
      <trkpt lat="43.445546" lon="1.875127">
        <ele>296.4</ele>
        <time>2014-03-24T16:24:04Z</time>
      </trkpt>
      <trkpt lat="43.445516" lon="1.875257">
        <ele>296.9</ele>
        <time>2014-03-24T16:24:11Z</time>
      </trkpt>
      <trkpt lat="43.445475" lon="1.875391">
        <ele>297.3</ele>
        <time>2014-03-24T16:24:18Z</time>
      </trkpt>
      <trkpt lat="43.445427" lon="1.875501">
        <ele>297.5</ele>
        <time>2014-03-24T16:24:24Z</time>
      </trkpt>
      <trkpt lat="43.445377" lon="1.875648">
        <ele>298.0</ele>
        <time>2014-03-24T16:24:31Z</time>
      </trkpt>
      <trkpt lat="43.445319" lon="1.875769">
        <ele>298.4</ele>
        <time>2014-03-24T16:24:38Z</time>
      </trkpt>
      <trkpt lat="43.445266" lon="1.875886">
        <ele>298.6</ele>
        <time>2014-03-24T16:24:44Z</time>
      </trkpt>
      <trkpt lat="43.445219" lon="1.875992">
        <ele>298.6</ele>
        <time>2014-03-24T16:24:50Z</time>
      </trkpt>
      <trkpt lat="43.445157" lon="1.876112">
        <ele>298.8</ele>
        <time>2014-03-24T16:24:57Z</time>
      </trkpt>
      <trkpt lat="43.445095" lon="1.876216">
        <ele>299.0</ele>
        <time>2014-03-24T16:25:04Z</time>
      </trkpt>
      <trkpt lat="43.445019" lon="1.876310">
        <ele>299.0</ele>
        <time>2014-03-24T16:25:11Z</time>
      </trkpt>
      <trkpt lat="43.444938" lon="1.876419">
        <ele>299.5</ele>
        <time>2014-03-24T16:25:19Z</time>
      </trkpt>
      <trkpt lat="43.444868" lon="1.876516">
        <ele>300.1</ele>
        <time>2014-03-24T16:25:26Z</time>
      </trkpt>
      <trkpt lat="43.444777" lon="1.876584">
        <ele>300.5</ele>
        <time>2014-03-24T16:25:35Z</time>
      </trkpt>
      <trkpt lat="43.444698" lon="1.876675">
        <ele>300.7</ele>
        <time>2014-03-24T16:25:43Z</time>
      </trkpt>
      <trkpt lat="43.444612" lon="1.876780">
        <ele>300.8</ele>
        <time>2014-03-24T16:25:50Z</time>
      </trkpt>
      <trkpt lat="43.444530" lon="1.876880">
        <ele>301.1</ele>
        <time>2014-03-24T16:25:58Z</time>
      </trkpt>
      <trkpt lat="43.444453" lon="1.876978">
        <ele>301.7</ele>
        <time>2014-03-24T16:26:06Z</time>
      </trkpt>
      <trkpt lat="43.444360" lon="1.877072">
        <ele>302.3</ele>
        <time>2014-03-24T16:26:15Z</time>
      </trkpt>
      <trkpt lat="43.444272" lon="1.877156">
        <ele>302.7</ele>
        <time>2014-03-24T16:26:23Z</time>
      </trkpt>
      <trkpt lat="43.444180" lon="1.877220">
        <ele>303.0</ele>
        <time>2014-03-24T16:26:31Z</time>
      </trkpt>
      <trkpt lat="43.444077" lon="1.877307">
        <ele>303.2</ele>
        <time>2014-03-24T16:26:39Z</time>
      </trkpt>
      <trkpt lat="43.443988" lon="1.877373">
        <ele>303.2</ele>
        <time>2014-03-24T16:26:46Z</time>
      </trkpt>
      <trkpt lat="43.443889" lon="1.877471">
        <ele>303.4</ele>
        <time>2014-03-24T16:26:55Z</time>
      </trkpt>
      <trkpt lat="43.443822" lon="1.877556">
        <ele>303.2</ele>
        <time>2014-03-24T16:27:01Z</time>
      </trkpt>
      <trkpt lat="43.443732" lon="1.877641">
        <ele>303.5</ele>
        <time>2014-03-24T16:27:08Z</time>
      </trkpt>
      <trkpt lat="43.443644" lon="1.877736">
        <ele>304.1</ele>
        <time>2014-03-24T16:27:15Z</time>
      </trkpt>
      <trkpt lat="43.443574" lon="1.877841">
        <ele>304.6</ele>
        <time>2014-03-24T16:27:22Z</time>
      </trkpt>
      <trkpt lat="43.443515" lon="1.877983">
        <ele>304.9</ele>
        <time>2014-03-24T16:27:29Z</time>
      </trkpt>
      <trkpt lat="43.443439" lon="1.878106">
        <ele>305.4</ele>
        <time>2014-03-24T16:27:36Z</time>
      </trkpt>
      <trkpt lat="43.443371" lon="1.878226">
        <ele>305.5</ele>
        <time>2014-03-24T16:27:43Z</time>
      </trkpt>
      <trkpt lat="43.443307" lon="1.878336">
        <ele>305.9</ele>
        <time>2014-03-24T16:27:50Z</time>
      </trkpt>
      <trkpt lat="43.443255" lon="1.878450">
        <ele>306.2</ele>
        <time>2014-03-24T16:27:57Z</time>
      </trkpt>
      <trkpt lat="43.443192" lon="1.878575">
        <ele>306.4</ele>
        <time>2014-03-24T16:28:05Z</time>
      </trkpt>
      <trkpt lat="43.443148" lon="1.878705">
        <ele>306.7</ele>
        <time>2014-03-24T16:28:12Z</time>
      </trkpt>
      <trkpt lat="43.443096" lon="1.878830">
        <ele>307.1</ele>
        <time>2014-03-24T16:28:20Z</time>
      </trkpt>
      <trkpt lat="43.443056" lon="1.878968">
        <ele>307.8</ele>
        <time>2014-03-24T16:28:28Z</time>
      </trkpt>
      <trkpt lat="43.443029" lon="1.879095">
        <ele>308.7</ele>
        <time>2014-03-24T16:28:35Z</time>
      </trkpt>
      <trkpt lat="43.442982" lon="1.879232">
        <ele>309.2</ele>
        <time>2014-03-24T16:28:43Z</time>
      </trkpt>
      <trkpt lat="43.442927" lon="1.879355">
        <ele>309.6</ele>
        <time>2014-03-24T16:28:51Z</time>
      </trkpt>
      <trkpt lat="43.442854" lon="1.879460">
        <ele>309.8</ele>
        <time>2014-03-24T16:28:59Z</time>
      </trkpt>
      <trkpt lat="43.442782" lon="1.879554">
        <ele>309.7</ele>
        <time>2014-03-24T16:29:06Z</time>
      </trkpt>
      <trkpt lat="43.442710" lon="1.879659">
        <ele>309.7</ele>
        <time>2014-03-24T16:29:13Z</time>
      </trkpt>
      <trkpt lat="43.442642" lon="1.879771">
        <ele>309.8</ele>
        <time>2014-03-24T16:29:20Z</time>
      </trkpt>
      <trkpt lat="43.442573" lon="1.879864">
        <ele>309.5</ele>
        <time>2014-03-24T16:29:27Z</time>
      </trkpt>
      <trkpt lat="43.442513" lon="1.879954">
        <ele>309.3</ele>
        <time>2014-03-24T16:29:33Z</time>
      </trkpt>
      <trkpt lat="43.442451" lon="1.880076">
        <ele>309.4</ele>
        <time>2014-03-24T16:29:40Z</time>
      </trkpt>
      <trkpt lat="43.442378" lon="1.880184">
        <ele>309.4</ele>
        <time>2014-03-24T16:29:47Z</time>
      </trkpt>
      <trkpt lat="43.442316" lon="1.880291">
        <ele>309.6</ele>
        <time>2014-03-24T16:29:53Z</time>
      </trkpt>
      <trkpt lat="43.442253" lon="1.880378">
        <ele>310.2</ele>
        <time>2014-03-24T16:29:58Z</time>
      </trkpt>
      <trkpt lat="43.442205" lon="1.880483">
        <ele>310.5</ele>
        <time>2014-03-24T16:30:04Z</time>
      </trkpt>
      <trkpt lat="43.442160" lon="1.880596">
        <ele>311.1</ele>
        <time>2014-03-24T16:30:11Z</time>
      </trkpt>
      <trkpt lat="43.442092" lon="1.880701">
        <ele>311.5</ele>
        <time>2014-03-24T16:30:18Z</time>
      </trkpt>
      <trkpt lat="43.442028" lon="1.880805">
        <ele>312.0</ele>
        <time>2014-03-24T16:30:24Z</time>
      </trkpt>
      <trkpt lat="43.441961" lon="1.880909">
        <ele>312.4</ele>
        <time>2014-03-24T16:30:30Z</time>
      </trkpt>
      <trkpt lat="43.441901" lon="1.881017">
        <ele>313.1</ele>
        <time>2014-03-24T16:30:36Z</time>
      </trkpt>
      <trkpt lat="43.441838" lon="1.881124">
        <ele>313.9</ele>
        <time>2014-03-24T16:30:42Z</time>
      </trkpt>
      <trkpt lat="43.441772" lon="1.881210">
        <ele>314.6</ele>
        <time>2014-03-24T16:30:48Z</time>
      </trkpt>
      <trkpt lat="43.441701" lon="1.881296">
        <ele>315.0</ele>
        <time>2014-03-24T16:30:54Z</time>
      </trkpt>
      <trkpt lat="43.441634" lon="1.881381">
        <ele>315.4</ele>
        <time>2014-03-24T16:30:59Z</time>
      </trkpt>
      <trkpt lat="43.441573" lon="1.881471">
        <ele>315.7</ele>
        <time>2014-03-24T16:31:06Z</time>
      </trkpt>
      <trkpt lat="43.441510" lon="1.881573">
        <ele>315.9</ele>
        <time>2014-03-24T16:31:13Z</time>
      </trkpt>
      <trkpt lat="43.441442" lon="1.881696">
        <ele>316.1</ele>
        <time>2014-03-24T16:31:20Z</time>
      </trkpt>
      <trkpt lat="43.441385" lon="1.881829">
        <ele>316.3</ele>
        <time>2014-03-24T16:31:26Z</time>
      </trkpt>
      <trkpt lat="43.441328" lon="1.881937">
        <ele>316.3</ele>
        <time>2014-03-24T16:31:33Z</time>
      </trkpt>
      <trkpt lat="43.441246" lon="1.882020">
        <ele>316.5</ele>
        <time>2014-03-24T16:31:39Z</time>
      </trkpt>
      <trkpt lat="43.441188" lon="1.882120">
        <ele>316.6</ele>
        <time>2014-03-24T16:31:45Z</time>
      </trkpt>
      <trkpt lat="43.441117" lon="1.882235">
        <ele>316.9</ele>
        <time>2014-03-24T16:31:52Z</time>
      </trkpt>
      <trkpt lat="43.441055" lon="1.882341">
        <ele>317.0</ele>
        <time>2014-03-24T16:31:58Z</time>
      </trkpt>
      <trkpt lat="43.440986" lon="1.882463">
        <ele>317.6</ele>
        <time>2014-03-24T16:32:06Z</time>
      </trkpt>
      <trkpt lat="43.440927" lon="1.882575">
        <ele>318.0</ele>
        <time>2014-03-24T16:32:12Z</time>
      </trkpt>
      <trkpt lat="43.440862" lon="1.882692">
        <ele>318.5</ele>
        <time>2014-03-24T16:32:19Z</time>
      </trkpt>
      <trkpt lat="43.440798" lon="1.882809">
        <ele>319.0</ele>
        <time>2014-03-24T16:32:25Z</time>
      </trkpt>
      <trkpt lat="43.440740" lon="1.882930">
        <ele>319.5</ele>
        <time>2014-03-24T16:32:32Z</time>
      </trkpt>
      <trkpt lat="43.440683" lon="1.883028">
        <ele>319.7</ele>
        <time>2014-03-24T16:32:38Z</time>
      </trkpt>
      <trkpt lat="43.440615" lon="1.883105">
        <ele>320.1</ele>
        <time>2014-03-24T16:32:44Z</time>
      </trkpt>
      <trkpt lat="43.440550" lon="1.883173">
        <ele>320.1</ele>
        <time>2014-03-24T16:32:51Z</time>
      </trkpt>
      <trkpt lat="43.440490" lon="1.883269">
        <ele>320.4</ele>
        <time>2014-03-24T16:32:59Z</time>
      </trkpt>
      <trkpt lat="43.440397" lon="1.883236">
        <ele>320.2</ele>
        <time>2014-03-24T16:33:06Z</time>
      </trkpt>
      <trkpt lat="43.440317" lon="1.883209">
        <ele>319.8</ele>
        <time>2014-03-24T16:33:12Z</time>
      </trkpt>
      <trkpt lat="43.440227" lon="1.883249">
        <ele>319.2</ele>
        <time>2014-03-24T16:33:27Z</time>
      </trkpt>
      <trkpt lat="43.440176" lon="1.883377">
        <ele>319.2</ele>
        <time>2014-03-24T16:33:34Z</time>
      </trkpt>
      <trkpt lat="43.440129" lon="1.883522">
        <ele>319.2</ele>
        <time>2014-03-24T16:33:42Z</time>
      </trkpt>
      <trkpt lat="43.440077" lon="1.883655">
        <ele>319.5</ele>
        <time>2014-03-24T16:33:50Z</time>
      </trkpt>
      <trkpt lat="43.440042" lon="1.883780">
        <ele>319.3</ele>
        <time>2014-03-24T16:33:59Z</time>
        <name>Antenne</name>
      </trkpt>
      <trkpt lat="43.440106" lon="1.883869">
        <ele>319.1</ele>
        <time>2014-03-24T16:34:08Z</time>
      </trkpt>
      <trkpt lat="43.440179" lon="1.883934">
        <ele>319.2</ele>
        <time>2014-03-24T16:34:17Z</time>
      </trkpt>
      <trkpt lat="43.440236" lon="1.884021">
        <ele>318.7</ele>
        <time>2014-03-24T16:34:30Z</time>
      </trkpt>
      <trkpt lat="43.440321" lon="1.884132">
        <ele>319.3</ele>
        <time>2014-03-24T16:34:43Z</time>
      </trkpt>
      <trkpt lat="43.440407" lon="1.884213">
        <ele>319.6</ele>
        <time>2014-03-24T16:34:52Z</time>
      </trkpt>
      <trkpt lat="43.440499" lon="1.884271">
        <ele>319.5</ele>
        <time>2014-03-24T16:35:01Z</time>
      </trkpt>
      <trkpt lat="43.440602" lon="1.884336">
        <ele>319.5</ele>
        <time>2014-03-24T16:35:09Z</time>
      </trkpt>
      <trkpt lat="43.440678" lon="1.884279">
        <ele>319.4</ele>
        <time>2014-03-24T16:35:16Z</time>
      </trkpt>
      <trkpt lat="43.440758" lon="1.884179">
        <ele>319.5</ele>
        <time>2014-03-24T16:35:24Z</time>
      </trkpt>
      <trkpt lat="43.440811" lon="1.884095">
        <ele>319.6</ele>
        <time>2014-03-24T16:35:44Z</time>
      </trkpt>
      <trkpt lat="43.440839" lon="1.883979">
        <ele>319.8</ele>
        <time>2014-03-24T16:35:55Z</time>
      </trkpt>
      <trkpt lat="43.440771" lon="1.883849">
        <ele>320.0</ele>
        <time>2014-03-24T16:36:05Z</time>
      </trkpt>
      <trkpt lat="43.440745" lon="1.883694">
        <ele>319.8</ele>
        <time>2014-03-24T16:36:17Z</time>
      </trkpt>
      <trkpt lat="43.440742" lon="1.883512">
        <ele>320.3</ele>
        <time>2014-03-24T16:36:34Z</time>
      </trkpt>
      <trkpt lat="43.440667" lon="1.883396">
        <ele>320.8</ele>
        <time>2014-03-24T16:36:51Z</time>
      </trkpt>
      <trkpt lat="43.440634" lon="1.883280">
        <ele>320.4</ele>
        <time>2014-03-24T16:37:37Z</time>
      </trkpt>
      <trkpt lat="43.440636" lon="1.883155">
        <ele>320.4</ele>
        <time>2014-03-24T16:37:44Z</time>
      </trkpt>
      <trkpt lat="43.440689" lon="1.883046">
        <ele>320.2</ele>
        <time>2014-03-24T16:37:50Z</time>
      </trkpt>
      <trkpt lat="43.440745" lon="1.882940">
        <ele>320.1</ele>
        <time>2014-03-24T16:37:58Z</time>
      </trkpt>
      <trkpt lat="43.440807" lon="1.882838">
        <ele>319.9</ele>
        <time>2014-03-24T16:38:05Z</time>
      </trkpt>
      <trkpt lat="43.440861" lon="1.882726">
        <ele>319.4</ele>
        <time>2014-03-24T16:38:12Z</time>
      </trkpt>
      <trkpt lat="43.440926" lon="1.882631">
        <ele>319.0</ele>
        <time>2014-03-24T16:38:19Z</time>
      </trkpt>
      <trkpt lat="43.440982" lon="1.882511">
        <ele>318.5</ele>
        <time>2014-03-24T16:38:26Z</time>
      </trkpt>
      <trkpt lat="43.441044" lon="1.882403">
        <ele>317.8</ele>
        <time>2014-03-24T16:38:32Z</time>
      </trkpt>
      <trkpt lat="43.441105" lon="1.882276">
        <ele>317.3</ele>
        <time>2014-03-24T16:38:39Z</time>
      </trkpt>
      <trkpt lat="43.441175" lon="1.882160">
        <ele>316.9</ele>
        <time>2014-03-24T16:38:46Z</time>
      </trkpt>
      <trkpt lat="43.441240" lon="1.882056">
        <ele>316.5</ele>
        <time>2014-03-24T16:38:52Z</time>
      </trkpt>
      <trkpt lat="43.441315" lon="1.881973">
        <ele>316.4</ele>
        <time>2014-03-24T16:38:59Z</time>
      </trkpt>
      <trkpt lat="43.441371" lon="1.881866">
        <ele>316.2</ele>
        <time>2014-03-24T16:39:05Z</time>
      </trkpt>
      <trkpt lat="43.441435" lon="1.881750">
        <ele>315.9</ele>
        <time>2014-03-24T16:39:12Z</time>
      </trkpt>
      <trkpt lat="43.441492" lon="1.881639">
        <ele>316.0</ele>
        <time>2014-03-24T16:39:18Z</time>
      </trkpt>
      <trkpt lat="43.441553" lon="1.881529">
        <ele>315.9</ele>
        <time>2014-03-24T16:39:24Z</time>
      </trkpt>
      <trkpt lat="43.441623" lon="1.881422">
        <ele>315.8</ele>
        <time>2014-03-24T16:39:31Z</time>
      </trkpt>
      <trkpt lat="43.441691" lon="1.881327">
        <ele>315.5</ele>
        <time>2014-03-24T16:39:37Z</time>
      </trkpt>
      <trkpt lat="43.441754" lon="1.881236">
        <ele>315.3</ele>
        <time>2014-03-24T16:39:43Z</time>
      </trkpt>
      <trkpt lat="43.441820" lon="1.881125">
        <ele>315.1</ele>
        <time>2014-03-24T16:39:50Z</time>
      </trkpt>
      <trkpt lat="43.441882" lon="1.881021">
        <ele>314.5</ele>
        <time>2014-03-24T16:39:57Z</time>
      </trkpt>
      <trkpt lat="43.441933" lon="1.880913">
        <ele>313.9</ele>
        <time>2014-03-24T16:40:02Z</time>
      </trkpt>
      <trkpt lat="43.442000" lon="1.880829">
        <ele>313.4</ele>
        <time>2014-03-24T16:40:08Z</time>
      </trkpt>
      <trkpt lat="43.442070" lon="1.880744">
        <ele>312.6</ele>
        <time>2014-03-24T16:40:14Z</time>
      </trkpt>
      <trkpt lat="43.442139" lon="1.880638">
        <ele>312.1</ele>
        <time>2014-03-24T16:40:20Z</time>
      </trkpt>
      <trkpt lat="43.442196" lon="1.880548">
        <ele>311.5</ele>
        <time>2014-03-24T16:40:26Z</time>
      </trkpt>
      <trkpt lat="43.442260" lon="1.880450">
        <ele>311.0</ele>
        <time>2014-03-24T16:40:32Z</time>
      </trkpt>
      <trkpt lat="43.442321" lon="1.880351">
        <ele>310.7</ele>
        <time>2014-03-24T16:40:38Z</time>
      </trkpt>
      <trkpt lat="43.442376" lon="1.880245">
        <ele>310.2</ele>
        <time>2014-03-24T16:40:44Z</time>
      </trkpt>
      <trkpt lat="43.442426" lon="1.880138">
        <ele>309.6</ele>
        <time>2014-03-24T16:40:50Z</time>
      </trkpt>
      <trkpt lat="43.442479" lon="1.880011">
        <ele>309.1</ele>
        <time>2014-03-24T16:40:57Z</time>
      </trkpt>
      <trkpt lat="43.442535" lon="1.879926">
        <ele>309.1</ele>
        <time>2014-03-24T16:41:03Z</time>
      </trkpt>
      <trkpt lat="43.442600" lon="1.879829">
        <ele>309.2</ele>
        <time>2014-03-24T16:41:10Z</time>
      </trkpt>
      <trkpt lat="43.442666" lon="1.879730">
        <ele>309.3</ele>
        <time>2014-03-24T16:41:17Z</time>
      </trkpt>
      <trkpt lat="43.442739" lon="1.879644">
        <ele>309.3</ele>
        <time>2014-03-24T16:41:24Z</time>
      </trkpt>
      <trkpt lat="43.442809" lon="1.879551">
        <ele>309.0</ele>
        <time>2014-03-24T16:41:31Z</time>
      </trkpt>
      <trkpt lat="43.442878" lon="1.879464">
        <ele>309.3</ele>
        <time>2014-03-24T16:41:38Z</time>
      </trkpt>
      <trkpt lat="43.442941" lon="1.879371">
        <ele>309.4</ele>
        <time>2014-03-24T16:41:45Z</time>
      </trkpt>
      <trkpt lat="43.442998" lon="1.879275">
        <ele>309.2</ele>
        <time>2014-03-24T16:41:52Z</time>
      </trkpt>
      <trkpt lat="43.442971" lon="1.879094">
        <ele>308.9</ele>
        <time>2014-03-24T16:42:13Z</time>
      </trkpt>
      <trkpt lat="43.442883" lon="1.879047">
        <ele>308.4</ele>
        <time>2014-03-24T16:42:43Z</time>
      </trkpt>
      <trkpt lat="43.442811" lon="1.878953">
        <ele>307.7</ele>
        <time>2014-03-24T16:42:51Z</time>
      </trkpt>
      <trkpt lat="43.442732" lon="1.878860">
        <ele>307.1</ele>
        <time>2014-03-24T16:42:58Z</time>
      </trkpt>
      <trkpt lat="43.442655" lon="1.878745">
        <ele>306.0</ele>
        <time>2014-03-24T16:43:05Z</time>
      </trkpt>
      <trkpt lat="43.442582" lon="1.878655">
        <ele>305.4</ele>
        <time>2014-03-24T16:43:11Z</time>
      </trkpt>
      <trkpt lat="43.442514" lon="1.878565">
        <ele>304.5</ele>
        <time>2014-03-24T16:43:17Z</time>
      </trkpt>
      <trkpt lat="43.442420" lon="1.878488">
        <ele>303.3</ele>
        <time>2014-03-24T16:43:24Z</time>
      </trkpt>
      <trkpt lat="43.442350" lon="1.878399">
        <ele>302.4</ele>
        <time>2014-03-24T16:43:30Z</time>
      </trkpt>
      <trkpt lat="43.442267" lon="1.878319">
        <ele>301.2</ele>
        <time>2014-03-24T16:43:37Z</time>
      </trkpt>
      <trkpt lat="43.442190" lon="1.878235">
        <ele>299.7</ele>
        <time>2014-03-24T16:43:44Z</time>
      </trkpt>
      <trkpt lat="43.442114" lon="1.878147">
        <ele>298.3</ele>
        <time>2014-03-24T16:43:51Z</time>
      </trkpt>
      <trkpt lat="43.442038" lon="1.878054">
        <ele>296.9</ele>
        <time>2014-03-24T16:43:58Z</time>
      </trkpt>
      <trkpt lat="43.441978" lon="1.877950">
        <ele>294.8</ele>
        <time>2014-03-24T16:44:05Z</time>
      </trkpt>
      <trkpt lat="43.441952" lon="1.877816">
        <ele>293.3</ele>
        <time>2014-03-24T16:44:12Z</time>
      </trkpt>
      <trkpt lat="43.441941" lon="1.877675">
        <ele>291.5</ele>
        <time>2014-03-24T16:44:19Z</time>
      </trkpt>
      <trkpt lat="43.441928" lon="1.877524">
        <ele>289.8</ele>
        <time>2014-03-24T16:44:26Z</time>
      </trkpt>
      <trkpt lat="43.441919" lon="1.877390">
        <ele>288.3</ele>
        <time>2014-03-24T16:44:32Z</time>
      </trkpt>
      <trkpt lat="43.441902" lon="1.877260">
        <ele>287.0</ele>
        <time>2014-03-24T16:44:38Z</time>
      </trkpt>
      <trkpt lat="43.441894" lon="1.877134">
        <ele>285.9</ele>
        <time>2014-03-24T16:44:44Z</time>
      </trkpt>
      <trkpt lat="43.441871" lon="1.876994">
        <ele>284.6</ele>
        <time>2014-03-24T16:44:51Z</time>
      </trkpt>
      <trkpt lat="43.441837" lon="1.876864">
        <ele>283.4</ele>
        <time>2014-03-24T16:44:58Z</time>
      </trkpt>
      <trkpt lat="43.441792" lon="1.876739">
        <ele>282.5</ele>
        <time>2014-03-24T16:45:05Z</time>
      </trkpt>
      <trkpt lat="43.441732" lon="1.876620">
        <ele>281.8</ele>
        <time>2014-03-24T16:45:12Z</time>
      </trkpt>
      <trkpt lat="43.441678" lon="1.876495">
        <ele>281.5</ele>
        <time>2014-03-24T16:45:19Z</time>
      </trkpt>
      <trkpt lat="43.441625" lon="1.876396">
        <ele>281.1</ele>
        <time>2014-03-24T16:45:25Z</time>
      </trkpt>
      <trkpt lat="43.441556" lon="1.876293">
        <ele>281.2</ele>
        <time>2014-03-24T16:45:31Z</time>
      </trkpt>
      <trkpt lat="43.441481" lon="1.876202">
        <ele>281.7</ele>
        <time>2014-03-24T16:45:38Z</time>
      </trkpt>
      <trkpt lat="43.441409" lon="1.876100">
        <ele>281.9</ele>
        <time>2014-03-24T16:45:46Z</time>
      </trkpt>
      <trkpt lat="43.441363" lon="1.875993">
        <ele>282.0</ele>
        <time>2014-03-24T16:45:54Z</time>
      </trkpt>
      <trkpt lat="43.441342" lon="1.875872">
        <ele>282.3</ele>
        <time>2014-03-24T16:46:01Z</time>
      </trkpt>
      <trkpt lat="43.441320" lon="1.875734">
        <ele>282.8</ele>
        <time>2014-03-24T16:46:09Z</time>
      </trkpt>
      <trkpt lat="43.441311" lon="1.875600">
        <ele>283.2</ele>
        <time>2014-03-24T16:46:16Z</time>
      </trkpt>
      <trkpt lat="43.441316" lon="1.875470">
        <ele>283.7</ele>
        <time>2014-03-24T16:46:22Z</time>
      </trkpt>
      <trkpt lat="43.441317" lon="1.875345">
        <ele>283.9</ele>
        <time>2014-03-24T16:46:28Z</time>
      </trkpt>
      <trkpt lat="43.441294" lon="1.875205">
        <ele>284.4</ele>
        <time>2014-03-24T16:46:35Z</time>
      </trkpt>
      <trkpt lat="43.441281" lon="1.875060">
        <ele>284.6</ele>
        <time>2014-03-24T16:46:42Z</time>
      </trkpt>
      <trkpt lat="43.441268" lon="1.874903">
        <ele>285.1</ele>
        <time>2014-03-24T16:46:49Z</time>
      </trkpt>
      <trkpt lat="43.441260" lon="1.874781">
        <ele>285.2</ele>
        <time>2014-03-24T16:46:55Z</time>
      </trkpt>
      <trkpt lat="43.441254" lon="1.874649">
        <ele>285.5</ele>
        <time>2014-03-24T16:47:01Z</time>
      </trkpt>
      <trkpt lat="43.441265" lon="1.874530">
        <ele>286.0</ele>
        <time>2014-03-24T16:47:07Z</time>
      </trkpt>
      <trkpt lat="43.441287" lon="1.874401">
        <ele>286.6</ele>
        <time>2014-03-24T16:47:14Z</time>
      </trkpt>
      <trkpt lat="43.441285" lon="1.874256">
        <ele>287.0</ele>
        <time>2014-03-24T16:47:21Z</time>
      </trkpt>
      <trkpt lat="43.441303" lon="1.874134">
        <ele>287.3</ele>
        <time>2014-03-24T16:47:27Z</time>
      </trkpt>
      <trkpt lat="43.441307" lon="1.874006">
        <ele>287.8</ele>
        <time>2014-03-24T16:47:33Z</time>
      </trkpt>
      <trkpt lat="43.441320" lon="1.873875">
        <ele>288.1</ele>
        <time>2014-03-24T16:47:39Z</time>
      </trkpt>
      <trkpt lat="43.441332" lon="1.873751">
        <ele>288.3</ele>
        <time>2014-03-24T16:47:45Z</time>
      </trkpt>
      <trkpt lat="43.441347" lon="1.873625">
        <ele>288.7</ele>
        <time>2014-03-24T16:47:51Z</time>
      </trkpt>
      <trkpt lat="43.441348" lon="1.873490">
        <ele>289.2</ele>
        <time>2014-03-24T16:47:58Z</time>
      </trkpt>
      <trkpt lat="43.441353" lon="1.873360">
        <ele>289.6</ele>
        <time>2014-03-24T16:48:05Z</time>
      </trkpt>
      <trkpt lat="43.441366" lon="1.873214">
        <ele>290.1</ele>
        <time>2014-03-24T16:48:12Z</time>
      </trkpt>
      <trkpt lat="43.441388" lon="1.873065">
        <ele>291.1</ele>
        <time>2014-03-24T16:48:20Z</time>
      </trkpt>
      <trkpt lat="43.441378" lon="1.872934">
        <ele>292.0</ele>
        <time>2014-03-24T16:48:28Z</time>
      </trkpt>
      <trkpt lat="43.441400" lon="1.872785">
        <ele>292.8</ele>
        <time>2014-03-24T16:48:36Z</time>
      </trkpt>
      <trkpt lat="43.441418" lon="1.872647">
        <ele>293.7</ele>
        <time>2014-03-24T16:48:44Z</time>
      </trkpt>
      <trkpt lat="43.441423" lon="1.872502">
        <ele>294.5</ele>
        <time>2014-03-24T16:48:52Z</time>
      </trkpt>
      <trkpt lat="43.441418" lon="1.872371">
        <ele>295.1</ele>
        <time>2014-03-24T16:49:00Z</time>
      </trkpt>
      <trkpt lat="43.441402" lon="1.872227">
        <ele>295.6</ele>
        <time>2014-03-24T16:49:07Z</time>
      </trkpt>
      <trkpt lat="43.441385" lon="1.872096">
        <ele>296.1</ele>
        <time>2014-03-24T16:49:14Z</time>
      </trkpt>
      <trkpt lat="43.441344" lon="1.871971">
        <ele>296.8</ele>
        <time>2014-03-24T16:49:22Z</time>
      </trkpt>
      <trkpt lat="43.441302" lon="1.871831">
        <ele>297.3</ele>
        <time>2014-03-24T16:49:29Z</time>
      </trkpt>
      <trkpt lat="43.441249" lon="1.871717">
        <ele>297.7</ele>
        <time>2014-03-24T16:49:36Z</time>
      </trkpt>
      <trkpt lat="43.441206" lon="1.871587">
        <ele>297.8</ele>
        <time>2014-03-24T16:49:43Z</time>
      </trkpt>
      <trkpt lat="43.441174" lon="1.871472">
        <ele>297.9</ele>
        <time>2014-03-24T16:49:49Z</time>
      </trkpt>
      <trkpt lat="43.441147" lon="1.871342">
        <ele>297.9</ele>
        <time>2014-03-24T16:49:56Z</time>
      </trkpt>
      <trkpt lat="43.441130" lon="1.871220">
        <ele>298.0</ele>
        <time>2014-03-24T16:50:03Z</time>
      </trkpt>
      <trkpt lat="43.441120" lon="1.871076">
        <ele>298.0</ele>
        <time>2014-03-24T16:50:10Z</time>
      </trkpt>
      <trkpt lat="43.441132" lon="1.870936">
        <ele>298.0</ele>
        <time>2014-03-24T16:50:16Z</time>
      </trkpt>
      <trkpt lat="43.441148" lon="1.870800">
        <ele>298.1</ele>
        <time>2014-03-24T16:50:22Z</time>
      </trkpt>
      <trkpt lat="43.441173" lon="1.870674">
        <ele>298.1</ele>
        <time>2014-03-24T16:50:28Z</time>
      </trkpt>
      <trkpt lat="43.441207" lon="1.870550">
        <ele>298.0</ele>
        <time>2014-03-24T16:50:35Z</time>
      </trkpt>
      <trkpt lat="43.441243" lon="1.870417">
        <ele>298.0</ele>
        <time>2014-03-24T16:50:43Z</time>
      </trkpt>
      <trkpt lat="43.441272" lon="1.870290">
        <ele>297.8</ele>
        <time>2014-03-24T16:50:49Z</time>
      </trkpt>
      <trkpt lat="43.441311" lon="1.870171">
        <ele>297.6</ele>
        <time>2014-03-24T16:50:55Z</time>
      </trkpt>
      <trkpt lat="43.441337" lon="1.870055">
        <ele>297.6</ele>
        <time>2014-03-24T16:51:01Z</time>
      </trkpt>
      <trkpt lat="43.441364" lon="1.869935">
        <ele>297.4</ele>
        <time>2014-03-24T16:51:07Z</time>
      </trkpt>
      <trkpt lat="43.441391" lon="1.869809">
        <ele>297.2</ele>
        <time>2014-03-24T16:51:13Z</time>
      </trkpt>
      <trkpt lat="43.441424" lon="1.869687">
        <ele>297.0</ele>
        <time>2014-03-24T16:51:19Z</time>
      </trkpt>
      <trkpt lat="43.441449" lon="1.869570">
        <ele>297.1</ele>
        <time>2014-03-24T16:51:25Z</time>
      </trkpt>
      <trkpt lat="43.441482" lon="1.869437">
        <ele>296.8</ele>
        <time>2014-03-24T16:51:32Z</time>
      </trkpt>
      <trkpt lat="43.441518" lon="1.869303">
        <ele>296.5</ele>
        <time>2014-03-24T16:51:39Z</time>
      </trkpt>
      <trkpt lat="43.441548" lon="1.869173">
        <ele>296.4</ele>
        <time>2014-03-24T16:51:45Z</time>
      </trkpt>
      <trkpt lat="43.441575" lon="1.869056">
        <ele>296.3</ele>
        <time>2014-03-24T16:51:51Z</time>
      </trkpt>
      <trkpt lat="43.441609" lon="1.868933">
        <ele>296.1</ele>
        <time>2014-03-24T16:51:57Z</time>
      </trkpt>
      <trkpt lat="43.441650" lon="1.868810">
        <ele>295.9</ele>
        <time>2014-03-24T16:52:04Z</time>
      </trkpt>
      <trkpt lat="43.441682" lon="1.868681">
        <ele>296.3</ele>
        <time>2014-03-24T16:52:11Z</time>
      </trkpt>
      <trkpt lat="43.441715" lon="1.868558">
        <ele>296.2</ele>
        <time>2014-03-24T16:52:18Z</time>
      </trkpt>
      <trkpt lat="43.441758" lon="1.868432">
        <ele>296.1</ele>
        <time>2014-03-24T16:52:25Z</time>
      </trkpt>
      <trkpt lat="43.441801" lon="1.868323">
        <ele>296.2</ele>
        <time>2014-03-24T16:52:32Z</time>
      </trkpt>
      <trkpt lat="43.441835" lon="1.868200">
        <ele>296.1</ele>
        <time>2014-03-24T16:52:39Z</time>
      </trkpt>
      <trkpt lat="43.441891" lon="1.868085">
        <ele>296.2</ele>
        <time>2014-03-24T16:52:46Z</time>
      </trkpt>
      <trkpt lat="43.441939" lon="1.867976">
        <ele>296.1</ele>
        <time>2014-03-24T16:52:53Z</time>
      </trkpt>
      <trkpt lat="43.441994" lon="1.867868">
        <ele>296.1</ele>
        <time>2014-03-24T16:53:00Z</time>
      </trkpt>
      <trkpt lat="43.442059" lon="1.867760">
        <ele>295.8</ele>
        <time>2014-03-24T16:53:08Z</time>
      </trkpt>
      <trkpt lat="43.442127" lon="1.867675">
        <ele>295.7</ele>
        <time>2014-03-24T16:53:16Z</time>
      </trkpt>
      <trkpt lat="43.442186" lon="1.867554">
        <ele>295.2</ele>
        <time>2014-03-24T16:53:23Z</time>
      </trkpt>
      <trkpt lat="43.442262" lon="1.867448">
        <ele>295.2</ele>
        <time>2014-03-24T16:53:30Z</time>
      </trkpt>
      <trkpt lat="43.442324" lon="1.867348">
        <ele>295.3</ele>
        <time>2014-03-24T16:53:36Z</time>
      </trkpt>
      <trkpt lat="43.442387" lon="1.867242">
        <ele>295.1</ele>
        <time>2014-03-24T16:53:43Z</time>
      </trkpt>
      <trkpt lat="43.442453" lon="1.867135">
        <ele>294.9</ele>
        <time>2014-03-24T16:53:50Z</time>
      </trkpt>
      <trkpt lat="43.442513" lon="1.867030">
        <ele>294.4</ele>
        <time>2014-03-24T16:53:57Z</time>
      </trkpt>
      <trkpt lat="43.442569" lon="1.866929">
        <ele>294.4</ele>
        <time>2014-03-24T16:54:03Z</time>
      </trkpt>
      <trkpt lat="43.442642" lon="1.866826">
        <ele>294.2</ele>
        <time>2014-03-24T16:54:09Z</time>
      </trkpt>
      <trkpt lat="43.442708" lon="1.866735">
        <ele>294.0</ele>
        <time>2014-03-24T16:54:15Z</time>
      </trkpt>
      <trkpt lat="43.442776" lon="1.866633">
        <ele>293.7</ele>
        <time>2014-03-24T16:54:21Z</time>
      </trkpt>
      <trkpt lat="43.442822" lon="1.866529">
        <ele>293.4</ele>
        <time>2014-03-24T16:54:27Z</time>
      </trkpt>
      <trkpt lat="43.442886" lon="1.866439">
        <ele>292.8</ele>
        <time>2014-03-24T16:54:33Z</time>
      </trkpt>
      <trkpt lat="43.442954" lon="1.866347">
        <ele>292.2</ele>
        <time>2014-03-24T16:54:39Z</time>
      </trkpt>
      <trkpt lat="43.443023" lon="1.866268">
        <ele>291.7</ele>
        <time>2014-03-24T16:54:45Z</time>
      </trkpt>
      <trkpt lat="43.443098" lon="1.866181">
        <ele>291.3</ele>
        <time>2014-03-24T16:54:51Z</time>
      </trkpt>
      <trkpt lat="43.443181" lon="1.866094">
        <ele>290.9</ele>
        <time>2014-03-24T16:54:57Z</time>
      </trkpt>
      <trkpt lat="43.443251" lon="1.866000">
        <ele>290.4</ele>
        <time>2014-03-24T16:55:03Z</time>
      </trkpt>
      <trkpt lat="43.443322" lon="1.865912">
        <ele>290.1</ele>
        <time>2014-03-24T16:55:09Z</time>
      </trkpt>
      <trkpt lat="43.443392" lon="1.865824">
        <ele>289.9</ele>
        <time>2014-03-24T16:55:15Z</time>
      </trkpt>
      <trkpt lat="43.443461" lon="1.865735">
        <ele>289.6</ele>
        <time>2014-03-24T16:55:21Z</time>
      </trkpt>
      <trkpt lat="43.443530" lon="1.865648">
        <ele>289.2</ele>
        <time>2014-03-24T16:55:27Z</time>
      </trkpt>
      <trkpt lat="43.443603" lon="1.865551">
        <ele>288.8</ele>
        <time>2014-03-24T16:55:34Z</time>
      </trkpt>
      <trkpt lat="43.443673" lon="1.865464">
        <ele>288.1</ele>
        <time>2014-03-24T16:55:41Z</time>
      </trkpt>
      <trkpt lat="43.443747" lon="1.865381">
        <ele>287.5</ele>
        <time>2014-03-24T16:55:48Z</time>
      </trkpt>
      <trkpt lat="43.443821" lon="1.865294">
        <ele>286.6</ele>
        <time>2014-03-24T16:55:56Z</time>
      </trkpt>
      <trkpt lat="43.443901" lon="1.865202">
        <ele>286.2</ele>
        <time>2014-03-24T16:56:15Z</time>
      </trkpt>
      <trkpt lat="43.443974" lon="1.865104">
        <ele>285.9</ele>
        <time>2014-03-24T16:56:23Z</time>
      </trkpt>
      <trkpt lat="43.444046" lon="1.865014">
        <ele>285.8</ele>
        <time>2014-03-24T16:56:30Z</time>
      </trkpt>
      <trkpt lat="43.444119" lon="1.864917">
        <ele>286.0</ele>
        <time>2014-03-24T16:56:37Z</time>
      </trkpt>
      <trkpt lat="43.444190" lon="1.864814">
        <ele>286.2</ele>
        <time>2014-03-24T16:56:44Z</time>
      </trkpt>
      <trkpt lat="43.444260" lon="1.864712">
        <ele>286.3</ele>
        <time>2014-03-24T16:56:51Z</time>
      </trkpt>
      <trkpt lat="43.444344" lon="1.864612">
        <ele>286.2</ele>
        <time>2014-03-24T16:56:58Z</time>
      </trkpt>
      <trkpt lat="43.444426" lon="1.864508">
        <ele>286.2</ele>
        <time>2014-03-24T16:57:06Z</time>
      </trkpt>
      <trkpt lat="43.444498" lon="1.864419">
        <ele>286.2</ele>
        <time>2014-03-24T16:57:13Z</time>
      </trkpt>
      <trkpt lat="43.444572" lon="1.864337">
        <ele>285.9</ele>
        <time>2014-03-24T16:57:20Z</time>
      </trkpt>
      <trkpt lat="43.444640" lon="1.864244">
        <ele>285.6</ele>
        <time>2014-03-24T16:57:27Z</time>
      </trkpt>
      <trkpt lat="43.444728" lon="1.864170">
        <ele>285.5</ele>
        <time>2014-03-24T16:57:34Z</time>
      </trkpt>
      <trkpt lat="43.444790" lon="1.864071">
        <ele>285.3</ele>
        <time>2014-03-24T16:57:41Z</time>
      </trkpt>
      <trkpt lat="43.444860" lon="1.863975">
        <ele>285.5</ele>
        <time>2014-03-24T16:57:48Z</time>
      </trkpt>
      <trkpt lat="43.444926" lon="1.863877">
        <ele>285.4</ele>
        <time>2014-03-24T16:57:55Z</time>
      </trkpt>
      <trkpt lat="43.444985" lon="1.863797">
        <ele>285.3</ele>
        <time>2014-03-24T16:58:02Z</time>
      </trkpt>
      <trkpt lat="43.445055" lon="1.863708">
        <ele>285.2</ele>
        <time>2014-03-24T16:58:09Z</time>
      </trkpt>
      <trkpt lat="43.445129" lon="1.863614">
        <ele>284.9</ele>
        <time>2014-03-24T16:58:16Z</time>
      </trkpt>
      <trkpt lat="43.445210" lon="1.863530">
        <ele>284.9</ele>
        <time>2014-03-24T16:58:23Z</time>
      </trkpt>
      <trkpt lat="43.445306" lon="1.863442">
        <ele>284.7</ele>
        <time>2014-03-24T16:58:30Z</time>
      </trkpt>
      <trkpt lat="43.445371" lon="1.863351">
        <ele>284.6</ele>
        <time>2014-03-24T16:58:37Z</time>
      </trkpt>
      <trkpt lat="43.445448" lon="1.863248">
        <ele>284.7</ele>
        <time>2014-03-24T16:58:44Z</time>
      </trkpt>
      <trkpt lat="43.445496" lon="1.863163">
        <ele>284.6</ele>
        <time>2014-03-24T16:58:50Z</time>
      </trkpt>
      <trkpt lat="43.445569" lon="1.863091">
        <ele>284.5</ele>
        <time>2014-03-24T16:58:55Z</time>
      </trkpt>
      <trkpt lat="43.445636" lon="1.863045">
        <ele>284.5</ele>
        <time>2014-03-24T16:59:00Z</time>
      </trkpt>
      <trkpt lat="43.445699" lon="1.862958">
        <ele>284.4</ele>
        <time>2014-03-24T16:59:07Z</time>
      </trkpt>
      <trkpt lat="43.445748" lon="1.862878">
        <ele>284.7</ele>
        <time>2014-03-24T16:59:44Z</time>
      </trkpt>
      <trkpt lat="43.445813" lon="1.862785">
        <ele>284.6</ele>
        <time>2014-03-24T16:59:52Z</time>
      </trkpt>
      <trkpt lat="43.445892" lon="1.862695">
        <ele>284.5</ele>
        <time>2014-03-24T17:00:26Z</time>
      </trkpt>
      <trkpt lat="43.445959" lon="1.862612">
        <ele>284.4</ele>
        <time>2014-03-24T17:00:34Z</time>
      </trkpt>
      <trkpt lat="43.446039" lon="1.862523">
        <ele>284.1</ele>
        <time>2014-03-24T17:00:41Z</time>
      </trkpt>
      <trkpt lat="43.446106" lon="1.862441">
        <ele>284.1</ele>
        <time>2014-03-24T17:00:50Z</time>
      </trkpt>
      <trkpt lat="43.446177" lon="1.862354">
        <ele>283.8</ele>
        <time>2014-03-24T17:00:57Z</time>
      </trkpt>
      <trkpt lat="43.446247" lon="1.862266">
        <ele>283.6</ele>
        <time>2014-03-24T17:01:03Z</time>
      </trkpt>
      <trkpt lat="43.446324" lon="1.862167">
        <ele>283.9</ele>
        <time>2014-03-24T17:01:10Z</time>
      </trkpt>
      <trkpt lat="43.446393" lon="1.862071">
        <ele>284.5</ele>
        <time>2014-03-24T17:01:21Z</time>
      </trkpt>
      <trkpt lat="43.446459" lon="1.861984">
        <ele>284.3</ele>
        <time>2014-03-24T17:01:27Z</time>
      </trkpt>
      <trkpt lat="43.446536" lon="1.861887">
        <ele>284.1</ele>
        <time>2014-03-24T17:01:34Z</time>
      </trkpt>
      <trkpt lat="43.446612" lon="1.861790">
        <ele>284.3</ele>
        <time>2014-03-24T17:01:41Z</time>
      </trkpt>
      <trkpt lat="43.446679" lon="1.861705">
        <ele>284.6</ele>
        <time>2014-03-24T17:01:47Z</time>
      </trkpt>
      <trkpt lat="43.446746" lon="1.861612">
        <ele>284.8</ele>
        <time>2014-03-24T17:01:53Z</time>
      </trkpt>
      <trkpt lat="43.446810" lon="1.861532">
        <ele>285.1</ele>
        <time>2014-03-24T17:01:59Z</time>
      </trkpt>
      <trkpt lat="43.446889" lon="1.861453">
        <ele>285.6</ele>
        <time>2014-03-24T17:02:06Z</time>
      </trkpt>
      <trkpt lat="43.446965" lon="1.861355">
        <ele>285.9</ele>
        <time>2014-03-24T17:02:13Z</time>
      </trkpt>
      <trkpt lat="43.447033" lon="1.861268">
        <ele>286.1</ele>
        <time>2014-03-24T17:02:19Z</time>
      </trkpt>
      <trkpt lat="43.447098" lon="1.861180">
        <ele>286.5</ele>
        <time>2014-03-24T17:02:25Z</time>
      </trkpt>
      <trkpt lat="43.447164" lon="1.861097">
        <ele>286.9</ele>
        <time>2014-03-24T17:02:31Z</time>
      </trkpt>
      <trkpt lat="43.447241" lon="1.861006">
        <ele>287.1</ele>
        <time>2014-03-24T17:02:38Z</time>
      </trkpt>
      <trkpt lat="43.447292" lon="1.860895">
        <ele>287.6</ele>
        <time>2014-03-24T17:02:45Z</time>
        <name>Fin sentier des Fourches</name>
      </trkpt>
      <trkpt lat="43.447242" lon="1.860791">
        <ele>288.0</ele>
        <time>2014-03-24T17:02:51Z</time>
      </trkpt>
      <trkpt lat="43.447198" lon="1.860679">
        <ele>288.1</ele>
        <time>2014-03-24T17:02:58Z</time>
      </trkpt>
      <trkpt lat="43.447150" lon="1.860566">
        <ele>288.1</ele>
        <time>2014-03-24T17:03:05Z</time>
      </trkpt>
      <trkpt lat="43.447106" lon="1.860458">
        <ele>288.4</ele>
        <time>2014-03-24T17:03:11Z</time>
      </trkpt>
      <trkpt lat="43.447053" lon="1.860343">
        <ele>288.1</ele>
        <time>2014-03-24T17:03:18Z</time>
      </trkpt>
      <trkpt lat="43.446994" lon="1.860235">
        <ele>287.7</ele>
        <time>2014-03-24T17:03:25Z</time>
      </trkpt>
      <trkpt lat="43.446944" lon="1.860130">
        <ele>287.4</ele>
        <time>2014-03-24T17:03:31Z</time>
      </trkpt>
      <trkpt lat="43.446893" lon="1.860025">
        <ele>286.8</ele>
        <time>2014-03-24T17:03:37Z</time>
      </trkpt>
      <trkpt lat="43.446840" lon="1.859913">
        <ele>286.1</ele>
        <time>2014-03-24T17:03:44Z</time>
      </trkpt>
      <trkpt lat="43.446785" lon="1.859796">
        <ele>285.5</ele>
        <time>2014-03-24T17:03:50Z</time>
      </trkpt>
      <trkpt lat="43.446716" lon="1.859714">
        <ele>284.8</ele>
        <time>2014-03-24T17:04:00Z</time>
      </trkpt>
      <trkpt lat="43.446629" lon="1.859560">
        <ele>283.9</ele>
        <time>2014-03-24T17:04:07Z</time>
      </trkpt>
      <trkpt lat="43.446565" lon="1.859466">
        <ele>282.8</ele>
        <time>2014-03-24T17:04:13Z</time>
      </trkpt>
      <trkpt lat="43.446463" lon="1.859386">
        <ele>280.5</ele>
        <time>2014-03-24T17:04:25Z</time>
      </trkpt>
      <trkpt lat="43.446400" lon="1.859217">
        <ele>304.4</ele>
        <time>2014-03-24T17:04:34Z</time>
      </trkpt>
      <trkpt lat="43.446304" lon="1.859007">
        <ele>280.3</ele>
        <time>2014-03-24T17:07:04Z</time>
      </trkpt>
      <trkpt lat="43.446240" lon="1.858922">
        <ele>281.0</ele>
        <time>2014-03-24T17:07:12Z</time>
      </trkpt>
      <trkpt lat="43.446180" lon="1.858818">
        <ele>281.0</ele>
        <time>2014-03-24T17:07:20Z</time>
      </trkpt>
      <trkpt lat="43.446125" lon="1.858705">
        <ele>280.7</ele>
        <time>2014-03-24T17:07:27Z</time>
      </trkpt>
      <trkpt lat="43.446060" lon="1.858614">
        <ele>280.4</ele>
        <time>2014-03-24T17:07:35Z</time>
      </trkpt>
      <trkpt lat="43.445982" lon="1.858518">
        <ele>280.3</ele>
        <time>2014-03-24T17:07:44Z</time>
      </trkpt>
      <trkpt lat="43.445922" lon="1.858401">
        <ele>280.3</ele>
        <time>2014-03-24T17:07:51Z</time>
      </trkpt>
      <trkpt lat="43.445870" lon="1.858273">
        <ele>280.0</ele>
        <time>2014-03-24T17:07:59Z</time>
      </trkpt>
      <trkpt lat="43.445844" lon="1.858128">
        <ele>279.9</ele>
        <time>2014-03-24T17:08:07Z</time>
      </trkpt>
      <trkpt lat="43.445842" lon="1.857976">
        <ele>280.1</ele>
        <time>2014-03-24T17:08:15Z</time>
      </trkpt>
      <trkpt lat="43.445819" lon="1.857852">
        <ele>299.8</ele>
        <time>2014-03-24T17:08:23Z</time>
      </trkpt>
      <trkpt lat="43.445723" lon="1.857821">
        <ele>299.0</ele>
        <time>2014-03-24T17:08:31Z</time>
      </trkpt>
      <trkpt lat="43.445610" lon="1.857851">
        <ele>298.4</ele>
        <time>2014-03-24T17:08:38Z</time>
      </trkpt>
      <trkpt lat="43.445528" lon="1.857797">
        <ele>297.7</ele>
        <time>2014-03-24T17:08:55Z</time>
      </trkpt>
      <trkpt lat="43.445441" lon="1.857797">
        <ele>297.2</ele>
        <time>2014-03-24T17:09:02Z</time>
      </trkpt>
      <trkpt lat="43.445288" lon="1.857695">
        <ele>296.1</ele>
        <time>2014-03-24T17:09:10Z</time>
      </trkpt>
      <trkpt lat="43.445302" lon="1.857492">
        <ele>295.7</ele>
        <time>2014-03-24T17:09:19Z</time>
      </trkpt>
      <trkpt lat="43.445354" lon="1.857289">
        <ele>294.8</ele>
        <time>2014-03-24T17:09:28Z</time>
      </trkpt>
      <trkpt lat="43.445393" lon="1.857152">
        <ele>294.3</ele>
        <time>2014-03-24T17:09:36Z</time>
      </trkpt>
      <trkpt lat="43.445421" lon="1.856981">
        <ele>268.1</ele>
        <time>2014-03-24T17:09:44Z</time>
      </trkpt>
      <trkpt lat="43.445458" lon="1.856854">
        <ele>267.2</ele>
        <time>2014-03-24T17:09:54Z</time>
      </trkpt>
      <trkpt lat="43.445493" lon="1.856722">
        <ele>267.6</ele>
        <time>2014-03-24T17:10:02Z</time>
      </trkpt>
      <trkpt lat="43.445526" lon="1.856574">
        <ele>267.9</ele>
        <time>2014-03-24T17:10:10Z</time>
      </trkpt>
      <trkpt lat="43.445571" lon="1.856454">
        <ele>268.0</ele>
        <time>2014-03-24T17:10:18Z</time>
      </trkpt>
      <trkpt lat="43.445614" lon="1.856321">
        <ele>268.0</ele>
        <time>2014-03-24T17:10:26Z</time>
      </trkpt>
      <trkpt lat="43.445655" lon="1.856196">
        <ele>267.6</ele>
        <time>2014-03-24T17:10:48Z</time>
      </trkpt>
      <trkpt lat="43.445721" lon="1.856142">
        <ele>267.6</ele>
        <time>2014-03-24T17:11:20Z</time>
      </trkpt>
      <trkpt lat="43.445775" lon="1.856029">
        <ele>268.1</ele>
        <time>2014-03-24T17:11:28Z</time>
      </trkpt>
      <trkpt lat="43.445840" lon="1.855923">
        <ele>268.2</ele>
        <time>2014-03-24T17:11:36Z</time>
      </trkpt>
      <trkpt lat="43.445903" lon="1.855826">
        <ele>268.5</ele>
        <time>2014-03-24T17:11:44Z</time>
      </trkpt>
      <trkpt lat="43.445968" lon="1.855722">
        <ele>269.0</ele>
        <time>2014-03-24T17:11:52Z</time>
      </trkpt>
      <trkpt lat="43.446032" lon="1.855622">
        <ele>269.3</ele>
        <time>2014-03-24T17:12:00Z</time>
      </trkpt>
      <trkpt lat="43.446083" lon="1.855512">
        <ele>269.7</ele>
        <time>2014-03-24T17:12:08Z</time>
      </trkpt>
      <trkpt lat="43.446133" lon="1.855396">
        <ele>270.0</ele>
        <time>2014-03-24T17:12:16Z</time>
      </trkpt>
      <trkpt lat="43.446188" lon="1.855272">
        <ele>270.4</ele>
        <time>2014-03-24T17:12:24Z</time>
      </trkpt>
      <trkpt lat="43.446235" lon="1.855160">
        <ele>270.6</ele>
        <time>2014-03-24T17:12:31Z</time>
      </trkpt>
      <trkpt lat="43.446289" lon="1.855054">
        <ele>271.1</ele>
        <time>2014-03-24T17:12:39Z</time>
      </trkpt>
      <trkpt lat="43.446353" lon="1.854951">
        <ele>271.9</ele>
        <time>2014-03-24T17:12:59Z</time>
      </trkpt>
      <trkpt lat="43.446411" lon="1.854839">
        <ele>271.9</ele>
        <time>2014-03-24T17:13:07Z</time>
      </trkpt>
      <trkpt lat="43.446451" lon="1.854695">
        <ele>272.1</ele>
        <time>2014-03-24T17:13:16Z</time>
      </trkpt>
      <trkpt lat="43.446475" lon="1.854545">
        <ele>272.1</ele>
        <time>2014-03-24T17:13:24Z</time>
      </trkpt>
      <trkpt lat="43.446503" lon="1.854393">
        <ele>271.9</ele>
        <time>2014-03-24T17:13:32Z</time>
      </trkpt>
      <trkpt lat="43.446525" lon="1.854256">
        <ele>271.6</ele>
        <time>2014-03-24T17:13:40Z</time>
      </trkpt>
      <trkpt lat="43.446541" lon="1.854120">
        <ele>271.5</ele>
        <time>2014-03-24T17:13:48Z</time>
      </trkpt>
      <trkpt lat="43.446558" lon="1.853975">
        <ele>271.3</ele>
        <time>2014-03-24T17:13:56Z</time>
      </trkpt>
      <trkpt lat="43.446573" lon="1.853838">
        <ele>270.9</ele>
        <time>2014-03-24T17:14:03Z</time>
      </trkpt>
      <trkpt lat="43.446592" lon="1.853690">
        <ele>270.1</ele>
        <time>2014-03-24T17:14:12Z</time>
      </trkpt>
      <trkpt lat="43.446598" lon="1.853531">
        <ele>269.9</ele>
        <time>2014-03-24T17:14:21Z</time>
      </trkpt>
      <trkpt lat="43.446615" lon="1.853382">
        <ele>270.0</ele>
        <time>2014-03-24T17:14:30Z</time>
      </trkpt>
      <trkpt lat="43.446641" lon="1.853250">
        <ele>270.8</ele>
        <time>2014-03-24T17:14:59Z</time>
      </trkpt>
      <trkpt lat="43.446659" lon="1.853111">
        <ele>271.1</ele>
        <time>2014-03-24T17:15:09Z</time>
      </trkpt>
      <trkpt lat="43.446670" lon="1.852953">
        <ele>271.5</ele>
        <time>2014-03-24T17:15:19Z</time>
      </trkpt>
      <trkpt lat="43.446682" lon="1.852819">
        <ele>271.8</ele>
        <time>2014-03-24T17:15:29Z</time>
      </trkpt>
      <trkpt lat="43.446700" lon="1.852678">
        <ele>272.2</ele>
        <time>2014-03-24T17:15:38Z</time>
      </trkpt>
      <trkpt lat="43.446714" lon="1.852533">
        <ele>272.6</ele>
        <time>2014-03-24T17:15:48Z</time>
      </trkpt>
      <trkpt lat="43.446714" lon="1.852404">
        <ele>272.9</ele>
        <time>2014-03-24T17:15:56Z</time>
      </trkpt>
      <trkpt lat="43.446726" lon="1.852267">
        <ele>273.3</ele>
        <time>2014-03-24T17:16:05Z</time>
      </trkpt>
      <trkpt lat="43.446755" lon="1.852121">
        <ele>273.8</ele>
        <time>2014-03-24T17:16:15Z</time>
      </trkpt>
      <trkpt lat="43.446781" lon="1.851991">
        <ele>274.6</ele>
        <time>2014-03-24T17:16:26Z</time>
      </trkpt>
      <trkpt lat="43.446791" lon="1.851846">
        <ele>272.7</ele>
        <time>2014-03-24T17:17:33Z</time>
      </trkpt>
      <trkpt lat="43.446865" lon="1.851736">
        <ele>274.6</ele>
        <time>2014-03-24T17:17:43Z</time>
      </trkpt>
      <trkpt lat="43.446923" lon="1.851619">
        <ele>275.2</ele>
        <time>2014-03-24T17:17:51Z</time>
      </trkpt>
      <trkpt lat="43.446978" lon="1.851524">
        <ele>275.2</ele>
        <time>2014-03-24T17:17:59Z</time>
      </trkpt>
      <trkpt lat="43.447040" lon="1.851427">
        <ele>275.5</ele>
        <time>2014-03-24T17:18:06Z</time>
      </trkpt>
      <trkpt lat="43.447089" lon="1.851343">
        <ele>275.3</ele>
        <time>2014-03-24T17:18:14Z</time>
      </trkpt>
      <trkpt lat="43.447129" lon="1.851233">
        <ele>274.9</ele>
        <time>2014-03-24T17:18:23Z</time>
      </trkpt>
      <trkpt lat="43.447165" lon="1.851100">
        <ele>274.5</ele>
        <time>2014-03-24T17:18:33Z</time>
      </trkpt>
      <trkpt lat="43.447200" lon="1.850945">
        <ele>274.1</ele>
        <time>2014-03-24T17:18:43Z</time>
      </trkpt>
      <trkpt lat="43.447216" lon="1.850793">
        <ele>274.0</ele>
        <time>2014-03-24T17:18:53Z</time>
      </trkpt>
      <trkpt lat="43.447244" lon="1.850650">
        <ele>274.0</ele>
        <time>2014-03-24T17:19:04Z</time>
      </trkpt>
      <trkpt lat="43.447273" lon="1.850513">
        <ele>273.7</ele>
        <time>2014-03-24T17:19:14Z</time>
      </trkpt>
      <trkpt lat="43.447318" lon="1.850368">
        <ele>273.5</ele>
        <time>2014-03-24T17:19:23Z</time>
      </trkpt>
      <trkpt lat="43.447363" lon="1.850216">
        <ele>273.2</ele>
        <time>2014-03-24T17:19:47Z</time>
      </trkpt>
      <trkpt lat="43.447376" lon="1.850077">
        <ele>272.8</ele>
        <time>2014-03-24T17:19:55Z</time>
      </trkpt>
      <trkpt lat="43.447400" lon="1.849956">
        <ele>272.6</ele>
        <time>2014-03-24T17:20:00Z</time>
      </trkpt>
      <trkpt lat="43.447414" lon="1.849830">
        <ele>272.4</ele>
        <time>2014-03-24T17:20:06Z</time>
      </trkpt>
      <trkpt lat="43.447463" lon="1.849699">
        <ele>272.0</ele>
        <time>2014-03-24T17:20:18Z</time>
      </trkpt>
      <trkpt lat="43.447488" lon="1.849521">
        <ele>271.7</ele>
        <time>2014-03-24T17:20:23Z</time>
      </trkpt>
      <trkpt lat="43.447511" lon="1.849426">
        <ele>271.1</ele>
        <time>2014-03-24T17:20:30Z</time>
      </trkpt>
      <trkpt lat="43.447556" lon="1.849282">
        <ele>269.6</ele>
        <time>2014-03-24T17:20:40Z</time>
      </trkpt>
      <trkpt lat="43.447594" lon="1.849163">
        <ele>268.0</ele>
        <time>2014-03-24T17:20:46Z</time>
      </trkpt>
      <trkpt lat="43.447630" lon="1.849055">
        <ele>267.1</ele>
        <time>2014-03-24T17:20:53Z</time>
      </trkpt>
      <trkpt lat="43.447661" lon="1.848917">
        <ele>266.4</ele>
        <time>2014-03-24T17:21:01Z</time>
      </trkpt>
      <trkpt lat="43.447711" lon="1.848781">
        <ele>265.6</ele>
        <time>2014-03-24T17:21:09Z</time>
      </trkpt>
      <trkpt lat="43.447755" lon="1.848666">
        <ele>265.2</ele>
        <time>2014-03-24T17:21:15Z</time>
      </trkpt>
      <trkpt lat="43.447787" lon="1.848530">
        <ele>264.6</ele>
        <time>2014-03-24T17:21:22Z</time>
      </trkpt>
      <trkpt lat="43.447823" lon="1.848407">
        <ele>264.2</ele>
        <time>2014-03-24T17:21:29Z</time>
      </trkpt>
      <trkpt lat="43.447858" lon="1.848279">
        <ele>263.9</ele>
        <time>2014-03-24T17:21:36Z</time>
      </trkpt>
      <trkpt lat="43.447892" lon="1.848157">
        <ele>263.6</ele>
        <time>2014-03-24T17:21:43Z</time>
      </trkpt>
      <trkpt lat="43.447927" lon="1.848032">
        <ele>263.3</ele>
        <time>2014-03-24T17:21:50Z</time>
      </trkpt>
      <trkpt lat="43.447967" lon="1.847906">
        <ele>262.9</ele>
        <time>2014-03-24T17:21:57Z</time>
      </trkpt>
      <trkpt lat="43.447970" lon="1.847773">
        <ele>261.9</ele>
        <time>2014-03-24T17:22:04Z</time>
      </trkpt>
      <trkpt lat="43.447969" lon="1.847644">
        <ele>260.5</ele>
        <time>2014-03-24T17:22:11Z</time>
      </trkpt>
      <trkpt lat="43.447969" lon="1.847515">
        <ele>258.9</ele>
        <time>2014-03-24T17:22:18Z</time>
      </trkpt>
      <trkpt lat="43.447950" lon="1.847390">
        <ele>257.3</ele>
        <time>2014-03-24T17:22:24Z</time>
      </trkpt>
      <trkpt lat="43.447938" lon="1.847270">
        <ele>256.2</ele>
        <time>2014-03-24T17:22:31Z</time>
      </trkpt>
      <trkpt lat="43.447927" lon="1.847151">
        <ele>255.3</ele>
        <time>2014-03-24T17:22:38Z</time>
      </trkpt>
      <trkpt lat="43.447933" lon="1.847001">
        <ele>254.2</ele>
        <time>2014-03-24T17:22:45Z</time>
      </trkpt>
      <trkpt lat="43.447943" lon="1.846859">
        <ele>252.8</ele>
        <time>2014-03-24T17:22:52Z</time>
      </trkpt>
      <trkpt lat="43.447946" lon="1.846706">
        <ele>251.8</ele>
        <time>2014-03-24T17:22:59Z</time>
      </trkpt>
      <trkpt lat="43.447962" lon="1.846566">
        <ele>250.7</ele>
        <time>2014-03-24T17:23:06Z</time>
      </trkpt>
      <trkpt lat="43.447970" lon="1.846439">
        <ele>249.2</ele>
        <time>2014-03-24T17:23:13Z</time>
      </trkpt>
      <trkpt lat="43.447998" lon="1.846317">
        <ele>247.5</ele>
        <time>2014-03-24T17:23:20Z</time>
      </trkpt>
      <trkpt lat="43.448035" lon="1.846187">
        <ele>245.7</ele>
        <time>2014-03-24T17:23:29Z</time>
      </trkpt>
      <trkpt lat="43.448069" lon="1.846062">
        <ele>244.3</ele>
        <time>2014-03-24T17:23:37Z</time>
      </trkpt>
      <trkpt lat="43.448103" lon="1.845930">
        <ele>242.8</ele>
        <time>2014-03-24T17:23:45Z</time>
      </trkpt>
      <trkpt lat="43.448119" lon="1.845778">
        <ele>241.8</ele>
        <time>2014-03-24T17:23:53Z</time>
      </trkpt>
      <trkpt lat="43.448149" lon="1.845623">
        <ele>241.0</ele>
        <time>2014-03-24T17:24:00Z</time>
      </trkpt>
      <trkpt lat="43.448166" lon="1.845492">
        <ele>240.0</ele>
        <time>2014-03-24T17:24:07Z</time>
      </trkpt>
      <trkpt lat="43.448188" lon="1.845355">
        <ele>238.8</ele>
        <time>2014-03-24T17:24:16Z</time>
      </trkpt>
      <trkpt lat="43.448201" lon="1.845220">
        <ele>237.3</ele>
        <time>2014-03-24T17:24:25Z</time>
      </trkpt>
      <trkpt lat="43.448219" lon="1.845094">
        <ele>236.1</ele>
        <time>2014-03-24T17:24:33Z</time>
      </trkpt>
      <trkpt lat="43.448233" lon="1.844960">
        <ele>235.2</ele>
        <time>2014-03-24T17:24:42Z</time>
      </trkpt>
      <trkpt lat="43.448244" lon="1.844830">
        <ele>234.2</ele>
        <time>2014-03-24T17:24:50Z</time>
      </trkpt>
      <trkpt lat="43.448252" lon="1.844693">
        <ele>233.1</ele>
        <time>2014-03-24T17:24:58Z</time>
      </trkpt>
      <trkpt lat="43.448267" lon="1.844535">
        <ele>232.2</ele>
        <time>2014-03-24T17:25:06Z</time>
      </trkpt>
      <trkpt lat="43.448287" lon="1.844407">
        <ele>231.4</ele>
        <time>2014-03-24T17:25:14Z</time>
      </trkpt>
      <trkpt lat="43.448306" lon="1.844277">
        <ele>230.1</ele>
        <time>2014-03-24T17:25:22Z</time>
      </trkpt>
      <trkpt lat="43.448324" lon="1.844134">
        <ele>228.9</ele>
        <time>2014-03-24T17:25:30Z</time>
      </trkpt>
      <trkpt lat="43.448341" lon="1.843996">
        <ele>227.9</ele>
        <time>2014-03-24T17:25:38Z</time>
      </trkpt>
      <trkpt lat="43.448359" lon="1.843859">
        <ele>226.9</ele>
        <time>2014-03-24T17:25:46Z</time>
      </trkpt>
      <trkpt lat="43.448374" lon="1.843727">
        <ele>225.8</ele>
        <time>2014-03-24T17:25:53Z</time>
      </trkpt>
      <trkpt lat="43.448387" lon="1.843598">
        <ele>224.9</ele>
        <time>2014-03-24T17:26:00Z</time>
      </trkpt>
      <trkpt lat="43.448402" lon="1.843471">
        <ele>224.0</ele>
        <time>2014-03-24T17:26:07Z</time>
      </trkpt>
      <trkpt lat="43.448414" lon="1.843338">
        <ele>222.9</ele>
        <time>2014-03-24T17:26:14Z</time>
      </trkpt>
      <trkpt lat="43.448436" lon="1.843206">
        <ele>221.8</ele>
        <time>2014-03-24T17:26:21Z</time>
      </trkpt>
      <trkpt lat="43.448450" lon="1.843072">
        <ele>220.8</ele>
        <time>2014-03-24T17:26:28Z</time>
      </trkpt>
      <trkpt lat="43.448471" lon="1.842937">
        <ele>219.8</ele>
        <time>2014-03-24T17:26:35Z</time>
      </trkpt>
      <trkpt lat="43.448488" lon="1.842796">
        <ele>218.9</ele>
        <time>2014-03-24T17:26:42Z</time>
      </trkpt>
      <trkpt lat="43.448498" lon="1.842663">
        <ele>218.2</ele>
        <time>2014-03-24T17:26:49Z</time>
      </trkpt>
      <trkpt lat="43.448501" lon="1.842528">
        <ele>217.4</ele>
        <time>2014-03-24T17:26:56Z</time>
      </trkpt>
      <trkpt lat="43.448477" lon="1.842379">
        <ele>216.6</ele>
        <time>2014-03-24T17:27:04Z</time>
      </trkpt>
      <trkpt lat="43.448458" lon="1.842240">
        <ele>215.9</ele>
        <time>2014-03-24T17:27:11Z</time>
      </trkpt>
      <trkpt lat="43.448427" lon="1.842089">
        <ele>215.1</ele>
        <time>2014-03-24T17:27:18Z</time>
      </trkpt>
      <trkpt lat="43.448405" lon="1.841946">
        <ele>214.4</ele>
        <time>2014-03-24T17:27:25Z</time>
      </trkpt>
      <trkpt lat="43.448378" lon="1.841812">
        <ele>213.3</ele>
        <time>2014-03-24T17:27:32Z</time>
      </trkpt>
      <trkpt lat="43.448382" lon="1.841679">
        <ele>212.7</ele>
        <time>2014-03-24T17:27:38Z</time>
        <name>Route D18</name>
      </trkpt>
      <trkpt lat="43.448405" lon="1.841538">
        <ele>212.4</ele>
        <time>2014-03-24T17:27:46Z</time>
      </trkpt>
      <trkpt lat="43.448461" lon="1.841403">
        <ele>212.1</ele>
        <time>2014-03-24T17:27:54Z</time>
      </trkpt>
      <trkpt lat="43.448516" lon="1.841267">
        <ele>212.1</ele>
        <time>2014-03-24T17:28:01Z</time>
      </trkpt>
      <trkpt lat="43.448547" lon="1.841119">
        <ele>211.9</ele>
        <time>2014-03-24T17:28:08Z</time>
      </trkpt>
      <trkpt lat="43.448587" lon="1.840975">
        <ele>211.8</ele>
        <time>2014-03-24T17:28:15Z</time>
      </trkpt>
      <trkpt lat="43.448631" lon="1.840838">
        <ele>211.8</ele>
        <time>2014-03-24T17:28:22Z</time>
      </trkpt>
      <trkpt lat="43.448669" lon="1.840707">
        <ele>211.7</ele>
        <time>2014-03-24T17:28:29Z</time>
      </trkpt>
      <trkpt lat="43.448712" lon="1.840582">
        <ele>211.6</ele>
        <time>2014-03-24T17:28:36Z</time>
      </trkpt>
      <trkpt lat="43.448749" lon="1.840450">
        <ele>211.4</ele>
        <time>2014-03-24T17:28:43Z</time>
      </trkpt>
      <trkpt lat="43.448785" lon="1.840313">
        <ele>211.6</ele>
        <time>2014-03-24T17:28:50Z</time>
      </trkpt>
      <trkpt lat="43.448815" lon="1.840186">
        <ele>211.6</ele>
        <time>2014-03-24T17:28:57Z</time>
      </trkpt>
      <trkpt lat="43.448850" lon="1.840077">
        <ele>211.6</ele>
        <time>2014-03-24T17:29:05Z</time>
      </trkpt>
      <trkpt lat="43.448883" lon="1.839962">
        <ele>211.3</ele>
        <time>2014-03-24T17:29:14Z</time>
      </trkpt>
      <trkpt lat="43.448920" lon="1.839818">
        <ele>211.3</ele>
        <time>2014-03-24T17:29:21Z</time>
      </trkpt>
      <trkpt lat="43.448978" lon="1.839673">
        <ele>211.3</ele>
        <time>2014-03-24T17:29:28Z</time>
      </trkpt>
      <trkpt lat="43.449021" lon="1.839550">
        <ele>211.3</ele>
        <time>2014-03-24T17:29:35Z</time>
      </trkpt>
      <trkpt lat="43.449061" lon="1.839438">
        <ele>211.3</ele>
        <time>2014-03-24T17:29:41Z</time>
      </trkpt>
      <trkpt lat="43.449095" lon="1.839316">
        <ele>211.4</ele>
        <time>2014-03-24T17:29:47Z</time>
      </trkpt>
      <trkpt lat="43.449131" lon="1.839217">
        <ele>211.5</ele>
        <time>2014-03-24T17:29:54Z</time>
      </trkpt>
      <trkpt lat="43.449156" lon="1.839078">
        <ele>211.4</ele>
        <time>2014-03-24T17:30:02Z</time>
      </trkpt>
      <trkpt lat="43.449103" lon="1.838958">
        <ele>211.3</ele>
        <time>2014-03-24T17:30:09Z</time>
      </trkpt>
      <trkpt lat="43.449020" lon="1.838862">
        <ele>211.0</ele>
        <time>2014-03-24T17:30:16Z</time>
      </trkpt>
      <trkpt lat="43.448945" lon="1.838764">
        <ele>210.7</ele>
        <time>2014-03-24T17:30:23Z</time>
      </trkpt>
      <trkpt lat="43.448872" lon="1.838653">
        <ele>210.3</ele>
        <time>2014-03-24T17:30:30Z</time>
      </trkpt>
      <trkpt lat="43.448798" lon="1.838560">
        <ele>210.2</ele>
        <time>2014-03-24T17:30:37Z</time>
      </trkpt>
      <trkpt lat="43.448729" lon="1.838468">
        <ele>210.1</ele>
        <time>2014-03-24T17:30:43Z</time>
      </trkpt>
      <trkpt lat="43.448671" lon="1.838379">
        <ele>210.0</ele>
        <time>2014-03-24T17:30:49Z</time>
      </trkpt>
      <trkpt lat="43.448605" lon="1.838266">
        <ele>209.8</ele>
        <time>2014-03-24T17:30:58Z</time>
      </trkpt>
      <trkpt lat="43.448588" lon="1.838135">
        <ele>209.5</ele>
        <time>2014-03-24T17:31:05Z</time>
      </trkpt>
      <trkpt lat="43.448558" lon="1.838015">
        <ele>209.1</ele>
        <time>2014-03-24T17:31:12Z</time>
      </trkpt>
      <trkpt lat="43.448517" lon="1.837889">
        <ele>208.6</ele>
        <time>2014-03-24T17:31:21Z</time>
      </trkpt>
      <trkpt lat="43.448477" lon="1.837737">
        <ele>208.8</ele>
        <time>2014-03-24T17:31:29Z</time>
      </trkpt>
      <trkpt lat="43.448433" lon="1.837594">
        <ele>208.7</ele>
        <time>2014-03-24T17:31:37Z</time>
      </trkpt>
      <trkpt lat="43.448401" lon="1.837457">
        <ele>208.7</ele>
        <time>2014-03-24T17:31:45Z</time>
      </trkpt>
      <trkpt lat="43.448362" lon="1.837282">
        <ele>208.2</ele>
        <time>2014-03-24T17:31:55Z</time>
      </trkpt>
      <trkpt lat="43.448335" lon="1.837133">
        <ele>208.0</ele>
        <time>2014-03-24T17:32:04Z</time>
      </trkpt>
      <trkpt lat="43.448333" lon="1.836948">
        <ele>208.0</ele>
        <time>2014-03-24T17:32:13Z</time>
      </trkpt>
      <trkpt lat="43.448333" lon="1.836767">
        <ele>207.9</ele>
        <time>2014-03-24T17:32:22Z</time>
      </trkpt>
      <trkpt lat="43.448341" lon="1.836599">
        <ele>207.8</ele>
        <time>2014-03-24T17:32:31Z</time>
      </trkpt>
      <trkpt lat="43.448325" lon="1.836434">
        <ele>207.7</ele>
        <time>2014-03-24T17:32:39Z</time>
      </trkpt>
      <trkpt lat="43.448301" lon="1.836244">
        <ele>207.6</ele>
        <time>2014-03-24T17:32:48Z</time>
      </trkpt>
      <trkpt lat="43.448294" lon="1.836088">
        <ele>207.6</ele>
        <time>2014-03-24T17:32:56Z</time>
      </trkpt>
      <trkpt lat="43.448307" lon="1.835929">
        <ele>207.4</ele>
        <time>2014-03-24T17:33:04Z</time>
      </trkpt>
      <trkpt lat="43.448330" lon="1.835739">
        <ele>207.2</ele>
        <time>2014-03-24T17:33:12Z</time>
      </trkpt>
      <trkpt lat="43.448371" lon="1.835603">
        <ele>207.1</ele>
        <time>2014-03-24T17:33:19Z</time>
      </trkpt>
      <trkpt lat="43.448409" lon="1.835471">
        <ele>207.1</ele>
        <time>2014-03-24T17:33:27Z</time>
      </trkpt>
      <trkpt lat="43.448449" lon="1.835317">
        <ele>207.0</ele>
        <time>2014-03-24T17:33:36Z</time>
      </trkpt>
      <trkpt lat="43.448529" lon="1.835182">
        <ele>207.0</ele>
        <time>2014-03-24T17:33:45Z</time>
      </trkpt>
      <trkpt lat="43.448589" lon="1.835060">
        <ele>207.1</ele>
        <time>2014-03-24T17:33:54Z</time>
      </trkpt>
      <trkpt lat="43.448675" lon="1.834910">
        <ele>207.0</ele>
        <time>2014-03-24T17:34:02Z</time>
      </trkpt>
      <trkpt lat="43.448761" lon="1.834795">
        <ele>206.8</ele>
        <time>2014-03-24T17:34:12Z</time>
      </trkpt>
      <trkpt lat="43.448843" lon="1.834655">
        <ele>206.6</ele>
        <time>2014-03-24T17:34:22Z</time>
      </trkpt>
      <trkpt lat="43.448888" lon="1.834492">
        <ele>206.4</ele>
        <time>2014-03-24T17:34:31Z</time>
      </trkpt>
      <trkpt lat="43.448880" lon="1.834322">
        <ele>205.8</ele>
        <time>2014-03-24T17:34:39Z</time>
      </trkpt>
      <trkpt lat="43.448874" lon="1.834161">
        <ele>205.8</ele>
        <time>2014-03-24T17:34:46Z</time>
      </trkpt>
      <trkpt lat="43.448844" lon="1.834016">
        <ele>205.6</ele>
        <time>2014-03-24T17:34:53Z</time>
      </trkpt>
      <trkpt lat="43.448839" lon="1.833880">
        <ele>205.5</ele>
        <time>2014-03-24T17:35:00Z</time>
      </trkpt>
      <trkpt lat="43.448831" lon="1.833730">
        <ele>205.4</ele>
        <time>2014-03-24T17:35:08Z</time>
      </trkpt>
      <trkpt lat="43.448817" lon="1.833593">
        <ele>205.4</ele>
        <time>2014-03-24T17:35:15Z</time>
      </trkpt>
      <trkpt lat="43.448802" lon="1.833450">
        <ele>205.1</ele>
        <time>2014-03-24T17:35:22Z</time>
      </trkpt>
      <trkpt lat="43.448784" lon="1.833294">
        <ele>205.2</ele>
        <time>2014-03-24T17:35:30Z</time>
      </trkpt>
      <trkpt lat="43.448767" lon="1.833160">
        <ele>205.0</ele>
        <time>2014-03-24T17:35:36Z</time>
      </trkpt>
      <trkpt lat="43.448744" lon="1.833018">
        <ele>204.9</ele>
        <time>2014-03-24T17:35:43Z</time>
      </trkpt>
      <trkpt lat="43.448727" lon="1.832885">
        <ele>204.6</ele>
        <time>2014-03-24T17:35:50Z</time>
      </trkpt>
      <trkpt lat="43.448701" lon="1.832749">
        <ele>204.6</ele>
        <time>2014-03-24T17:35:57Z</time>
      </trkpt>
      <trkpt lat="43.448679" lon="1.832600">
        <ele>204.5</ele>
        <time>2014-03-24T17:36:04Z</time>
      </trkpt>
      <trkpt lat="43.448665" lon="1.832462">
        <ele>204.4</ele>
        <time>2014-03-24T17:36:11Z</time>
      </trkpt>
      <trkpt lat="43.448663" lon="1.832319">
        <ele>204.4</ele>
        <time>2014-03-24T17:36:18Z</time>
      </trkpt>
      <trkpt lat="43.448631" lon="1.832181">
        <ele>204.3</ele>
        <time>2014-03-24T17:36:25Z</time>
      </trkpt>
      <trkpt lat="43.448617" lon="1.832049">
        <ele>204.2</ele>
        <time>2014-03-24T17:36:32Z</time>
      </trkpt>
      <trkpt lat="43.448599" lon="1.831926">
        <ele>203.9</ele>
        <time>2014-03-24T17:36:39Z</time>
      </trkpt>
      <trkpt lat="43.448596" lon="1.831776">
        <ele>203.5</ele>
        <time>2014-03-24T17:36:47Z</time>
      </trkpt>
      <trkpt lat="43.448582" lon="1.831649">
        <ele>203.4</ele>
        <time>2014-03-24T17:36:54Z</time>
      </trkpt>
      <trkpt lat="43.448565" lon="1.831513">
        <ele>203.2</ele>
        <time>2014-03-24T17:37:01Z</time>
      </trkpt>
      <trkpt lat="43.448552" lon="1.831357">
        <ele>203.3</ele>
        <time>2014-03-24T17:37:10Z</time>
      </trkpt>
      <trkpt lat="43.448546" lon="1.831196">
        <ele>203.3</ele>
        <time>2014-03-24T17:37:18Z</time>
      </trkpt>
      <trkpt lat="43.448522" lon="1.831035">
        <ele>203.3</ele>
        <time>2014-03-24T17:37:26Z</time>
      </trkpt>
      <trkpt lat="43.448508" lon="1.830855">
        <ele>203.1</ele>
        <time>2014-03-24T17:37:34Z</time>
      </trkpt>
      <trkpt lat="43.448478" lon="1.830713">
        <ele>202.8</ele>
        <time>2014-03-24T17:37:41Z</time>
      </trkpt>
      <trkpt lat="43.448456" lon="1.830568">
        <ele>202.4</ele>
        <time>2014-03-24T17:37:48Z</time>
      </trkpt>
      <trkpt lat="43.448428" lon="1.830417">
        <ele>202.1</ele>
        <time>2014-03-24T17:37:56Z</time>
      </trkpt>
      <trkpt lat="43.448401" lon="1.830263">
        <ele>202.3</ele>
        <time>2014-03-24T17:38:04Z</time>
      </trkpt>
      <trkpt lat="43.448365" lon="1.830131">
        <ele>201.7</ele>
        <time>2014-03-24T17:38:13Z</time>
      </trkpt>
      <trkpt lat="43.448335" lon="1.829994">
        <ele>201.6</ele>
        <time>2014-03-24T17:38:22Z</time>
      </trkpt>
      <trkpt lat="43.448335" lon="1.829828">
        <ele>201.4</ele>
        <time>2014-03-24T17:38:30Z</time>
      </trkpt>
      <trkpt lat="43.448372" lon="1.829664">
        <ele>201.3</ele>
        <time>2014-03-24T17:38:37Z</time>
      </trkpt>
      <trkpt lat="43.448399" lon="1.829535">
        <ele>201.3</ele>
        <time>2014-03-24T17:38:44Z</time>
      </trkpt>
      <trkpt lat="43.448425" lon="1.829386">
        <ele>201.1</ele>
        <time>2014-03-24T17:38:52Z</time>
      </trkpt>
      <trkpt lat="43.448456" lon="1.829243">
        <ele>201.0</ele>
        <time>2014-03-24T17:38:59Z</time>
      </trkpt>
      <trkpt lat="43.448472" lon="1.829107">
        <ele>201.1</ele>
        <time>2014-03-24T17:39:06Z</time>
      </trkpt>
      <trkpt lat="43.448473" lon="1.828953">
        <ele>201.0</ele>
        <time>2014-03-24T17:39:14Z</time>
      </trkpt>
      <trkpt lat="43.448455" lon="1.828805">
        <ele>200.6</ele>
        <time>2014-03-24T17:39:21Z</time>
      </trkpt>
      <trkpt lat="43.448460" lon="1.828651">
        <ele>200.6</ele>
        <time>2014-03-24T17:39:28Z</time>
      </trkpt>
      <trkpt lat="43.448520" lon="1.828546">
        <ele>200.7</ele>
        <time>2014-03-24T17:39:35Z</time>
      </trkpt>
      <trkpt lat="43.448621" lon="1.828507">
        <ele>200.9</ele>
        <time>2014-03-24T17:39:42Z</time>
      </trkpt>
      <trkpt lat="43.448713" lon="1.828503">
        <ele>201.0</ele>
        <time>2014-03-24T17:39:49Z</time>
      </trkpt>
      <trkpt lat="43.448813" lon="1.828506">
        <ele>201.3</ele>
        <time>2014-03-24T17:39:57Z</time>
      </trkpt>
      <trkpt lat="43.448903" lon="1.828484">
        <ele>201.4</ele>
        <time>2014-03-24T17:40:15Z</time>
      </trkpt>
      <trkpt lat="43.448976" lon="1.828378">
        <ele>202.4</ele>
        <time>2014-03-24T17:40:47Z</time>
      </trkpt>
      <trkpt lat="43.449072" lon="1.828411">
        <ele>202.5</ele>
        <time>2014-03-24T17:40:55Z</time>
      </trkpt>
      <trkpt lat="43.449161" lon="1.828401">
        <ele>202.6</ele>
        <time>2014-03-24T17:41:03Z</time>
      </trkpt>
      <trkpt lat="43.449256" lon="1.828387">
        <ele>203.1</ele>
        <time>2014-03-24T17:41:11Z</time>
      </trkpt>
      <trkpt lat="43.449355" lon="1.828411">
        <ele>203.6</ele>
        <time>2014-03-24T17:41:19Z</time>
      </trkpt>
      <trkpt lat="43.449460" lon="1.828419">
        <ele>204.4</ele>
        <time>2014-03-24T17:41:27Z</time>
      </trkpt>
      <trkpt lat="43.449554" lon="1.828424">
        <ele>205.2</ele>
        <time>2014-03-24T17:41:35Z</time>
      </trkpt>
      <trkpt lat="43.449644" lon="1.828409">
        <ele>206.0</ele>
        <time>2014-03-24T17:41:42Z</time>
      </trkpt>
      <trkpt lat="43.449737" lon="1.828407">
        <ele>206.6</ele>
        <time>2014-03-24T17:41:49Z</time>
      </trkpt>
      <trkpt lat="43.449828" lon="1.828389">
        <ele>207.3</ele>
        <time>2014-03-24T17:41:56Z</time>
      </trkpt>
      <trkpt lat="43.449928" lon="1.828389">
        <ele>208.0</ele>
        <time>2014-03-24T17:42:04Z</time>
      </trkpt>
      <trkpt lat="43.450025" lon="1.828379">
        <ele>209.0</ele>
        <time>2014-03-24T17:42:11Z</time>
      </trkpt>
      <trkpt lat="43.450123" lon="1.828365">
        <ele>209.8</ele>
        <time>2014-03-24T17:42:18Z</time>
      </trkpt>
      <trkpt lat="43.450232" lon="1.828348">
        <ele>210.2</ele>
        <time>2014-03-24T17:42:25Z</time>
      </trkpt>
      <trkpt lat="43.450325" lon="1.828344">
        <ele>210.8</ele>
        <time>2014-03-24T17:42:32Z</time>
      </trkpt>
      <trkpt lat="43.450416" lon="1.828341">
        <ele>211.2</ele>
        <time>2014-03-24T17:42:39Z</time>
      </trkpt>
      <trkpt lat="43.450516" lon="1.828339">
        <ele>211.9</ele>
        <time>2014-03-24T17:42:46Z</time>
      </trkpt>
      <trkpt lat="43.450613" lon="1.828350">
        <ele>212.9</ele>
        <time>2014-03-24T17:42:53Z</time>
      </trkpt>
      <trkpt lat="43.450699" lon="1.828340">
        <ele>213.8</ele>
        <time>2014-03-24T17:43:00Z</time>
      </trkpt>
      <trkpt lat="43.450799" lon="1.828300">
        <ele>215.0</ele>
        <time>2014-03-24T17:43:08Z</time>
      </trkpt>
      <trkpt lat="43.450895" lon="1.828277">
        <ele>215.8</ele>
        <time>2014-03-24T17:43:15Z</time>
      </trkpt>
      <trkpt lat="43.450982" lon="1.828227">
        <ele>216.9</ele>
        <time>2014-03-24T17:43:22Z</time>
      </trkpt>
      <trkpt lat="43.451072" lon="1.828205">
        <ele>217.8</ele>
        <time>2014-03-24T17:43:29Z</time>
      </trkpt>
      <trkpt lat="43.451169" lon="1.828187">
        <ele>218.4</ele>
        <time>2014-03-24T17:43:36Z</time>
      </trkpt>
      <trkpt lat="43.451261" lon="1.828158">
        <ele>219.1</ele>
        <time>2014-03-24T17:43:43Z</time>
      </trkpt>
      <trkpt lat="43.451353" lon="1.828168">
        <ele>220.1</ele>
        <time>2014-03-24T17:43:50Z</time>
      </trkpt>
      <trkpt lat="43.451452" lon="1.828177">
        <ele>220.9</ele>
        <time>2014-03-24T17:43:57Z</time>
      </trkpt>
      <trkpt lat="43.451540" lon="1.828133">
        <ele>221.9</ele>
        <time>2014-03-24T17:44:04Z</time>
      </trkpt>
      <trkpt lat="43.451594" lon="1.828024">
        <ele>222.2</ele>
        <time>2014-03-24T17:44:11Z</time>
      </trkpt>
      <trkpt lat="43.451643" lon="1.827904">
        <ele>221.9</ele>
        <time>2014-03-24T17:44:18Z</time>
      </trkpt>
      <trkpt lat="43.451696" lon="1.827787">
        <ele>221.6</ele>
        <time>2014-03-24T17:44:25Z</time>
      </trkpt>
      <trkpt lat="43.451755" lon="1.827667">
        <ele>221.1</ele>
        <time>2014-03-24T17:44:32Z</time>
      </trkpt>
      <trkpt lat="43.451819" lon="1.827557">
        <ele>221.0</ele>
        <time>2014-03-24T17:44:39Z</time>
      </trkpt>
      <trkpt lat="43.451904" lon="1.827479">
        <ele>221.4</ele>
        <time>2014-03-24T17:44:46Z</time>
      </trkpt>
      <trkpt lat="43.451993" lon="1.827395">
        <ele>221.8</ele>
        <time>2014-03-24T17:44:53Z</time>
      </trkpt>
      <trkpt lat="43.452073" lon="1.827311">
        <ele>222.2</ele>
        <time>2014-03-24T17:45:00Z</time>
      </trkpt>
      <trkpt lat="43.452149" lon="1.827225">
        <ele>222.4</ele>
        <time>2014-03-24T17:45:07Z</time>
      </trkpt>
      <trkpt lat="43.452231" lon="1.827141">
        <ele>222.5</ele>
        <time>2014-03-24T17:45:14Z</time>
      </trkpt>
      <trkpt lat="43.452307" lon="1.827069">
        <ele>222.1</ele>
        <time>2014-03-24T17:45:21Z</time>
      </trkpt>
      <trkpt lat="43.452387" lon="1.826999">
        <ele>221.9</ele>
        <time>2014-03-24T17:45:28Z</time>
      </trkpt>
      <trkpt lat="43.452458" lon="1.826921">
        <ele>221.9</ele>
        <time>2014-03-24T17:45:35Z</time>
      </trkpt>
      <trkpt lat="43.452520" lon="1.826820">
        <ele>221.1</ele>
        <time>2014-03-24T17:45:42Z</time>
      </trkpt>
      <trkpt lat="43.452587" lon="1.826720">
        <ele>220.2</ele>
        <time>2014-03-24T17:45:50Z</time>
      </trkpt>
      <trkpt lat="43.452657" lon="1.826634">
        <ele>218.8</ele>
        <time>2014-03-24T17:45:58Z</time>
      </trkpt>
      <trkpt lat="43.452723" lon="1.826533">
        <ele>217.6</ele>
        <time>2014-03-24T17:46:05Z</time>
      </trkpt>
      <trkpt lat="43.452780" lon="1.826435">
        <ele>216.2</ele>
        <time>2014-03-24T17:46:12Z</time>
      </trkpt>
      <trkpt lat="43.452820" lon="1.826297">
        <ele>214.5</ele>
        <time>2014-03-24T17:46:19Z</time>
      </trkpt>
      <trkpt lat="43.452855" lon="1.826150">
        <ele>213.4</ele>
        <time>2014-03-24T17:46:26Z</time>
      </trkpt>
      <trkpt lat="43.452897" lon="1.826019">
        <ele>212.6</ele>
        <time>2014-03-24T17:46:33Z</time>
      </trkpt>
      <trkpt lat="43.452938" lon="1.825899">
        <ele>212.3</ele>
        <time>2014-03-24T17:46:40Z</time>
      </trkpt>
      <trkpt lat="43.452960" lon="1.825767">
        <ele>211.9</ele>
        <time>2014-03-24T17:46:48Z</time>
      </trkpt>
      <trkpt lat="43.452949" lon="1.825630">
        <ele>211.7</ele>
        <time>2014-03-24T17:46:56Z</time>
      </trkpt>
      <trkpt lat="43.452971" lon="1.825507">
        <ele>211.8</ele>
        <time>2014-03-24T17:47:03Z</time>
      </trkpt>
      <trkpt lat="43.453030" lon="1.825401">
        <ele>213.0</ele>
        <time>2014-03-24T17:47:13Z</time>
      </trkpt>
      <trkpt lat="43.453108" lon="1.825291">
        <ele>214.8</ele>
        <time>2014-03-24T17:47:22Z</time>
      </trkpt>
      <trkpt lat="43.453188" lon="1.825208">
        <ele>216.6</ele>
        <time>2014-03-24T17:47:31Z</time>
      </trkpt>
      <trkpt lat="43.453236" lon="1.825084">
        <ele>218.5</ele>
        <time>2014-03-24T17:47:39Z</time>
      </trkpt>
      <trkpt lat="43.453273" lon="1.824960">
        <ele>219.6</ele>
        <time>2014-03-24T17:47:46Z</time>
      </trkpt>
      <trkpt lat="43.453302" lon="1.824832">
        <ele>220.5</ele>
        <time>2014-03-24T17:47:53Z</time>
      </trkpt>
      <trkpt lat="43.453330" lon="1.824706">
        <ele>221.4</ele>
        <time>2014-03-24T17:48:00Z</time>
      </trkpt>
      <trkpt lat="43.453358" lon="1.824580">
        <ele>222.4</ele>
        <time>2014-03-24T17:48:07Z</time>
      </trkpt>
      <trkpt lat="43.453384" lon="1.824446">
        <ele>223.4</ele>
        <time>2014-03-24T17:48:14Z</time>
      </trkpt>
      <trkpt lat="43.453418" lon="1.824321">
        <ele>224.5</ele>
        <time>2014-03-24T17:48:21Z</time>
      </trkpt>
      <trkpt lat="43.453452" lon="1.824199">
        <ele>225.6</ele>
        <time>2014-03-24T17:48:28Z</time>
      </trkpt>
      <trkpt lat="43.453488" lon="1.824083">
        <ele>226.6</ele>
        <time>2014-03-24T17:48:35Z</time>
      </trkpt>
      <trkpt lat="43.453521" lon="1.823958">
        <ele>227.6</ele>
        <time>2014-03-24T17:48:42Z</time>
      </trkpt>
      <trkpt lat="43.453560" lon="1.823836">
        <ele>228.5</ele>
        <time>2014-03-24T17:48:49Z</time>
      </trkpt>
      <trkpt lat="43.453606" lon="1.823717">
        <ele>229.7</ele>
        <time>2014-03-24T17:48:56Z</time>
      </trkpt>
      <trkpt lat="43.453646" lon="1.823606">
        <ele>230.6</ele>
        <time>2014-03-24T17:49:03Z</time>
      </trkpt>
      <trkpt lat="43.453682" lon="1.823481">
        <ele>231.7</ele>
        <time>2014-03-24T17:49:10Z</time>
      </trkpt>
      <trkpt lat="43.453719" lon="1.823359">
        <ele>232.4</ele>
        <time>2014-03-24T17:49:17Z</time>
      </trkpt>
      <trkpt lat="43.453760" lon="1.823236">
        <ele>233.0</ele>
        <time>2014-03-24T17:49:24Z</time>
      </trkpt>
      <trkpt lat="43.453802" lon="1.823121">
        <ele>233.5</ele>
        <time>2014-03-24T17:49:30Z</time>
      </trkpt>
      <trkpt lat="43.453837" lon="1.822992">
        <ele>234.2</ele>
        <time>2014-03-24T17:49:37Z</time>
      </trkpt>
      <trkpt lat="43.453878" lon="1.822884">
        <ele>235.0</ele>
        <time>2014-03-24T17:49:43Z</time>
      </trkpt>
      <trkpt lat="43.453921" lon="1.822775">
        <ele>235.3</ele>
        <time>2014-03-24T17:49:49Z</time>
      </trkpt>
      <trkpt lat="43.453973" lon="1.822666">
        <ele>235.5</ele>
        <time>2014-03-24T17:49:55Z</time>
      </trkpt>
      <trkpt lat="43.454031" lon="1.822562">
        <ele>235.8</ele>
        <time>2014-03-24T17:50:02Z</time>
      </trkpt>
      <trkpt lat="43.454103" lon="1.822465">
        <ele>236.2</ele>
        <time>2014-03-24T17:50:09Z</time>
      </trkpt>
      <trkpt lat="43.454185" lon="1.822375">
        <ele>236.3</ele>
        <time>2014-03-24T17:50:16Z</time>
      </trkpt>
      <trkpt lat="43.454246" lon="1.822269">
        <ele>236.4</ele>
        <time>2014-03-24T17:50:23Z</time>
      </trkpt>
      <trkpt lat="43.454327" lon="1.822179">
        <ele>236.3</ele>
        <time>2014-03-24T17:50:30Z</time>
      </trkpt>
      <trkpt lat="43.454398" lon="1.822095">
        <ele>236.1</ele>
        <time>2014-03-24T17:50:36Z</time>
      </trkpt>
      <trkpt lat="43.454470" lon="1.822019">
        <ele>236.1</ele>
        <time>2014-03-24T17:50:42Z</time>
      </trkpt>
      <trkpt lat="43.454556" lon="1.821932">
        <ele>235.8</ele>
        <time>2014-03-24T17:50:49Z</time>
      </trkpt>
      <trkpt lat="43.454627" lon="1.821903">
        <ele>235.4</ele>
        <time>2014-03-24T17:50:58Z</time>
        <name>Bif. cote 260m</name>
      </trkpt>
      <trkpt lat="43.454684" lon="1.821987">
        <ele>234.1</ele>
        <time>2014-03-24T17:51:10Z</time>
      </trkpt>
      <trkpt lat="43.454697" lon="1.822122">
        <ele>233.4</ele>
        <time>2014-03-24T17:51:18Z</time>
      </trkpt>
      <trkpt lat="43.454716" lon="1.822259">
        <ele>232.4</ele>
        <time>2014-03-24T17:51:26Z</time>
      </trkpt>
      <trkpt lat="43.454734" lon="1.822379">
        <ele>231.4</ele>
        <time>2014-03-24T17:51:34Z</time>
      </trkpt>
      <trkpt lat="43.454750" lon="1.822518">
        <ele>230.3</ele>
        <time>2014-03-24T17:51:42Z</time>
      </trkpt>
      <trkpt lat="43.454778" lon="1.822631">
        <ele>229.0</ele>
        <time>2014-03-24T17:51:52Z</time>
      </trkpt>
      <trkpt lat="43.454792" lon="1.822769">
        <ele>228.1</ele>
        <time>2014-03-24T17:52:04Z</time>
      </trkpt>
      <trkpt lat="43.454817" lon="1.822900">
        <ele>227.4</ele>
        <time>2014-03-24T17:52:12Z</time>
      </trkpt>
      <trkpt lat="43.454828" lon="1.823045">
        <ele>226.4</ele>
        <time>2014-03-24T17:52:20Z</time>
      </trkpt>
      <trkpt lat="43.454844" lon="1.823186">
        <ele>225.8</ele>
        <time>2014-03-24T17:52:28Z</time>
      </trkpt>
      <trkpt lat="43.454867" lon="1.823310">
        <ele>225.5</ele>
        <time>2014-03-24T17:52:35Z</time>
      </trkpt>
      <trkpt lat="43.454894" lon="1.823444">
        <ele>224.3</ele>
        <time>2014-03-24T17:52:43Z</time>
      </trkpt>
      <trkpt lat="43.454904" lon="1.823580">
        <ele>222.6</ele>
        <time>2014-03-24T17:52:52Z</time>
      </trkpt>
      <trkpt lat="43.454916" lon="1.823729">
        <ele>221.0</ele>
        <time>2014-03-24T17:53:01Z</time>
      </trkpt>
      <trkpt lat="43.454933" lon="1.823871">
        <ele>219.5</ele>
        <time>2014-03-24T17:53:09Z</time>
      </trkpt>
      <trkpt lat="43.454965" lon="1.824029">
        <ele>218.3</ele>
        <time>2014-03-24T17:53:17Z</time>
      </trkpt>
      <trkpt lat="43.455005" lon="1.824170">
        <ele>217.5</ele>
        <time>2014-03-24T17:53:25Z</time>
      </trkpt>
      <trkpt lat="43.455038" lon="1.824314">
        <ele>216.9</ele>
        <time>2014-03-24T17:53:32Z</time>
      </trkpt>
      <trkpt lat="43.455088" lon="1.824458">
        <ele>216.3</ele>
        <time>2014-03-24T17:53:39Z</time>
      </trkpt>
      <trkpt lat="43.455103" lon="1.824588">
        <ele>216.2</ele>
        <time>2014-03-24T17:53:46Z</time>
      </trkpt>
      <trkpt lat="43.455101" lon="1.824725">
        <ele>216.3</ele>
        <time>2014-03-24T17:53:53Z</time>
      </trkpt>
      <trkpt lat="43.455088" lon="1.824875">
        <ele>216.6</ele>
        <time>2014-03-24T17:54:00Z</time>
      </trkpt>
      <trkpt lat="43.455106" lon="1.825022">
        <ele>216.8</ele>
        <time>2014-03-24T17:54:07Z</time>
      </trkpt>
      <trkpt lat="43.455125" lon="1.825151">
        <ele>217.3</ele>
        <time>2014-03-24T17:54:14Z</time>
      </trkpt>
      <trkpt lat="43.455138" lon="1.825281">
        <ele>217.8</ele>
        <time>2014-03-24T17:54:21Z</time>
      </trkpt>
      <trkpt lat="43.455155" lon="1.825415">
        <ele>218.2</ele>
        <time>2014-03-24T17:54:28Z</time>
      </trkpt>
      <trkpt lat="43.455172" lon="1.825554">
        <ele>219.1</ele>
        <time>2014-03-24T17:54:35Z</time>
      </trkpt>
      <trkpt lat="43.455202" lon="1.825690">
        <ele>219.7</ele>
        <time>2014-03-24T17:54:42Z</time>
      </trkpt>
      <trkpt lat="43.455219" lon="1.825822">
        <ele>220.3</ele>
        <time>2014-03-24T17:54:49Z</time>
      </trkpt>
      <trkpt lat="43.455238" lon="1.825941">
        <ele>220.8</ele>
        <time>2014-03-24T17:54:56Z</time>
      </trkpt>
      <trkpt lat="43.455272" lon="1.826059">
        <ele>221.4</ele>
        <time>2014-03-24T17:55:03Z</time>
      </trkpt>
      <trkpt lat="43.455322" lon="1.826178">
        <ele>221.9</ele>
        <time>2014-03-24T17:55:10Z</time>
      </trkpt>
      <trkpt lat="43.455363" lon="1.826301">
        <ele>222.5</ele>
        <time>2014-03-24T17:55:17Z</time>
      </trkpt>
      <trkpt lat="43.455409" lon="1.826412">
        <ele>222.9</ele>
        <time>2014-03-24T17:55:24Z</time>
      </trkpt>
      <trkpt lat="43.455451" lon="1.826523">
        <ele>223.5</ele>
        <time>2014-03-24T17:55:31Z</time>
      </trkpt>
      <trkpt lat="43.455508" lon="1.826624">
        <ele>224.3</ele>
        <time>2014-03-24T17:55:38Z</time>
      </trkpt>
      <trkpt lat="43.455559" lon="1.826734">
        <ele>225.6</ele>
        <time>2014-03-24T17:55:45Z</time>
      </trkpt>
      <trkpt lat="43.455612" lon="1.826846">
        <ele>227.0</ele>
        <time>2014-03-24T17:55:52Z</time>
      </trkpt>
      <trkpt lat="43.455660" lon="1.826961">
        <ele>228.6</ele>
        <time>2014-03-24T17:56:00Z</time>
      </trkpt>
      <trkpt lat="43.455722" lon="1.827077">
        <ele>230.2</ele>
        <time>2014-03-24T17:56:08Z</time>
      </trkpt>
      <trkpt lat="43.455776" lon="1.827197">
        <ele>231.2</ele>
        <time>2014-03-24T17:56:15Z</time>
      </trkpt>
      <trkpt lat="43.455828" lon="1.827310">
        <ele>232.2</ele>
        <time>2014-03-24T17:56:22Z</time>
      </trkpt>
      <trkpt lat="43.455871" lon="1.827414">
        <ele>233.2</ele>
        <time>2014-03-24T17:56:29Z</time>
      </trkpt>
      <trkpt lat="43.455916" lon="1.827523">
        <ele>234.3</ele>
        <time>2014-03-24T17:56:36Z</time>
      </trkpt>
      <trkpt lat="43.455977" lon="1.827633">
        <ele>235.5</ele>
        <time>2014-03-24T17:56:44Z</time>
      </trkpt>
      <trkpt lat="43.456025" lon="1.827747">
        <ele>236.8</ele>
        <time>2014-03-24T17:56:52Z</time>
      </trkpt>
      <trkpt lat="43.456076" lon="1.827875">
        <ele>238.0</ele>
        <time>2014-03-24T17:57:00Z</time>
      </trkpt>
      <trkpt lat="43.456133" lon="1.827982">
        <ele>239.0</ele>
        <time>2014-03-24T17:57:07Z</time>
      </trkpt>
      <trkpt lat="43.456175" lon="1.828093">
        <ele>239.9</ele>
        <time>2014-03-24T17:57:14Z</time>
      </trkpt>
      <trkpt lat="43.456215" lon="1.828209">
        <ele>241.0</ele>
        <time>2014-03-24T17:57:21Z</time>
      </trkpt>
      <trkpt lat="43.456257" lon="1.828325">
        <ele>242.3</ele>
        <time>2014-03-24T17:57:28Z</time>
      </trkpt>
      <trkpt lat="43.456279" lon="1.828441">
        <ele>242.8</ele>
        <time>2014-03-24T17:57:35Z</time>
      </trkpt>
      <trkpt lat="43.456253" lon="1.828574">
        <ele>243.1</ele>
        <time>2014-03-24T17:57:42Z</time>
      </trkpt>
      <trkpt lat="43.456221" lon="1.828691">
        <ele>243.3</ele>
        <time>2014-03-24T17:57:50Z</time>
      </trkpt>
      <trkpt lat="43.456187" lon="1.828795">
        <ele>243.8</ele>
        <time>2014-03-24T17:57:57Z</time>
      </trkpt>
      <trkpt lat="43.456162" lon="1.828923">
        <ele>243.8</ele>
        <time>2014-03-24T17:58:05Z</time>
      </trkpt>
      <trkpt lat="43.456130" lon="1.829063">
        <ele>243.6</ele>
        <time>2014-03-24T17:58:13Z</time>
      </trkpt>
      <trkpt lat="43.456100" lon="1.829199">
        <ele>243.4</ele>
        <time>2014-03-24T17:58:21Z</time>
      </trkpt>
      <trkpt lat="43.456079" lon="1.829349">
        <ele>243.3</ele>
        <time>2014-03-24T17:58:29Z</time>
      </trkpt>
      <trkpt lat="43.456057" lon="1.829494">
        <ele>243.4</ele>
        <time>2014-03-24T17:58:37Z</time>
      </trkpt>
      <trkpt lat="43.456046" lon="1.829624">
        <ele>243.5</ele>
        <time>2014-03-24T17:58:45Z</time>
      </trkpt>
      <trkpt lat="43.456034" lon="1.829763">
        <ele>243.7</ele>
        <time>2014-03-24T17:58:53Z</time>
      </trkpt>
      <trkpt lat="43.456028" lon="1.829904">
        <ele>243.9</ele>
        <time>2014-03-24T17:59:00Z</time>
      </trkpt>
      <trkpt lat="43.456023" lon="1.830048">
        <ele>244.0</ele>
        <time>2014-03-24T17:59:07Z</time>
      </trkpt>
      <trkpt lat="43.456014" lon="1.830195">
        <ele>244.2</ele>
        <time>2014-03-24T17:59:14Z</time>
      </trkpt>
      <trkpt lat="43.456003" lon="1.830336">
        <ele>244.5</ele>
        <time>2014-03-24T17:59:21Z</time>
      </trkpt>
      <trkpt lat="43.455976" lon="1.830468">
        <ele>244.7</ele>
        <time>2014-03-24T17:59:28Z</time>
      </trkpt>
      <trkpt lat="43.455936" lon="1.830594">
        <ele>244.9</ele>
        <time>2014-03-24T17:59:35Z</time>
      </trkpt>
      <trkpt lat="43.455889" lon="1.830688">
        <ele>245.1</ele>
        <time>2014-03-24T17:59:42Z</time>
      </trkpt>
      <trkpt lat="43.455836" lon="1.830800">
        <ele>245.5</ele>
        <time>2014-03-24T17:59:49Z</time>
      </trkpt>
      <trkpt lat="43.455791" lon="1.830913">
        <ele>245.9</ele>
        <time>2014-03-24T17:59:56Z</time>
      </trkpt>
      <trkpt lat="43.455747" lon="1.831033">
        <ele>246.4</ele>
        <time>2014-03-24T18:00:03Z</time>
      </trkpt>
      <trkpt lat="43.455695" lon="1.831180">
        <ele>246.8</ele>
        <time>2014-03-24T18:00:10Z</time>
      </trkpt>
      <trkpt lat="43.455650" lon="1.831294">
        <ele>247.3</ele>
        <time>2014-03-24T18:00:17Z</time>
      </trkpt>
      <trkpt lat="43.455595" lon="1.831407">
        <ele>248.0</ele>
        <time>2014-03-24T18:00:24Z</time>
      </trkpt>
      <trkpt lat="43.455564" lon="1.831535">
        <ele>248.6</ele>
        <time>2014-03-24T18:00:31Z</time>
      </trkpt>
      <trkpt lat="43.455537" lon="1.831666">
        <ele>249.1</ele>
        <time>2014-03-24T18:00:38Z</time>
      </trkpt>
      <trkpt lat="43.455533" lon="1.831807">
        <ele>249.4</ele>
        <time>2014-03-24T18:00:45Z</time>
      </trkpt>
      <trkpt lat="43.455525" lon="1.831941">
        <ele>249.9</ele>
        <time>2014-03-24T18:00:52Z</time>
      </trkpt>
      <trkpt lat="43.455521" lon="1.832075">
        <ele>250.3</ele>
        <time>2014-03-24T18:00:59Z</time>
      </trkpt>
      <trkpt lat="43.455510" lon="1.832208">
        <ele>250.7</ele>
        <time>2014-03-24T18:01:06Z</time>
      </trkpt>
      <trkpt lat="43.455484" lon="1.832343">
        <ele>251.0</ele>
        <time>2014-03-24T18:01:12Z</time>
      </trkpt>
      <trkpt lat="43.455473" lon="1.832486">
        <ele>251.4</ele>
        <time>2014-03-24T18:01:19Z</time>
      </trkpt>
      <trkpt lat="43.455440" lon="1.832615">
        <ele>251.9</ele>
        <time>2014-03-24T18:01:26Z</time>
      </trkpt>
      <trkpt lat="43.455390" lon="1.832725">
        <ele>252.4</ele>
        <time>2014-03-24T18:01:33Z</time>
      </trkpt>
      <trkpt lat="43.455338" lon="1.832837">
        <ele>252.9</ele>
        <time>2014-03-24T18:01:40Z</time>
      </trkpt>
      <trkpt lat="43.455293" lon="1.832945">
        <ele>253.5</ele>
        <time>2014-03-24T18:01:47Z</time>
      </trkpt>
      <trkpt lat="43.455240" lon="1.833057">
        <ele>254.0</ele>
        <time>2014-03-24T18:01:54Z</time>
      </trkpt>
      <trkpt lat="43.455182" lon="1.833166">
        <ele>254.7</ele>
        <time>2014-03-24T18:02:01Z</time>
      </trkpt>
      <trkpt lat="43.455123" lon="1.833267">
        <ele>255.1</ele>
        <time>2014-03-24T18:02:08Z</time>
      </trkpt>
      <trkpt lat="43.455049" lon="1.833366">
        <ele>255.5</ele>
        <time>2014-03-24T18:02:16Z</time>
      </trkpt>
      <trkpt lat="43.454975" lon="1.833463">
        <ele>255.4</ele>
        <time>2014-03-24T18:02:24Z</time>
      </trkpt>
      <trkpt lat="43.454906" lon="1.833572">
        <ele>255.4</ele>
        <time>2014-03-24T18:02:31Z</time>
      </trkpt>
      <trkpt lat="43.454833" lon="1.833676">
        <ele>255.4</ele>
        <time>2014-03-24T18:02:38Z</time>
      </trkpt>
      <trkpt lat="43.454760" lon="1.833764">
        <ele>255.4</ele>
        <time>2014-03-24T18:02:45Z</time>
      </trkpt>
      <trkpt lat="43.454694" lon="1.833860">
        <ele>255.4</ele>
        <time>2014-03-24T18:02:52Z</time>
      </trkpt>
      <trkpt lat="43.454633" lon="1.833978">
        <ele>255.0</ele>
        <time>2014-03-24T18:02:59Z</time>
      </trkpt>
      <trkpt lat="43.454565" lon="1.834076">
        <ele>255.0</ele>
        <time>2014-03-24T18:03:06Z</time>
      </trkpt>
      <trkpt lat="43.454485" lon="1.834191">
        <ele>255.1</ele>
        <time>2014-03-24T18:03:13Z</time>
      </trkpt>
      <trkpt lat="43.454415" lon="1.834304">
        <ele>255.0</ele>
        <time>2014-03-24T18:03:20Z</time>
      </trkpt>
      <trkpt lat="43.454340" lon="1.834391">
        <ele>254.8</ele>
        <time>2014-03-24T18:03:27Z</time>
      </trkpt>
      <trkpt lat="43.454258" lon="1.834502">
        <ele>254.7</ele>
        <time>2014-03-24T18:03:34Z</time>
      </trkpt>
      <trkpt lat="43.454183" lon="1.834621">
        <ele>254.8</ele>
        <time>2014-03-24T18:03:41Z</time>
      </trkpt>
      <trkpt lat="43.454137" lon="1.834730">
        <ele>254.8</ele>
        <time>2014-03-24T18:03:48Z</time>
      </trkpt>
      <trkpt lat="43.454111" lon="1.834859">
        <ele>254.4</ele>
        <time>2014-03-24T18:03:55Z</time>
      </trkpt>
      <trkpt lat="43.454129" lon="1.835009">
        <ele>253.8</ele>
        <time>2014-03-24T18:04:03Z</time>
      </trkpt>
      <trkpt lat="43.454196" lon="1.835101">
        <ele>253.8</ele>
        <time>2014-03-24T18:04:10Z</time>
      </trkpt>
      <trkpt lat="43.454274" lon="1.835178">
        <ele>254.1</ele>
        <time>2014-03-24T18:04:17Z</time>
      </trkpt>
      <trkpt lat="43.454359" lon="1.835237">
        <ele>254.5</ele>
        <time>2014-03-24T18:04:23Z</time>
      </trkpt>
      <trkpt lat="43.454430" lon="1.835319">
        <ele>254.5</ele>
        <time>2014-03-24T18:04:29Z</time>
      </trkpt>
      <trkpt lat="43.454521" lon="1.835375">
        <ele>254.7</ele>
        <time>2014-03-24T18:04:35Z</time>
      </trkpt>
      <trkpt lat="43.454602" lon="1.835445">
        <ele>254.7</ele>
        <time>2014-03-24T18:04:42Z</time>
      </trkpt>
      <trkpt lat="43.454684" lon="1.835490">
        <ele>254.6</ele>
        <time>2014-03-24T18:04:48Z</time>
      </trkpt>
      <trkpt lat="43.454773" lon="1.835557">
        <ele>254.4</ele>
        <time>2014-03-24T18:04:55Z</time>
      </trkpt>
      <trkpt lat="43.454861" lon="1.835618">
        <ele>254.1</ele>
        <time>2014-03-24T18:05:02Z</time>
      </trkpt>
      <trkpt lat="43.454936" lon="1.835671">
        <ele>253.8</ele>
        <time>2014-03-24T18:05:09Z</time>
      </trkpt>
      <trkpt lat="43.455021" lon="1.835738">
        <ele>253.8</ele>
        <time>2014-03-24T18:05:16Z</time>
      </trkpt>
      <trkpt lat="43.455110" lon="1.835800">
        <ele>253.7</ele>
        <time>2014-03-24T18:05:23Z</time>
      </trkpt>
      <trkpt lat="43.455207" lon="1.835886">
        <ele>253.9</ele>
        <time>2014-03-24T18:05:30Z</time>
      </trkpt>
      <trkpt lat="43.455297" lon="1.835977">
        <ele>254.4</ele>
        <time>2014-03-24T18:05:36Z</time>
      </trkpt>
      <trkpt lat="43.455372" lon="1.836052">
        <ele>254.4</ele>
        <time>2014-03-24T18:05:43Z</time>
      </trkpt>
      <trkpt lat="43.455468" lon="1.836142">
        <ele>254.9</ele>
        <time>2014-03-24T18:05:50Z</time>
      </trkpt>
      <trkpt lat="43.455513" lon="1.836261">
        <ele>256.1</ele>
        <time>2014-03-24T18:05:58Z</time>
      </trkpt>
      <trkpt lat="43.455528" lon="1.836372">
        <ele>256.8</ele>
        <time>2014-03-24T18:06:05Z</time>
      </trkpt>
      <trkpt lat="43.455570" lon="1.836506">
        <ele>257.8</ele>
        <time>2014-03-24T18:06:13Z</time>
      </trkpt>
      <trkpt lat="43.455631" lon="1.836649">
        <ele>258.8</ele>
        <time>2014-03-24T18:06:21Z</time>
      </trkpt>
      <trkpt lat="43.455670" lon="1.836783">
        <ele>259.9</ele>
        <time>2014-03-24T18:06:29Z</time>
      </trkpt>
      <trkpt lat="43.455717" lon="1.836907">
        <ele>260.5</ele>
        <time>2014-03-24T18:06:36Z</time>
      </trkpt>
      <trkpt lat="43.455754" lon="1.837033">
        <ele>261.5</ele>
        <time>2014-03-24T18:06:44Z</time>
      </trkpt>
      <trkpt lat="43.455804" lon="1.837166">
        <ele>262.4</ele>
        <time>2014-03-24T18:06:52Z</time>
      </trkpt>
      <trkpt lat="43.455883" lon="1.837272">
        <ele>263.2</ele>
        <time>2014-03-24T18:07:01Z</time>
      </trkpt>
      <trkpt lat="43.455967" lon="1.837340">
        <ele>264.5</ele>
        <time>2014-03-24T18:07:10Z</time>
      </trkpt>
      <trkpt lat="43.456096" lon="1.837408">
        <ele>265.4</ele>
        <time>2014-03-24T18:07:21Z</time>
      </trkpt>
      <trkpt lat="43.456191" lon="1.837418">
        <ele>265.7</ele>
        <time>2014-03-24T18:07:28Z</time>
      </trkpt>
      <trkpt lat="43.456281" lon="1.837349">
        <ele>266.2</ele>
        <time>2014-03-24T18:07:37Z</time>
      </trkpt>
      <trkpt lat="43.456336" lon="1.837237">
        <ele>266.7</ele>
        <time>2014-03-24T18:07:49Z</time>
      </trkpt>
      <trkpt lat="43.456384" lon="1.837210">
        <ele>266.6</ele>
        <time>2014-03-24T18:08:14Z</time>
      </trkpt>
    </trkseg>
  </trk>
</gpx>

